Time,TemperatureF,DewpointF,PressureIn,WindDirection,WindDirectionDegrees,WindSpeedMPH,WindSpeedGustMPH,Humidity,HourlyPrecipIn,Conditions,Clouds,dailyrainin,SoftwareType,DateUTC
2013-12-24 00:00:00,51.6,37.3,30.12,WSW,248,2.5,2.5,58,0.00,,,0.00,VWS V14.01,2013-12-24 08:00:00,
2013-12-24 00:01:00,51.6,37.3,30.12,WSW,248,2.5,2.5,58,0.00,,,0.00,VWS V14.01,2013-12-24 08:01:00,
2013-12-24 00:02:00,51.6,37.3,30.12,WNW,292,2.0,2.5,58,0.00,,,0.00,VWS V14.01,2013-12-24 08:02:00,
2013-12-24 00:03:00,51.6,37.3,30.12,WNW,292,3.6,3.6,58,0.00,,,0.00,VWS V14.01,2013-12-24 08:03:00,
2013-12-24 00:04:00,51.8,37.5,30.12,NW,315,3.6,3.6,58,0.00,,,0.00,VWS V14.01,2013-12-24 08:04:00,
2013-12-24 00:05:00,51.8,37.5,30.12,West,270,3.6,3.6,58,0.00,,,0.00,VWS V14.01,2013-12-24 08:05:00,
2013-12-24 00:06:00,52.0,37.2,30.12,WNW,292,4.3,4.3,57,0.00,,,0.00,VWS V14.01,2013-12-24 08:06:00,
2013-12-24 00:07:00,52.0,37.2,30.12,West,270,5.4,5.4,57,0.00,,,0.00,VWS V14.01,2013-12-24 08:07:00,
2013-12-24 00:08:00,52.0,37.2,30.12,WNW,292,2.9,5.4,57,0.00,,,0.00,VWS V14.01,2013-12-24 08:08:00,
2013-12-24 00:09:00,52.0,37.2,30.12,WNW,292,2.7,5.4,57,0.00,,,0.00,VWS V14.01,2013-12-24 08:09:00,
2013-12-24 00:10:00,52.3,37.6,30.12,NW,315,3.6,5.4,57,0.00,,,0.00,VWS V14.01,2013-12-24 08:10:00,
2013-12-24 00:11:00,52.5,37.7,30.12,NNW,338,2.9,3.6,57,0.00,,,0.00,VWS V14.01,2013-12-24 08:11:00,
2013-12-24 00:12:00,52.5,37.7,30.12,NW,315,2.2,3.6,57,0.00,,,0.00,VWS V14.01,2013-12-24 08:12:00,
2013-12-24 00:13:00,52.5,37.7,30.12,WNW,292,3.1,3.6,57,0.00,,,0.00,VWS V14.01,2013-12-24 08:13:00,
2013-12-24 00:14:00,52.5,37.7,30.12,NW,315,2.9,3.1,57,0.00,,,0.00,VWS V14.01,2013-12-24 08:14:00,
2013-12-24 00:15:00,52.5,37.7,30.12,WNW,292,3.4,3.4,57,0.00,,,0.00,VWS V14.01,2013-12-24 08:15:00,
2013-12-24 00:16:00,52.5,37.3,30.12,WNW,292,2.7,3.4,56,0.00,,,0.00,VWS V14.01,2013-12-24 08:16:00,
2013-12-24 00:17:00,52.5,37.3,30.12,NW,315,2.9,3.4,56,0.00,,,0.00,VWS V14.01,2013-12-24 08:17:00,
2013-12-24 00:18:00,52.7,37.5,30.12,NW,315,4.9,4.9,56,0.00,,,0.00,VWS V14.01,2013-12-24 08:18:00,
2013-12-24 00:19:00,52.7,37.5,30.12,NNW,338,3.6,4.9,56,0.00,,,0.00,VWS V14.01,2013-12-24 08:19:00,
2013-12-24 00:20:00,52.9,37.6,30.12,WNW,292,3.6,4.9,56,0.00,,,0.00,VWS V14.01,2013-12-24 08:20:00,
2013-12-24 00:21:00,52.9,37.6,30.12,WNW,292,3.4,4.9,56,0.00,,,0.00,VWS V14.01,2013-12-24 08:21:00,
2013-12-24 00:22:00,52.9,37.6,30.12,WNW,292,3.1,3.6,56,0.00,,,0.00,VWS V14.01,2013-12-24 08:22:00,
2013-12-24 00:23:00,52.9,37.6,30.12,NW,315,4.0,4.0,56,0.00,,,0.00,VWS V14.01,2013-12-24 08:23:00,
2013-12-24 00:24:00,53.1,37.8,30.12,NW,315,4.0,4.0,56,0.00,,,0.00,VWS V14.01,2013-12-24 08:24:00,
2013-12-24 00:25:00,53.1,37.3,30.12,NW,315,3.8,4.0,55,0.00,,,0.00,VWS V14.01,2013-12-24 08:25:00,
2013-12-24 00:26:00,53.1,37.3,30.12,NW,315,3.6,4.0,55,0.00,,,0.00,VWS V14.01,2013-12-24 08:26:00,
2013-12-24 00:27:00,53.1,37.3,30.12,NW,315,2.7,4.0,55,0.00,,,0.00,VWS V14.01,2013-12-24 08:27:00,
2013-12-24 00:28:00,53.1,37.3,30.12,NW,315,3.8,3.8,55,0.00,,,0.00,VWS V14.01,2013-12-24 08:28:00,
2013-12-24 00:29:00,53.2,37.5,30.12,WNW,292,3.6,3.8,55,0.00,,,0.00,VWS V14.01,2013-12-24 08:29:00,
2013-12-24 00:30:00,53.2,37.5,30.12,WNW,292,3.1,3.8,55,0.00,,,0.00,VWS V14.01,2013-12-24 08:30:00,
2013-12-24 00:31:00,53.2,37.5,30.12,WNW,292,3.1,3.8,55,0.00,,,0.00,VWS V14.01,2013-12-24 08:31:00,
2013-12-24 00:32:00,53.1,37.3,30.12,NNW,338,3.1,3.8,55,0.00,,,0.00,VWS V14.01,2013-12-24 08:32:00,
2013-12-24 00:33:00,53.1,37.3,30.12,NW,315,2.7,3.6,55,0.00,,,0.00,VWS V14.01,2013-12-24 08:33:00,
2013-12-24 00:34:00,53.2,37.5,30.12,NW,315,3.1,3.1,55,0.00,,,0.00,VWS V14.01,2013-12-24 08:34:00,
2013-12-24 00:35:00,53.2,37.5,30.12,NNW,338,3.4,3.4,55,0.00,,,0.00,VWS V14.01,2013-12-24 08:35:00,
2013-12-24 00:36:00,53.2,37.5,30.12,WNW,292,2.7,3.4,55,0.00,,,0.00,VWS V14.01,2013-12-24 08:36:00,
2013-12-24 00:37:00,53.2,37.5,30.12,NNW,338,2.7,3.4,55,0.00,,,0.00,VWS V14.01,2013-12-24 08:37:00,
2013-12-24 00:38:00,53.2,37.5,30.12,NW,315,3.4,3.4,55,0.00,,,0.00,VWS V14.01,2013-12-24 08:38:00,
2013-12-24 00:39:00,53.2,37.5,30.12,WNW,292,3.1,3.1,55,0.00,,,0.00,VWS V14.01,2013-12-24 08:39:00,
2013-12-24 00:40:00,53.1,37.3,30.12,West,270,2.9,3.1,55,0.00,,,0.00,VWS V14.01,2013-12-24 08:40:00,
2013-12-24 00:41:00,53.1,36.9,30.12,WNW,292,2.7,3.1,54,0.00,,,0.00,VWS V14.01,2013-12-24 08:41:00,
2013-12-24 00:42:00,53.1,36.9,30.12,WNW,292,3.1,3.1,54,0.00,,,0.00,VWS V14.01,2013-12-24 08:42:00,
2013-12-24 00:43:00,53.1,36.9,30.12,West,270,3.4,3.4,54,0.00,,,0.00,VWS V14.01,2013-12-24 08:43:00,
2013-12-24 00:44:00,53.1,36.9,30.12,WNW,292,3.6,3.6,54,0.00,,,0.00,VWS V14.01,2013-12-24 08:44:00,
2013-12-24 00:45:00,53.1,36.9,30.12,WNW,292,3.8,3.8,54,0.00,,,0.00,VWS V14.01,2013-12-24 08:45:00,
2013-12-24 00:46:00,53.1,36.9,30.12,WNW,292,2.0,3.8,54,0.00,,,0.00,VWS V14.01,2013-12-24 08:46:00,
2013-12-24 00:47:00,53.1,36.9,30.12,West,270,3.4,3.8,54,0.00,,,0.00,VWS V14.01,2013-12-24 08:47:00,
2013-12-24 00:48:00,53.1,36.9,30.12,West,270,4.0,4.0,54,0.00,,,0.00,VWS V14.01,2013-12-24 08:48:00,
2013-12-24 00:49:00,53.1,36.9,30.12,WNW,292,2.0,4.0,54,0.00,,,0.00,VWS V14.01,2013-12-24 08:49:00,
2013-12-24 00:50:00,53.1,36.9,30.12,WNW,292,2.2,4.0,54,0.00,,,0.00,VWS V14.01,2013-12-24 08:50:00,
2013-12-24 00:51:00,53.1,36.9,30.12,WNW,292,2.2,2.2,54,0.00,,,0.00,VWS V14.01,2013-12-24 08:51:00,
2013-12-24 00:52:00,53.1,36.9,30.12,NW,315,2.0,2.2,54,0.00,,,0.00,VWS V14.01,2013-12-24 08:52:00,
2013-12-24 00:53:00,53.1,36.9,30.12,NNW,338,2.5,2.5,54,0.00,,,0.00,VWS V14.01,2013-12-24 08:53:00,
2013-12-24 00:54:00,53.2,37.0,30.12,NNW,338,2.9,2.9,54,0.00,,,0.00,VWS V14.01,2013-12-24 08:54:00,
2013-12-24 00:55:00,53.4,37.2,30.12,NNW,338,2.9,3.4,54,0.00,,,0.00,VWS V14.01,2013-12-24 08:55:00,
2013-12-24 00:56:00,53.4,37.2,30.12,NW,315,2.0,3.4,54,0.00,,,0.00,VWS V14.01,2013-12-24 08:56:00,
2013-12-24 00:57:00,53.2,37.0,30.12,WNW,292,0.0,3.4,54,0.00,,,0.00,VWS V14.01,2013-12-24 08:57:00,
2013-12-24 00:58:00,53.2,37.0,30.12,NW,315,0.0,2.9,54,0.00,,,0.00,VWS V14.01,2013-12-24 08:58:00,
2013-12-24 00:59:00,53.1,36.9,30.12,NNW,338,2.2,2.2,54,0.00,,,0.00,VWS V14.01,2013-12-24 08:59:00,
2013-12-24 01:00:00,53.1,36.9,30.12,NNW,338,1.3,2.2,54,0.00,,,0.00,VWS V14.01,2013-12-24 09:00:00,
2013-12-24 01:01:00,53.1,36.9,30.12,NNW,338,0.0,2.2,54,0.00,,,0.00,VWS V14.01,2013-12-24 09:01:00,
2013-12-24 01:02:00,53.1,36.9,30.12,NNW,338,0.0,2.2,54,0.00,,,0.00,VWS V14.01,2013-12-24 09:02:00,
2013-12-24 01:03:00,52.7,36.5,30.12,NNW,338,0.0,2.2,54,0.00,,,0.00,VWS V14.01,2013-12-24 09:03:00,
2013-12-24 01:04:00,52.5,36.4,30.12,NNW,338,0.0,1.3,54,0.00,,,0.00,VWS V14.01,2013-12-24 09:04:00,
2013-12-24 01:05:00,52.5,36.4,30.12,NNW,338,0.0,0.0,54,0.00,,,0.00,VWS V14.01,2013-12-24 09:05:00,
2013-12-24 01:06:00,52.2,36.0,30.12,NNW,338,0.0,0.0,54,0.00,,,0.00,VWS V14.01,2013-12-24 09:06:00,
2013-12-24 01:07:00,52.2,36.0,30.12,NNW,338,0.0,0.0,54,0.00,,,0.00,VWS V14.01,2013-12-24 09:07:00,
2013-12-24 01:08:00,51.8,35.7,30.12,NNW,338,0.0,0.0,54,0.00,,,0.00,VWS V14.01,2013-12-24 09:08:00,
2013-12-24 01:09:00,51.8,35.7,30.12,NNW,338,0.0,0.0,54,0.00,,,0.00,VWS V14.01,2013-12-24 09:09:00,
2013-12-24 01:10:00,51.8,35.7,30.12,NNW,338,0.0,0.0,54,0.00,,,0.00,VWS V14.01,2013-12-24 09:10:00,
2013-12-24 01:11:00,51.8,35.7,30.12,NNW,338,1.3,1.3,54,0.00,,,0.00,VWS V14.01,2013-12-24 09:11:00,
2013-12-24 01:12:00,51.8,35.7,30.12,NNW,338,0.0,1.3,54,0.00,,,0.00,VWS V14.01,2013-12-24 09:12:00,
2013-12-24 01:13:00,51.8,36.2,30.12,NNW,338,0.0,1.3,55,0.00,,,0.00,VWS V14.01,2013-12-24 09:13:00,
2013-12-24 01:14:00,51.8,36.2,30.12,NNW,338,0.0,1.3,55,0.00,,,0.00,VWS V14.01,2013-12-24 09:14:00,
2013-12-24 01:15:00,51.8,36.2,30.12,NNW,338,2.2,2.2,55,0.00,,,0.00,VWS V14.01,2013-12-24 09:15:00,
2013-12-24 01:16:00,51.8,36.2,30.12,NNW,338,0.0,2.2,55,0.00,,,0.00,VWS V14.01,2013-12-24 09:16:00,
2013-12-24 01:17:00,51.8,36.2,30.12,NNW,338,0.0,2.2,55,0.00,,,0.00,VWS V14.01,2013-12-24 09:17:00,
2013-12-24 01:18:00,51.8,36.2,30.12,NNW,338,0.0,0.0,55,0.00,,,0.00,VWS V14.01,2013-12-24 09:18:00,
2013-12-24 01:19:00,51.8,36.2,30.12,NNW,338,0.0,0.0,55,0.00,,,0.00,VWS V14.01,2013-12-24 09:19:00,
2013-12-24 01:20:00,51.8,36.2,30.12,NNW,338,0.0,0.0,55,0.00,,,0.00,VWS V14.01,2013-12-24 09:20:00,
2013-12-24 01:21:00,51.8,36.2,30.12,NNW,338,0.0,0.0,55,0.00,,,0.00,VWS V14.01,2013-12-24 09:21:00,
2013-12-24 01:22:00,51.8,36.2,30.12,NNE,22,2.0,2.0,55,0.00,,,0.00,VWS V14.01,2013-12-24 09:22:00,
2013-12-24 01:23:00,51.8,36.2,30.12,NE,45,3.1,3.1,55,0.00,,,0.00,VWS V14.01,2013-12-24 09:23:00,
2013-12-24 01:24:00,52.2,37.0,30.12,NE,45,3.1,3.1,56,0.00,,,0.00,VWS V14.01,2013-12-24 09:24:00,
2013-12-24 01:25:00,52.2,37.0,30.12,NNE,22,2.0,3.1,56,0.00,,,0.00,VWS V14.01,2013-12-24 09:25:00,
2013-12-24 01:26:00,52.2,37.0,30.12,NNE,22,2.7,2.7,56,0.00,,,0.00,VWS V14.01,2013-12-24 09:26:00,
2013-12-24 01:27:00,52.3,37.1,30.12,NNE,22,3.6,3.6,56,0.00,,,0.00,VWS V14.01,2013-12-24 09:27:00,
2013-12-24 01:28:00,52.3,37.1,30.12,NNE,22,2.2,3.6,56,0.00,,,0.00,VWS V14.01,2013-12-24 09:28:00,
2013-12-24 01:29:00,52.3,37.1,30.12,NNE,22,1.3,2.2,56,0.00,,,0.00,VWS V14.01,2013-12-24 09:29:00,
2013-12-24 01:30:00,52.3,37.1,30.12,NNE,22,3.6,3.6,56,0.00,,,0.00,VWS V14.01,2013-12-24 09:30:00,
2013-12-24 01:31:00,52.3,37.1,30.12,NNE,22,2.0,3.6,56,0.00,,,0.00,VWS V14.01,2013-12-24 09:31:00,
2013-12-24 01:32:00,52.3,37.1,30.12,NNE,22,3.6,3.6,56,0.00,,,0.00,VWS V14.01,2013-12-24 09:32:00,
2013-12-24 01:33:00,52.5,37.3,30.12,NNE,22,3.6,3.6,56,0.00,,,0.00,VWS V14.01,2013-12-24 09:33:00,
2013-12-24 01:34:00,52.7,37.5,30.12,NNE,22,3.1,3.6,56,0.00,,,0.00,VWS V14.01,2013-12-24 09:34:00,
2013-12-24 01:35:00,52.7,37.5,30.12,North,0,2.5,3.1,56,0.00,,,0.00,VWS V14.01,2013-12-24 09:35:00,
2013-12-24 01:36:00,52.5,37.3,30.12,North,0,2.5,2.5,56,0.00,,,0.00,VWS V14.01,2013-12-24 09:36:00,
2013-12-24 01:37:00,52.5,37.3,30.12,North,0,2.5,2.5,56,0.00,,,0.00,VWS V14.01,2013-12-24 09:37:00,
2013-12-24 01:38:00,52.5,37.3,30.12,North,0,2.5,2.5,56,0.00,,,0.00,VWS V14.01,2013-12-24 09:38:00,
2013-12-24 01:39:00,52.5,37.3,30.12,North,0,2.7,2.7,56,0.00,,,0.00,VWS V14.01,2013-12-24 09:39:00,
2013-12-24 01:40:00,52.5,37.3,30.12,North,0,2.2,2.7,56,0.00,,,0.00,VWS V14.01,2013-12-24 09:40:00,
2013-12-24 01:41:00,52.3,37.1,30.12,North,0,0.9,0.9,56,0.00,,,0.00,VWS V14.01,2013-12-24 09:41:00,
2013-12-24 01:42:00,52.3,37.1,30.12,North,0,0.0,0.9,56,0.00,,,0.00,VWS V14.01,2013-12-24 09:42:00,
2013-12-24 01:43:00,52.3,37.1,30.12,North,0,0.0,0.0,56,0.00,,,0.00,VWS V14.01,2013-12-24 09:43:00,
2013-12-24 01:44:00,52.3,37.1,30.12,North,0,0.0,0.0,56,0.00,,,0.00,VWS V14.01,2013-12-24 09:44:00,
2013-12-24 01:45:00,52.3,37.1,30.12,North,0,0.0,0.0,56,0.00,,,0.00,VWS V14.01,2013-12-24 09:45:00,
2013-12-24 01:46:00,52.3,37.1,30.12,North,0,0.0,0.0,56,0.00,,,0.00,VWS V14.01,2013-12-24 09:46:00,
2013-12-24 01:47:00,51.6,36.5,30.12,North,0,0.0,0.0,56,0.00,,,0.00,VWS V14.01,2013-12-24 09:47:00,
2013-12-24 01:48:00,51.4,36.3,30.12,North,0,0.0,0.0,56,0.00,,,0.00,VWS V14.01,2013-12-24 09:48:00,
2013-12-24 01:49:00,51.4,36.3,30.12,North,0,0.0,0.0,56,0.00,,,0.00,VWS V14.01,2013-12-24 09:49:00,
2013-12-24 01:50:00,51.4,36.3,30.12,North,0,0.0,0.0,56,0.00,,,0.00,VWS V14.01,2013-12-24 09:50:00,
2013-12-24 01:51:00,51.4,36.3,30.12,North,0,0.0,0.0,56,0.00,,,0.00,VWS V14.01,2013-12-24 09:51:00,
2013-12-24 01:52:00,51.1,36.0,30.12,North,0,0.0,0.0,56,0.00,,,0.00,VWS V14.01,2013-12-24 09:52:00,
2013-12-24 01:53:00,51.1,36.0,30.12,North,0,0.0,0.0,56,0.00,,,0.00,VWS V14.01,2013-12-24 09:53:00,
2013-12-24 01:54:00,51.1,36.0,30.12,North,0,0.9,0.9,56,0.00,,,0.00,VWS V14.01,2013-12-24 09:54:00,
2013-12-24 01:55:00,51.1,36.0,30.12,North,0,1.6,1.6,56,0.00,,,0.00,VWS V14.01,2013-12-24 09:55:00,
2013-12-24 01:56:00,50.9,35.8,30.12,North,0,0.0,1.6,56,0.00,,,0.00,VWS V14.01,2013-12-24 09:56:00,
2013-12-24 01:57:00,50.9,35.8,30.12,North,0,1.1,1.6,56,0.00,,,0.00,VWS V14.01,2013-12-24 09:57:00,
2013-12-24 01:58:00,50.9,35.8,30.09,North,0,1.6,1.6,56,0.00,,,0.00,VWS V14.01,2013-12-24 09:58:00,
2013-12-24 01:59:00,50.7,36.1,30.09,North,0,0.0,1.6,57,0.00,,,0.00,VWS V14.01,2013-12-24 09:59:00,
2013-12-24 02:00:00,50.7,36.1,30.09,North,0,0.0,1.6,57,0.00,,,0.00,VWS V14.01,2013-12-24 10:00:00,
2013-12-24 02:01:00,50.7,36.1,30.09,North,0,0.0,1.6,57,0.00,,,0.00,VWS V14.01,2013-12-24 10:01:00,
2013-12-24 02:02:00,50.7,36.1,30.09,North,0,2.2,2.2,57,0.00,,,0.00,VWS V14.01,2013-12-24 10:02:00,
2013-12-24 02:03:00,50.5,35.9,30.09,North,0,1.6,2.2,57,0.00,,,0.00,VWS V14.01,2013-12-24 10:03:00,
2013-12-24 02:04:00,50.5,35.9,30.09,ESE,112,2.5,2.5,57,0.00,,,0.00,VWS V14.01,2013-12-24 10:04:00,
2013-12-24 02:05:00,50.5,35.9,30.09,SE,135,2.2,2.5,57,0.00,,,0.00,VWS V14.01,2013-12-24 10:05:00,
2013-12-24 02:06:00,50.5,36.3,30.09,ESE,112,1.3,2.5,58,0.00,,,0.00,VWS V14.01,2013-12-24 10:06:00,
2013-12-24 02:07:00,50.5,36.3,30.09,SE,135,2.0,2.5,58,0.00,,,0.00,VWS V14.01,2013-12-24 10:07:00,
2013-12-24 02:08:00,50.5,36.3,30.09,SE,135,0.0,2.5,58,0.00,,,0.00,VWS V14.01,2013-12-24 10:08:00,
2013-12-24 02:09:00,50.5,36.3,30.09,ESE,112,1.6,2.2,58,0.00,,,0.00,VWS V14.01,2013-12-24 10:09:00,
2013-12-24 02:10:00,50.5,36.3,30.09,SE,135,1.3,2.0,58,0.00,,,0.00,VWS V14.01,2013-12-24 10:10:00,
2013-12-24 02:11:00,50.5,36.8,30.09,ESE,112,2.2,2.2,59,0.00,,,0.00,VWS V14.01,2013-12-24 10:11:00,
2013-12-24 02:12:00,50.5,36.8,30.09,SE,135,1.3,2.2,59,0.00,,,0.00,VWS V14.01,2013-12-24 10:12:00,
2013-12-24 02:13:00,50.5,36.8,30.09,SE,135,1.6,2.2,59,0.00,,,0.00,VWS V14.01,2013-12-24 10:13:00,
2013-12-24 02:14:00,50.5,36.8,30.09,ESE,112,2.7,2.7,59,0.00,,,0.00,VWS V14.01,2013-12-24 10:14:00,
2013-12-24 02:15:00,50.5,36.8,30.09,ESE,112,2.7,2.7,59,0.00,,,0.00,VWS V14.01,2013-12-24 10:15:00,
2013-12-24 02:16:00,50.5,36.8,30.09,ESE,112,2.5,2.7,59,0.00,,,0.00,VWS V14.01,2013-12-24 10:16:00,
2013-12-24 02:17:00,50.5,36.8,30.09,SE,135,0.9,2.7,59,0.00,,,0.00,VWS V14.01,2013-12-24 10:17:00,
2013-12-24 02:18:00,50.5,36.8,30.09,SE,135,0.9,2.7,59,0.00,,,0.00,VWS V14.01,2013-12-24 10:18:00,
2013-12-24 02:19:00,50.5,36.8,30.09,SE,135,1.3,2.7,59,0.00,,,0.00,VWS V14.01,2013-12-24 10:19:00,
2013-12-24 02:20:00,50.4,36.6,30.09,SE,135,0.0,2.5,59,0.00,,,0.00,VWS V14.01,2013-12-24 10:20:00,
2013-12-24 02:21:00,50.4,36.6,30.09,SE,135,0.0,2.5,59,0.00,,,0.00,VWS V14.01,2013-12-24 10:21:00,
2013-12-24 02:22:00,50.4,36.6,30.09,SE,135,0.0,1.3,59,0.00,,,0.00,VWS V14.01,2013-12-24 10:22:00,
2013-12-24 02:23:00,50.4,36.6,30.09,East,90,2.2,2.2,59,0.00,,,0.00,VWS V14.01,2013-12-24 10:23:00,
2013-12-24 02:24:00,50.4,36.6,30.09,ESE,112,3.1,3.1,59,0.00,,,0.00,VWS V14.01,2013-12-24 10:24:00,
2013-12-24 02:25:00,50.4,36.6,30.09,SE,135,0.9,3.1,59,0.00,,,0.00,VWS V14.01,2013-12-24 10:25:00,
2013-12-24 02:26:00,50.4,36.6,30.09,SE,135,1.6,3.1,59,0.00,,,0.00,VWS V14.01,2013-12-24 10:26:00,
2013-12-24 02:27:00,50.2,36.8,30.09,SE,135,1.6,3.1,60,0.00,,,0.00,VWS V14.01,2013-12-24 10:27:00,
2013-12-24 02:28:00,50.2,36.8,30.12,ESE,112,2.5,2.5,60,0.00,,,0.00,VWS V14.01,2013-12-24 10:28:00,
2013-12-24 02:29:00,50.2,36.8,30.12,SE,135,2.5,2.5,60,0.00,,,0.00,VWS V14.01,2013-12-24 10:29:00,
2013-12-24 02:30:00,50.2,36.8,30.12,ESE,112,2.7,2.7,60,0.00,,,0.00,VWS V14.01,2013-12-24 10:30:00,
2013-12-24 02:31:00,50.0,37.1,30.12,SSE,158,3.1,3.1,61,0.00,,,0.00,VWS V14.01,2013-12-24 10:31:00,
2013-12-24 02:32:00,50.0,37.1,30.12,ESE,112,3.6,3.6,61,0.00,,,0.00,VWS V14.01,2013-12-24 10:32:00,
2013-12-24 02:33:00,50.0,37.1,30.12,SE,135,2.0,4.9,61,0.00,,,0.00,VWS V14.01,2013-12-24 10:33:00,
2013-12-24 02:34:00,49.8,37.7,30.12,SSE,158,1.3,4.9,63,0.00,,,0.00,VWS V14.01,2013-12-24 10:34:00,
2013-12-24 02:35:00,49.8,37.7,30.12,South,180,3.4,4.9,63,0.00,,,0.00,VWS V14.01,2013-12-24 10:35:00,
2013-12-24 02:36:00,49.8,37.8,30.12,SE,135,2.7,3.4,63,0.00,,,0.00,VWS V14.01,2013-12-24 10:36:00,
2013-12-24 02:37:00,49.8,37.7,30.12,SSE,158,1.6,3.4,63,0.00,,,0.00,VWS V14.01,2013-12-24 10:37:00,
2013-12-24 02:38:00,49.6,38.0,30.12,SSE,158,2.0,3.4,64,0.00,,,0.00,VWS V14.01,2013-12-24 10:38:00,
2013-12-24 02:39:00,49.6,38.0,30.12,SSE,158,2.0,2.7,64,0.00,,,0.00,VWS V14.01,2013-12-24 10:39:00,
2013-12-24 02:40:00,49.6,38.4,30.12,South,180,2.0,2.0,65,0.00,,,0.00,VWS V14.01,2013-12-24 10:40:00,
2013-12-24 02:41:00,49.5,38.2,30.12,SSE,158,1.6,2.0,65,0.00,,,0.00,VWS V14.01,2013-12-24 10:41:00,
2013-12-24 02:42:00,49.5,38.2,30.12,SSE,158,1.6,1.6,65,0.00,,,0.00,VWS V14.01,2013-12-24 10:42:00,
2013-12-24 02:43:00,49.5,39.0,30.12,SSE,158,2.0,2.0,67,0.00,,,0.00,VWS V14.01,2013-12-24 10:43:00,
2013-12-24 02:44:00,49.5,39.0,30.12,SSE,158,3.4,3.4,67,0.00,,,0.00,VWS V14.01,2013-12-24 10:44:00,
2013-12-24 02:45:00,49.5,39.3,30.12,SSW,202,2.5,3.8,68,0.00,,,0.00,VWS V14.01,2013-12-24 10:45:00,
2013-12-24 02:46:00,49.5,39.3,30.12,SSW,202,2.5,3.8,68,0.00,,,0.00,VWS V14.01,2013-12-24 10:46:00,
2013-12-24 02:47:00,49.5,39.3,30.12,SE,135,2.0,2.5,68,0.00,,,0.00,VWS V14.01,2013-12-24 10:47:00,
2013-12-24 02:48:00,49.5,39.3,30.12,SSE,158,2.7,2.7,68,0.00,,,0.00,VWS V14.01,2013-12-24 10:48:00,
2013-12-24 02:49:00,49.3,39.6,30.12,SE,135,2.5,3.1,69,0.00,,,0.00,VWS V14.01,2013-12-24 10:49:00,
2013-12-24 02:50:00,49.3,39.9,30.12,ESE,112,3.8,3.8,70,0.00,,,0.00,VWS V14.01,2013-12-24 10:50:00,
2013-12-24 02:51:00,49.3,39.9,30.12,ESE,112,3.8,3.8,70,0.00,,,0.00,VWS V14.01,2013-12-24 10:51:00,
2013-12-24 02:52:00,49.1,39.8,30.12,SE,135,1.6,3.8,70,0.00,,,0.00,VWS V14.01,2013-12-24 10:52:00,
2013-12-24 02:53:00,49.1,39.8,30.12,SE,135,1.3,3.8,70,0.00,,,0.00,VWS V14.01,2013-12-24 10:53:00,
2013-12-24 02:54:00,49.1,40.1,30.12,SE,135,1.3,3.8,71,0.00,,,0.00,VWS V14.01,2013-12-24 10:54:00,
2013-12-24 02:55:00,49.1,40.1,30.12,ESE,112,3.8,3.8,71,0.00,,,0.00,VWS V14.01,2013-12-24 10:55:00,
2013-12-24 02:56:00,49.1,40.1,30.12,ESE,112,2.9,3.8,71,0.00,,,0.00,VWS V14.01,2013-12-24 10:56:00,
2013-12-24 02:57:00,48.9,40.3,30.12,SE,135,3.1,3.8,72,0.00,,,0.00,VWS V14.01,2013-12-24 10:57:00,
2013-12-24 02:58:00,48.9,40.3,30.09,SE,135,3.1,3.8,72,0.00,,,0.00,VWS V14.01,2013-12-24 10:58:00,
2013-12-24 03:00:00,48.9,40.3,30.09,ENE,68,5.4,5.4,72,0.00,,,0.00,VWS V14.01,2013-12-24 11:00:00,
2013-12-24 03:01:00,48.7,40.1,30.09,ESE,112,3.4,5.4,72,0.00,,,0.00,VWS V14.01,2013-12-24 11:01:00,
2013-12-24 03:02:00,48.7,40.1,30.09,East,90,1.3,5.4,72,0.00,,,0.00,VWS V14.01,2013-12-24 11:02:00,
2013-12-24 03:03:00,48.7,40.5,30.09,ESE,112,1.1,5.4,73,0.00,,,0.00,VWS V14.01,2013-12-24 11:03:00,
2013-12-24 03:04:00,48.6,40.3,30.09,ESE,112,1.1,5.4,73,0.00,,,0.00,VWS V14.01,2013-12-24 11:04:00,
2013-12-24 03:05:00,48.6,40.3,30.09,ESE,112,2.5,5.4,73,0.00,,,0.00,VWS V14.01,2013-12-24 11:05:00,
2013-12-24 03:06:00,48.4,40.1,30.09,SE,135,1.6,2.5,73,0.00,,,0.00,VWS V14.01,2013-12-24 11:06:00,
2013-12-24 03:07:00,48.4,40.1,30.09,ESE,112,2.5,2.5,73,0.00,,,0.00,VWS V14.01,2013-12-24 11:07:00,
2013-12-24 03:08:00,48.4,40.1,30.09,ESE,112,3.1,3.1,73,0.00,,,0.00,VWS V14.01,2013-12-24 11:08:00,
2013-12-24 03:09:00,48.4,40.1,30.09,ESE,112,2.7,3.1,73,0.00,,,0.00,VWS V14.01,2013-12-24 11:09:00,
2013-12-24 03:10:00,48.4,40.5,30.09,ESE,112,0.0,3.1,74,0.00,,,0.00,VWS V14.01,2013-12-24 11:10:00,
2013-12-24 03:11:00,48.2,40.7,30.09,ESE,112,2.7,3.1,75,0.00,,,0.00,VWS V14.01,2013-12-24 11:11:00,
2013-12-24 03:12:00,48.2,40.7,30.09,ESE,112,0.9,2.7,75,0.00,,,0.00,VWS V14.01,2013-12-24 11:12:00,
2013-12-24 03:13:00,48.2,41.0,30.09,SE,135,1.1,2.7,76,0.00,,,0.00,VWS V14.01,2013-12-24 11:13:00,
2013-12-24 03:14:00,48.2,41.0,30.09,SSE,158,1.1,2.7,76,0.00,,,0.00,VWS V14.01,2013-12-24 11:14:00,
2013-12-24 03:15:00,48.2,41.0,30.09,SE,135,1.6,1.6,76,0.00,,,0.00,VWS V14.01,2013-12-24 11:15:00,
2013-12-24 03:16:00,48.2,41.0,30.09,ESE,112,2.9,2.9,76,0.00,,,0.00,VWS V14.01,2013-12-24 11:16:00,
2013-12-24 03:17:00,48.0,41.2,30.09,SE,135,2.9,2.9,77,0.00,,,0.00,VWS V14.01,2013-12-24 11:17:00,
2013-12-24 03:18:00,48.0,41.2,30.09,SE,135,0.0,2.9,77,0.00,,,0.00,VWS V14.01,2013-12-24 11:18:00,
2013-12-24 03:19:00,48.0,40.8,30.09,SE,135,0.9,2.9,76,0.00,,,0.00,VWS V14.01,2013-12-24 11:19:00,
2013-12-24 03:20:00,47.8,40.7,30.09,ESE,112,2.0,2.9,76,0.00,,,0.00,VWS V14.01,2013-12-24 11:20:00,
2013-12-24 03:21:00,47.8,40.7,30.09,ESE,112,2.0,2.9,76,0.00,,,0.00,VWS V14.01,2013-12-24 11:21:00,
2013-12-24 03:22:00,47.7,40.5,30.09,ESE,112,0.0,2.0,76,0.00,,,0.00,VWS V14.01,2013-12-24 11:22:00,
2013-12-24 03:23:00,47.7,40.5,30.09,SE,135,0.0,2.0,76,0.00,,,0.00,VWS V14.01,2013-12-24 11:23:00,
2013-12-24 03:24:00,47.7,40.5,30.09,ESE,112,0.0,0.0,76,0.00,,,0.00,VWS V14.01,2013-12-24 11:24:00,
2013-12-24 03:25:00,47.7,40.5,30.09,SE,135,1.1,1.1,76,0.00,,,0.00,VWS V14.01,2013-12-24 11:25:00,
2013-12-24 03:26:00,47.7,40.5,30.09,SE,135,0.9,1.1,76,0.00,,,0.00,VWS V14.01,2013-12-24 11:26:00,
2013-12-24 03:27:00,47.5,40.3,30.09,SE,135,1.1,1.1,76,0.00,,,0.00,VWS V14.01,2013-12-24 11:27:00,
2013-12-24 03:28:00,47.5,40.3,30.12,SSE,158,0.0,1.1,76,0.00,,,0.00,VWS V14.01,2013-12-24 11:28:00,
2013-12-24 03:29:00,47.5,40.3,30.12,SSE,158,2.0,2.0,76,0.00,,,0.00,VWS V14.01,2013-12-24 11:29:00,
2013-12-24 03:30:00,47.5,40.3,30.12,South,180,1.1,2.0,76,0.00,,,0.00,VWS V14.01,2013-12-24 11:30:00,
2013-12-24 03:31:00,47.5,40.6,30.12,South,180,1.1,2.0,77,0.00,,,0.00,VWS V14.01,2013-12-24 11:31:00,
2013-12-24 03:32:00,47.5,40.6,30.12,South,180,0.9,2.0,77,0.00,,,0.00,VWS V14.01,2013-12-24 11:32:00,
2013-12-24 03:33:00,47.5,40.6,30.12,South,180,1.1,1.1,77,0.00,,,0.00,VWS V14.01,2013-12-24 11:33:00,
2013-12-24 03:34:00,47.5,41.0,30.12,SSE,158,2.5,2.5,78,0.00,,,0.00,VWS V14.01,2013-12-24 11:34:00,
2013-12-24 03:35:00,47.5,41.0,30.12,South,180,0.9,2.5,78,0.00,,,0.00,VWS V14.01,2013-12-24 11:35:00,
2013-12-24 03:36:00,47.5,41.0,30.12,South,180,1.3,2.5,78,0.00,,,0.00,VWS V14.01,2013-12-24 11:36:00,
2013-12-24 03:37:00,47.5,41.0,30.12,South,180,0.0,2.5,78,0.00,,,0.00,VWS V14.01,2013-12-24 11:37:00,
2013-12-24 03:38:00,47.5,41.0,30.12,South,180,0.0,1.3,78,0.00,,,0.00,VWS V14.01,2013-12-24 11:38:00,
2013-12-24 03:39:00,47.5,41.0,30.12,South,180,0.0,1.3,78,0.00,,,0.00,VWS V14.01,2013-12-24 11:39:00,
2013-12-24 03:40:00,47.7,41.2,30.12,South,180,0.0,0.0,78,0.00,,,0.00,VWS V14.01,2013-12-24 11:40:00,
2013-12-24 03:41:00,47.5,40.6,30.12,South,180,0.0,0.0,77,0.00,,,0.00,VWS V14.01,2013-12-24 11:41:00,
2013-12-24 03:42:00,47.5,40.6,30.12,South,180,0.0,0.0,77,0.00,,,0.00,VWS V14.01,2013-12-24 11:42:00,
2013-12-24 03:43:00,47.3,40.1,30.09,South,180,0.0,0.0,76,0.00,,,0.00,VWS V14.01,2013-12-24 11:43:00,
2013-12-24 03:44:00,47.3,40.1,30.09,South,180,0.0,0.0,76,0.00,,,0.00,VWS V14.01,2013-12-24 11:44:00,
2013-12-24 03:45:00,47.3,40.5,30.09,South,180,0.0,0.0,77,0.00,,,0.00,VWS V14.01,2013-12-24 11:45:00,
2013-12-24 03:46:00,47.3,40.5,30.09,South,180,2.5,2.5,77,0.00,,,0.00,VWS V14.01,2013-12-24 11:46:00,
2013-12-24 03:47:00,47.5,41.0,30.09,South,180,0.0,2.5,78,0.00,,,0.00,VWS V14.01,2013-12-24 11:47:00,
2013-12-24 03:48:00,47.5,41.0,30.09,South,180,0.9,2.5,78,0.00,,,0.00,VWS V14.01,2013-12-24 11:48:00,
2013-12-24 03:49:00,47.5,40.6,30.09,South,180,0.9,2.5,77,0.00,,,0.00,VWS V14.01,2013-12-24 11:49:00,
2013-12-24 03:50:00,47.7,41.5,30.09,South,180,2.5,2.5,79,0.00,,,0.00,VWS V14.01,2013-12-24 11:50:00,
2013-12-24 03:51:00,47.7,41.5,30.09,South,180,0.9,2.5,79,0.00,,,0.00,VWS V14.01,2013-12-24 11:51:00,
2013-12-24 03:52:00,47.7,41.5,30.09,South,180,2.7,2.7,79,0.00,,,0.00,VWS V14.01,2013-12-24 11:52:00,
2013-12-24 03:53:00,47.7,41.5,30.09,South,180,2.7,2.7,79,0.00,,,0.00,VWS V14.01,2013-12-24 11:53:00,
2013-12-24 03:54:00,47.7,41.8,30.09,South,180,3.4,3.4,80,0.00,,,0.00,VWS V14.01,2013-12-24 11:54:00,
2013-12-24 03:55:00,47.7,41.8,30.09,South,180,0.0,3.4,80,0.00,,,0.00,VWS V14.01,2013-12-24 11:55:00,
2013-12-24 03:56:00,47.8,42.0,30.09,South,180,1.6,3.4,80,0.00,,,0.00,VWS V14.01,2013-12-24 11:56:00,
2013-12-24 03:58:00,47.8,42.0,30.09,South,180,3.1,3.4,80,0.00,,,0.00,VWS V14.01,2013-12-24 11:58:00,
2013-12-24 03:59:00,47.8,42.0,30.09,South,180,0.0,3.1,80,0.00,,,0.00,VWS V14.01,2013-12-24 11:59:00,
2013-12-24 04:00:00,47.8,42.0,30.09,South,180,2.7,3.1,80,0.00,,,0.00,VWS V14.01,2013-12-24 12:00:00,
2013-12-24 04:01:00,47.8,42.0,30.09,South,180,3.8,3.8,80,0.00,,,0.00,VWS V14.01,2013-12-24 12:01:00,
2013-12-24 04:02:00,47.8,42.0,30.09,SSE,158,3.8,3.8,80,0.00,,,0.00,VWS V14.01,2013-12-24 12:02:00,
2013-12-24 04:03:00,47.8,42.3,30.09,SSE,158,2.5,3.8,81,0.00,,,0.00,VWS V14.01,2013-12-24 12:03:00,
2013-12-24 04:04:00,47.8,42.3,30.09,SSE,158,2.9,3.8,81,0.00,,,0.00,VWS V14.01,2013-12-24 12:04:00,
2013-12-24 04:05:00,47.8,42.3,30.09,South,180,2.7,3.8,81,0.00,,,0.00,VWS V14.01,2013-12-24 12:05:00,
2013-12-24 04:06:00,47.8,42.3,30.09,South,180,2.9,3.8,81,0.00,,,0.00,VWS V14.01,2013-12-24 12:06:00,
2013-12-24 04:07:00,47.8,42.3,30.09,South,180,2.9,2.9,81,0.00,,,0.00,VWS V14.01,2013-12-24 12:07:00,
2013-12-24 04:08:00,47.8,42.0,30.09,South,180,3.1,3.1,80,0.00,,,0.00,VWS V14.01,2013-12-24 12:08:00,
2013-12-24 04:09:00,47.8,42.0,30.09,South,180,2.5,3.1,80,0.00,,,0.00,VWS V14.01,2013-12-24 12:09:00,
2013-12-24 04:10:00,47.7,41.8,30.09,South,180,0.0,3.1,80,0.00,,,0.00,VWS V14.01,2013-12-24 12:10:00,
2013-12-24 04:11:00,47.7,41.5,30.09,South,180,0.0,3.1,79,0.00,,,0.00,VWS V14.01,2013-12-24 12:11:00,
2013-12-24 04:12:00,47.7,41.5,30.09,South,180,1.3,2.5,79,0.00,,,0.00,VWS V14.01,2013-12-24 12:12:00,
2013-12-24 04:13:00,47.8,41.7,30.09,South,180,1.6,2.5,79,0.00,,,0.00,VWS V14.01,2013-12-24 12:13:00,
2013-12-24 04:14:00,47.8,41.7,30.09,South,180,1.6,1.6,79,0.00,,,0.00,VWS V14.01,2013-12-24 12:14:00,
2013-12-24 04:15:00,47.8,41.7,30.09,South,180,1.6,1.6,79,0.00,,,0.00,VWS V14.01,2013-12-24 12:15:00,
2013-12-24 04:16:00,47.8,41.7,30.09,South,180,2.0,2.0,79,0.00,,,0.00,VWS V14.01,2013-12-24 12:16:00,
2013-12-24 04:17:00,48.0,41.8,30.09,South,180,2.0,2.0,79,0.00,,,0.00,VWS V14.01,2013-12-24 12:17:00,
2013-12-24 04:18:00,48.0,41.8,30.09,South,180,1.6,2.0,79,0.00,,,0.00,VWS V14.01,2013-12-24 12:18:00,
2013-12-24 04:19:00,48.0,41.8,30.09,South,180,1.3,2.0,79,0.00,,,0.00,VWS V14.01,2013-12-24 12:19:00,
2013-12-24 04:20:00,48.0,41.8,30.09,SSE,158,2.5,2.5,79,0.00,,,0.00,VWS V14.01,2013-12-24 12:20:00,
2013-12-24 04:21:00,48.0,41.8,30.09,South,180,1.3,2.5,79,0.00,,,0.00,VWS V14.01,2013-12-24 12:21:00,
2013-12-24 04:22:00,48.0,41.8,30.09,South,180,1.6,2.5,79,0.00,,,0.00,VWS V14.01,2013-12-24 12:22:00,
2013-12-24 04:23:00,48.0,41.8,30.09,South,180,2.0,2.5,79,0.00,,,0.00,VWS V14.01,2013-12-24 12:23:00,
2013-12-24 04:24:00,48.0,41.8,30.09,South,180,2.0,2.0,79,0.00,,,0.00,VWS V14.01,2013-12-24 12:24:00,
2013-12-24 04:25:00,48.0,41.8,30.09,South,180,2.0,2.0,79,0.00,,,0.00,VWS V14.01,2013-12-24 12:25:00,
2013-12-24 04:26:00,48.0,41.8,30.09,South,180,1.6,2.0,79,0.00,,,0.00,VWS V14.01,2013-12-24 12:26:00,
2013-12-24 04:27:00,48.2,41.7,30.09,South,180,2.2,2.2,78,0.00,,,0.00,VWS V14.01,2013-12-24 12:27:00,
2013-12-24 04:28:00,48.2,41.7,30.09,South,180,1.6,2.2,78,0.00,,,0.00,VWS V14.01,2013-12-24 12:28:00,
2013-12-24 04:29:00,48.0,41.5,30.09,South,180,2.0,2.2,78,0.00,,,0.00,VWS V14.01,2013-12-24 12:29:00,
2013-12-24 04:30:00,48.0,41.5,30.09,South,180,0.0,2.2,78,0.00,,,0.00,VWS V14.01,2013-12-24 12:30:00,
2013-12-24 04:31:00,48.0,41.2,30.09,South,180,0.9,2.2,77,0.00,,,0.00,VWS V14.01,2013-12-24 12:31:00,
2013-12-24 04:32:00,48.0,41.2,30.09,SSE,158,2.0,2.0,77,0.00,,,0.00,VWS V14.01,2013-12-24 12:32:00,
2013-12-24 04:33:00,48.0,41.2,30.09,SSE,158,1.1,2.0,77,0.00,,,0.00,VWS V14.01,2013-12-24 12:33:00,
2013-12-24 04:34:00,48.0,41.2,30.09,SSE,158,1.1,2.0,77,0.00,,,0.00,VWS V14.01,2013-12-24 12:34:00,
2013-12-24 04:35:00,48.0,41.2,30.09,South,180,0.0,2.0,77,0.00,,,0.00,VWS V14.01,2013-12-24 12:35:00,
2013-12-24 04:36:00,48.0,41.2,30.09,South,180,0.0,2.0,77,0.00,,,0.00,VWS V14.01,2013-12-24 12:36:00,
2013-12-24 04:37:00,48.0,41.2,30.09,South,180,0.0,1.1,77,0.00,,,0.00,VWS V14.01,2013-12-24 12:37:00,
2013-12-24 04:38:00,47.8,41.0,30.09,South,180,0.0,1.1,77,0.00,,,0.00,VWS V14.01,2013-12-24 12:38:00,
2013-12-24 04:39:00,47.8,41.0,30.09,South,180,0.0,1.1,77,0.00,,,0.00,VWS V14.01,2013-12-24 12:39:00,
2013-12-24 04:40:00,47.8,40.7,30.09,South,180,0.0,1.1,76,0.00,,,0.00,VWS V14.01,2013-12-24 12:40:00,
2013-12-24 04:41:00,47.8,40.7,30.09,South,180,0.0,0.0,76,0.00,,,0.00,VWS V14.01,2013-12-24 12:41:00,
2013-12-24 04:42:00,47.7,40.5,30.09,South,180,0.0,0.0,76,0.00,,,0.00,VWS V14.01,2013-12-24 12:42:00,
2013-12-24 04:43:00,47.5,40.3,30.09,South,180,0.0,0.0,76,0.00,,,0.00,VWS V14.01,2013-12-24 12:43:00,
2013-12-24 04:45:00,47.5,40.3,30.09,South,180,0.0,0.0,76,0.00,,,0.00,VWS V14.01,2013-12-24 12:45:00,
2013-12-24 04:46:00,47.5,40.3,30.09,South,180,0.0,0.0,76,0.00,,,0.00,VWS V14.01,2013-12-24 12:46:00,
2013-12-24 04:47:00,47.3,40.1,30.09,South,180,0.0,0.0,76,0.00,,,0.00,VWS V14.01,2013-12-24 12:47:00,
2013-12-24 04:48:00,47.3,40.1,30.09,South,180,0.0,0.0,76,0.00,,,0.00,VWS V14.01,2013-12-24 12:48:00,
2013-12-24 04:49:00,47.3,40.1,30.09,South,180,0.0,0.0,76,0.00,,,0.00,VWS V14.01,2013-12-24 12:49:00,
2013-12-24 04:50:00,47.1,40.0,30.09,South,180,0.0,0.0,76,0.00,,,0.00,VWS V14.01,2013-12-24 12:50:00,
2013-12-24 04:51:00,47.1,40.0,30.09,South,180,0.0,0.0,76,0.00,,,0.00,VWS V14.01,2013-12-24 12:51:00,
2013-12-24 04:52:00,47.1,39.6,30.09,South,180,0.0,0.0,75,0.00,,,0.00,VWS V14.01,2013-12-24 12:52:00,
2013-12-24 04:53:00,47.1,39.6,30.09,South,180,0.0,0.0,75,0.00,,,0.00,VWS V14.01,2013-12-24 12:53:00,
2013-12-24 04:54:00,47.1,40.0,30.09,South,180,0.0,0.0,76,0.00,,,0.00,VWS V14.01,2013-12-24 12:54:00,
2013-12-24 04:55:00,47.1,40.0,30.09,South,180,0.0,0.0,76,0.00,,,0.00,VWS V14.01,2013-12-24 12:55:00,
2013-12-24 04:56:00,47.1,40.0,30.09,South,180,1.3,1.3,76,0.00,,,0.00,VWS V14.01,2013-12-24 12:56:00,
2013-12-24 04:57:00,47.3,40.1,30.09,South,180,1.3,1.3,76,0.00,,,0.00,VWS V14.01,2013-12-24 12:57:00,
2013-12-24 04:59:00,47.3,40.1,30.09,South,180,1.3,1.3,76,0.00,,,0.00,VWS V14.01,2013-12-24 12:59:00,
2013-12-24 05:00:00,47.3,40.1,30.09,South,180,1.1,1.3,76,0.00,,,0.00,VWS V14.01,2013-12-24 13:00:00,
2013-12-24 05:01:00,47.3,40.1,30.09,South,180,1.1,1.3,76,0.00,,,0.00,VWS V14.01,2013-12-24 13:01:00,
2013-12-24 05:02:00,47.3,40.1,30.09,South,180,0.0,1.3,76,0.00,,,0.00,VWS V14.01,2013-12-24 13:02:00,
2013-12-24 05:03:00,47.3,40.1,30.09,South,180,0.0,1.3,76,0.00,,,0.00,VWS V14.01,2013-12-24 13:03:00,
2013-12-24 05:04:00,47.3,40.1,30.09,South,180,0.0,1.3,76,0.00,,,0.00,VWS V14.01,2013-12-24 13:04:00,
2013-12-24 05:05:00,47.3,40.1,30.09,South,180,0.0,0.0,76,0.00,,,0.00,VWS V14.01,2013-12-24 13:05:00,
2013-12-24 05:06:00,47.3,40.1,30.09,South,180,0.0,0.0,76,0.00,,,0.00,VWS V14.01,2013-12-24 13:06:00,
2013-12-24 05:07:00,47.3,40.1,30.09,South,180,0.0,0.0,76,0.00,,,0.00,VWS V14.01,2013-12-24 13:07:00,
2013-12-24 05:08:00,47.3,40.1,30.09,South,180,0.0,0.0,76,0.00,,,0.00,VWS V14.01,2013-12-24 13:08:00,
2013-12-24 05:09:00,47.3,40.1,30.09,South,180,0.0,0.0,76,0.00,,,0.00,VWS V14.01,2013-12-24 13:09:00,
2013-12-24 05:10:00,47.3,40.1,30.09,South,180,0.0,0.0,76,0.00,,,0.00,VWS V14.01,2013-12-24 13:10:00,
2013-12-24 05:11:00,47.3,40.1,30.09,South,180,0.0,0.0,76,0.00,,,0.00,VWS V14.01,2013-12-24 13:11:00,
2013-12-24 05:12:00,47.3,40.1,30.09,South,180,0.0,0.0,76,0.00,,,0.00,VWS V14.01,2013-12-24 13:12:00,
2013-12-24 05:13:00,47.3,40.1,30.09,South,180,0.0,0.0,76,0.00,,,0.00,VWS V14.01,2013-12-24 13:13:00,
2013-12-24 05:14:00,47.3,40.1,30.09,South,180,0.0,0.0,76,0.00,,,0.00,VWS V14.01,2013-12-24 13:14:00,
2013-12-24 05:15:00,47.3,40.1,30.09,South,180,0.0,0.0,76,0.00,,,0.00,VWS V14.01,2013-12-24 13:15:00,
2013-12-24 05:16:00,47.3,40.1,30.09,SSE,158,2.5,2.5,76,0.00,,,0.00,VWS V14.01,2013-12-24 13:16:00,
2013-12-24 05:17:00,47.5,40.3,30.09,SSE,158,2.7,2.7,76,0.00,,,0.00,VWS V14.01,2013-12-24 13:17:00,
2013-12-24 05:18:00,47.5,40.3,30.09,South,180,1.1,2.7,76,0.00,,,0.00,VWS V14.01,2013-12-24 13:18:00,
2013-12-24 05:19:00,47.5,40.3,30.09,South,180,0.0,2.7,76,0.00,,,0.00,VWS V14.01,2013-12-24 13:19:00,
2013-12-24 05:20:00,47.5,40.3,30.09,South,180,0.0,2.7,76,0.00,,,0.00,VWS V14.01,2013-12-24 13:20:00,
2013-12-24 05:21:00,47.5,40.3,30.09,South,180,0.0,2.0,76,0.00,,,0.00,VWS V14.01,2013-12-24 13:21:00,
2013-12-24 05:22:00,47.5,40.3,30.09,South,180,0.0,2.0,76,0.00,,,0.00,VWS V14.01,2013-12-24 13:22:00,
2013-12-24 05:23:00,47.5,40.3,30.09,South,180,0.0,0.0,76,0.00,,,0.00,VWS V14.01,2013-12-24 13:23:00,
2013-12-24 05:24:00,47.5,40.3,30.09,South,180,0.0,0.0,76,0.00,,,0.00,VWS V14.01,2013-12-24 13:24:00,
2013-12-24 05:25:00,47.5,40.3,30.09,South,180,0.9,0.9,76,0.00,,,0.00,VWS V14.01,2013-12-24 13:25:00,
2013-12-24 05:26:00,47.5,40.3,30.09,South,180,1.3,1.3,76,0.00,,,0.00,VWS V14.01,2013-12-24 13:26:00,
2013-12-24 05:27:00,47.5,40.3,30.09,South,180,0.0,1.3,76,0.00,,,0.00,VWS V14.01,2013-12-24 13:27:00,
2013-12-24 05:28:00,47.5,40.3,30.09,South,180,0.0,1.3,76,0.00,,,0.00,VWS V14.01,2013-12-24 13:28:00,
2013-12-24 05:29:00,47.5,40.3,30.09,South,180,0.0,1.3,76,0.00,,,0.00,VWS V14.01,2013-12-24 13:29:00,
2013-12-24 05:30:00,47.5,40.3,30.09,ESE,112,0.9,0.9,76,0.00,,,0.00,VWS V14.01,2013-12-24 13:30:00,
2013-12-24 05:31:00,47.5,40.3,30.09,ESE,112,1.1,1.1,76,0.00,,,0.00,VWS V14.01,2013-12-24 13:31:00,
2013-12-24 05:32:00,47.5,40.3,30.09,ENE,68,1.3,1.3,76,0.00,,,0.00,VWS V14.01,2013-12-24 13:32:00,
2013-12-24 05:33:00,47.5,40.3,30.09,ESE,112,3.6,3.6,76,0.00,,,0.00,VWS V14.01,2013-12-24 13:33:00,
2013-12-24 05:34:00,47.5,40.3,30.09,ESE,112,3.6,3.6,76,0.00,,,0.00,VWS V14.01,2013-12-24 13:34:00,
2013-12-24 05:35:00,47.5,40.6,30.09,ESE,112,2.0,3.6,77,0.00,,,0.00,VWS V14.01,2013-12-24 13:35:00,
2013-12-24 05:36:00,47.5,40.6,30.09,ESE,112,3.1,3.6,77,0.00,,,0.00,VWS V14.01,2013-12-24 13:36:00,
2013-12-24 05:37:00,47.5,40.6,30.09,ESE,112,1.6,3.6,77,0.00,,,0.00,VWS V14.01,2013-12-24 13:37:00,
2013-12-24 05:38:00,47.5,41.0,30.09,ESE,112,2.2,3.1,78,0.00,,,0.00,VWS V14.01,2013-12-24 13:38:00,
2013-12-24 05:39:00,47.5,41.0,30.09,ESE,112,2.7,3.1,78,0.00,,,0.00,VWS V14.01,2013-12-24 13:39:00,
2013-12-24 05:40:00,47.5,41.0,30.09,East,90,3.8,3.8,78,0.00,,,0.00,VWS V14.01,2013-12-24 13:40:00,
2013-12-24 05:41:00,47.5,41.0,30.09,East,90,3.8,3.8,78,0.00,,,0.00,VWS V14.01,2013-12-24 13:41:00,
2013-12-24 05:42:00,47.3,40.8,30.09,ESE,112,2.5,3.8,78,0.00,,,0.00,VWS V14.01,2013-12-24 13:42:00,
2013-12-24 05:43:00,47.3,40.8,30.09,ESE,112,2.0,3.8,78,0.00,,,0.00,VWS V14.01,2013-12-24 13:43:00,
2013-12-24 05:44:00,47.3,40.8,30.09,ESE,112,3.1,3.8,78,0.00,,,0.00,VWS V14.01,2013-12-24 13:44:00,
2013-12-24 05:45:00,47.1,41.0,30.09,ESE,112,2.5,3.1,79,0.00,,,0.00,VWS V14.01,2013-12-24 13:45:00,
2013-12-24 05:46:00,47.1,41.0,30.09,ESE,112,2.5,3.1,79,0.00,,,0.00,VWS V14.01,2013-12-24 13:46:00,
2013-12-24 05:47:00,47.1,41.0,30.09,ESE,112,2.9,3.1,79,0.00,,,0.00,VWS V14.01,2013-12-24 13:47:00,
2013-12-24 05:48:00,47.1,41.0,30.09,ESE,112,2.0,2.9,79,0.00,,,0.00,VWS V14.01,2013-12-24 13:48:00,
2013-12-24 05:49:00,46.9,40.8,30.09,ESE,112,1.1,2.9,79,0.00,,,0.00,VWS V14.01,2013-12-24 13:49:00,
2013-12-24 05:50:00,46.9,40.8,30.09,SE,135,0.0,2.9,79,0.00,,,0.00,VWS V14.01,2013-12-24 13:50:00,
2013-12-24 05:51:00,46.9,40.8,30.09,SE,135,0.9,2.0,79,0.00,,,0.00,VWS V14.01,2013-12-24 13:51:00,
2013-12-24 05:52:00,46.8,40.6,30.09,SE,135,1.6,1.6,79,0.00,,,0.00,VWS V14.01,2013-12-24 13:52:00,
2013-12-24 05:53:00,46.8,40.6,30.09,SE,135,1.6,1.6,79,0.00,,,0.00,VWS V14.01,2013-12-24 13:53:00,
2013-12-24 05:54:00,46.6,40.1,30.09,SE,135,1.1,1.6,78,0.00,,,0.00,VWS V14.01,2013-12-24 13:54:00,
2013-12-24 05:55:00,46.6,40.1,30.09,SE,135,1.3,1.6,78,0.00,,,0.00,VWS V14.01,2013-12-24 13:55:00,
2013-12-24 05:56:00,46.6,40.1,30.09,SE,135,1.3,1.6,78,0.00,,,0.00,VWS V14.01,2013-12-24 13:56:00,
2013-12-24 05:57:00,46.6,40.1,30.09,SE,135,1.1,1.6,78,0.00,,,0.00,VWS V14.01,2013-12-24 13:57:00,
2013-12-24 05:58:00,46.4,40.2,30.09,SE,135,0.0,1.3,79,0.00,,,0.00,VWS V14.01,2013-12-24 13:58:00,
2013-12-24 05:59:00,46.4,40.6,30.09,SE,135,0.0,1.3,80,0.00,,,0.00,VWS V14.01,2013-12-24 13:59:00,
2013-12-24 06:00:00,46.4,40.6,30.09,SE,135,1.1,1.1,80,0.00,,,0.00,VWS V14.01,2013-12-24 14:00:00,
2013-12-24 06:01:00,46.4,40.6,30.09,SE,135,1.1,1.1,80,0.00,,,0.00,VWS V14.01,2013-12-24 14:01:00,
2013-12-24 06:02:00,46.4,40.6,30.09,SE,135,1.6,1.6,80,0.00,,,0.00,VWS V14.01,2013-12-24 14:02:00,
2013-12-24 06:03:00,46.2,40.4,30.09,ESE,112,1.6,1.6,80,0.00,,,0.00,VWS V14.01,2013-12-24 14:03:00,
2013-12-24 06:04:00,46.2,40.4,30.09,ESE,112,1.6,1.6,80,0.00,,,0.00,VWS V14.01,2013-12-24 14:04:00,
2013-12-24 06:05:00,46.2,40.4,30.09,ESE,112,1.6,2.2,80,0.00,,,0.00,VWS V14.01,2013-12-24 14:05:00,
2013-12-24 06:06:00,46.2,40.4,30.09,ESE,112,1.6,2.2,80,0.00,,,0.00,VWS V14.01,2013-12-24 14:06:00,
2013-12-24 06:08:00,46.2,40.4,30.09,ESE,112,1.6,2.2,80,0.00,,,0.00,VWS V14.01,2013-12-24 14:08:00,
2013-12-24 06:09:00,46.2,40.4,30.09,SE,135,1.6,2.2,80,0.00,,,0.00,VWS V14.01,2013-12-24 14:09:00,
2013-12-24 06:10:00,46.0,40.5,30.09,ESE,112,0.0,1.6,81,0.00,,,0.00,VWS V14.01,2013-12-24 14:10:00,
2013-12-24 06:11:00,46.0,40.5,30.09,ESE,112,0.0,1.6,81,0.00,,,0.00,VWS V14.01,2013-12-24 14:11:00,
2013-12-24 06:12:00,46.0,40.5,30.09,ESE,112,0.0,1.6,81,0.00,,,0.00,VWS V14.01,2013-12-24 14:12:00,
2013-12-24 06:13:00,45.9,40.4,30.09,ESE,112,0.0,1.6,81,0.00,,,0.00,VWS V14.01,2013-12-24 14:13:00,
2013-12-24 06:14:00,45.9,40.4,30.09,ESE,112,0.0,0.0,81,0.00,,,0.00,VWS V14.01,2013-12-24 14:14:00,
2013-12-24 06:15:00,45.7,40.2,30.09,ESE,112,0.0,0.0,81,0.00,,,0.00,VWS V14.01,2013-12-24 14:15:00,
2013-12-24 06:16:00,45.7,40.2,30.09,ESE,112,0.0,0.0,81,0.00,,,0.00,VWS V14.01,2013-12-24 14:16:00,
2013-12-24 06:17:00,45.5,40.0,30.09,ESE,112,0.0,0.0,81,0.00,,,0.00,VWS V14.01,2013-12-24 14:17:00,
2013-12-24 06:18:00,45.5,40.0,30.09,ESE,112,0.0,0.0,81,0.00,,,0.00,VWS V14.01,2013-12-24 14:18:00,
2013-12-24 06:19:00,45.5,40.0,30.09,ESE,112,1.6,1.6,81,0.00,,,0.00,VWS V14.01,2013-12-24 14:19:00,
2013-12-24 06:20:00,45.5,40.0,30.09,ENE,68,2.0,2.0,81,0.00,,,0.00,VWS V14.01,2013-12-24 14:20:00,
2013-12-24 06:21:00,45.5,40.0,30.09,ENE,68,2.0,2.0,81,0.00,,,0.00,VWS V14.01,2013-12-24 14:21:00,
2013-12-24 06:22:00,45.5,40.0,30.09,ENE,68,0.0,2.0,81,0.00,,,0.00,VWS V14.01,2013-12-24 14:22:00,
2013-12-24 06:23:00,45.5,40.0,30.09,South,180,1.3,2.0,81,0.00,,,0.00,VWS V14.01,2013-12-24 14:23:00,
2013-12-24 06:24:00,45.7,40.8,30.09,South,180,2.5,2.5,83,0.00,,,0.00,VWS V14.01,2013-12-24 14:24:00,
2013-12-24 06:25:00,45.9,41.0,30.09,South,180,2.0,2.5,83,0.00,,,0.00,VWS V14.01,2013-12-24 14:25:00,
2013-12-24 06:26:00,45.9,41.0,30.09,South,180,2.0,2.5,83,0.00,,,0.00,VWS V14.01,2013-12-24 14:26:00,
2013-12-24 06:27:00,45.9,41.0,30.09,South,180,0.0,2.5,83,0.00,,,0.00,VWS V14.01,2013-12-24 14:27:00,
2013-12-24 06:28:00,45.9,41.0,30.09,South,180,1.1,2.5,83,0.00,,,0.00,VWS V14.01,2013-12-24 14:28:00,
2013-12-24 06:29:00,45.9,41.0,30.09,South,180,1.6,2.0,83,0.00,,,0.00,VWS V14.01,2013-12-24 14:29:00,
2013-12-24 06:30:00,45.9,41.3,30.09,South,180,2.2,2.2,84,0.00,,,0.00,VWS V14.01,2013-12-24 14:30:00,
2013-12-24 06:31:00,45.9,41.3,30.09,South,180,0.0,2.2,84,0.00,,,0.00,VWS V14.01,2013-12-24 14:31:00,
2013-12-24 06:32:00,45.9,41.3,30.09,South,180,1.1,2.2,84,0.00,,,0.00,VWS V14.01,2013-12-24 14:32:00,
2013-12-24 06:33:00,45.9,41.3,30.09,South,180,1.1,2.2,84,0.00,,,0.00,VWS V14.01,2013-12-24 14:33:00,
2013-12-24 06:34:00,45.9,41.3,30.09,South,180,1.1,2.2,84,0.00,,,0.00,VWS V14.01,2013-12-24 14:34:00,
2013-12-24 06:35:00,46.2,42.0,30.09,South,180,1.3,1.3,85,0.00,,,0.00,VWS V14.01,2013-12-24 14:35:00,
2013-12-24 06:36:00,46.2,42.0,30.09,South,180,1.3,1.3,85,0.00,,,0.00,VWS V14.01,2013-12-24 14:36:00,
2013-12-24 06:37:00,46.2,42.0,30.09,South,180,1.6,1.6,85,0.00,,,0.00,VWS V14.01,2013-12-24 14:37:00,
2013-12-24 06:38:00,46.2,42.3,30.09,South,180,1.3,1.6,86,0.00,,,0.00,VWS V14.01,2013-12-24 14:38:00,
2013-12-24 06:39:00,46.2,42.3,30.09,South,180,1.6,1.6,86,0.00,,,0.00,VWS V14.01,2013-12-24 14:39:00,
2013-12-24 06:40:00,46.4,42.5,30.09,South,180,1.6,2.5,86,0.00,,,0.00,VWS V14.01,2013-12-24 14:40:00,
2013-12-24 06:41:00,46.4,42.5,30.09,South,180,1.6,2.5,86,0.00,,,0.00,VWS V14.01,2013-12-24 14:41:00,
2013-12-24 06:42:00,46.6,42.9,30.09,South,180,1.3,2.5,87,0.00,,,0.00,VWS V14.01,2013-12-24 14:42:00,
2013-12-24 06:43:00,46.6,42.9,30.09,South,180,1.1,2.5,87,0.00,,,0.00,VWS V14.01,2013-12-24 14:43:00,
2013-12-24 06:44:00,46.6,42.9,30.09,South,180,1.1,2.2,87,0.00,,,0.00,VWS V14.01,2013-12-24 14:44:00,
2013-12-24 06:45:00,46.6,42.9,30.09,South,180,1.3,2.2,87,0.00,,,0.00,VWS V14.01,2013-12-24 14:45:00,
2013-12-24 06:46:00,46.6,42.9,30.09,South,180,1.3,2.2,87,0.00,,,0.00,VWS V14.01,2013-12-24 14:46:00,
2013-12-24 06:47:00,46.6,42.9,30.09,South,180,1.3,1.3,87,0.00,,,0.00,VWS V14.01,2013-12-24 14:47:00,
2013-12-24 06:48:00,46.6,42.9,30.09,SSE,158,0.0,1.3,87,0.00,,,0.00,VWS V14.01,2013-12-24 14:48:00,
2013-12-24 06:49:00,46.4,42.5,30.09,SSE,158,2.2,2.2,86,0.00,,,0.00,VWS V14.01,2013-12-24 14:49:00,
2013-12-24 06:50:00,46.4,42.5,30.09,ESE,112,2.0,2.2,86,0.00,,,0.00,VWS V14.01,2013-12-24 14:50:00,
2013-12-24 06:51:00,46.4,42.5,30.09,ESE,112,2.0,2.2,86,0.00,,,0.00,VWS V14.01,2013-12-24 14:51:00,
2013-12-24 06:52:00,46.4,42.5,30.09,ESE,112,1.3,2.2,86,0.00,,,0.00,VWS V14.01,2013-12-24 14:52:00,
2013-12-24 06:53:00,46.4,42.5,30.09,ESE,112,0.0,2.2,86,0.00,,,0.00,VWS V14.01,2013-12-24 14:53:00,
2013-12-24 06:54:00,46.4,42.5,30.09,ESE,112,0.0,2.0,86,0.00,,,0.00,VWS V14.01,2013-12-24 14:54:00,
2013-12-24 06:55:00,46.4,42.5,30.09,ENE,68,2.0,2.7,86,0.00,,,0.00,VWS V14.01,2013-12-24 14:55:00,
2013-12-24 06:56:00,46.4,42.5,30.09,ENE,68,2.0,2.7,86,0.00,,,0.00,VWS V14.01,2013-12-24 14:56:00,
2013-12-24 06:57:00,46.4,42.5,30.09,ESE,112,2.9,2.9,86,0.00,,,0.00,VWS V14.01,2013-12-24 14:57:00,
2013-12-24 06:58:00,46.4,42.5,30.09,SE,135,1.3,2.9,86,0.00,,,0.00,VWS V14.01,2013-12-24 14:58:00,
2013-12-24 06:59:00,46.4,42.8,30.09,SSE,158,3.1,3.1,87,0.00,,,0.00,VWS V14.01,2013-12-24 14:59:00,
2013-12-24 07:00:00,46.4,42.8,30.09,East,90,2.7,3.1,87,0.00,,,0.00,VWS V14.01,2013-12-24 15:00:00,
2013-12-24 07:01:00,46.4,42.8,30.09,ESE,112,2.9,3.1,87,0.00,,,0.00,VWS V14.01,2013-12-24 15:01:00,
2013-12-24 07:02:00,46.4,42.8,30.09,ESE,112,2.5,3.1,87,0.00,,,0.00,VWS V14.01,2013-12-24 15:02:00,
2013-12-24 07:03:00,46.4,43.0,30.09,ESE,112,2.9,2.9,88,0.00,,,0.00,VWS V14.01,2013-12-24 15:03:00,
2013-12-24 07:04:00,46.4,43.0,30.09,ESE,112,4.0,4.0,88,0.00,,,0.00,VWS V14.01,2013-12-24 15:04:00,
2013-12-24 07:05:00,46.4,43.0,30.09,SSE,158,3.1,4.0,88,0.00,,,0.00,VWS V14.01,2013-12-24 15:05:00,
2013-12-24 07:06:00,46.2,43.2,30.09,SSE,158,3.1,4.0,89,0.00,,,0.00,VWS V14.01,2013-12-24 15:06:00,
2013-12-24 07:07:00,46.2,43.2,30.09,ESE,112,1.1,4.0,89,0.00,,,0.00,VWS V14.01,2013-12-24 15:07:00,
2013-12-24 07:08:00,46.2,43.2,30.09,ESE,112,2.9,3.1,89,0.00,,,0.00,VWS V14.01,2013-12-24 15:08:00,
2013-12-24 07:09:00,46.2,43.2,30.09,ESE,112,0.0,3.1,89,0.00,,,0.00,VWS V14.01,2013-12-24 15:09:00,
2013-12-24 07:10:00,46.2,42.9,30.09,ESE,112,1.1,2.9,88,0.00,,,0.00,VWS V14.01,2013-12-24 15:10:00,
2013-12-24 07:11:00,46.2,42.9,30.09,ESE,112,1.1,2.9,88,0.00,,,0.00,VWS V14.01,2013-12-24 15:11:00,
2013-12-24 07:12:00,46.2,42.9,30.09,ESE,112,2.5,2.9,88,0.00,,,0.00,VWS V14.01,2013-12-24 15:12:00,
2013-12-24 07:13:00,46.2,42.9,30.06,ESE,112,2.5,2.5,88,0.00,,,0.00,VWS V14.01,2013-12-24 15:13:00,
2013-12-24 07:14:00,46.0,43.0,30.06,ESE,112,2.7,2.7,89,0.00,,,0.00,VWS V14.01,2013-12-24 15:14:00,
2013-12-24 07:15:00,46.0,43.0,30.06,ESE,112,3.1,3.1,89,0.00,,,0.00,VWS V14.01,2013-12-24 15:15:00,
2013-12-24 07:16:00,46.0,43.0,30.06,ESE,112,2.7,3.1,89,0.00,,,0.00,VWS V14.01,2013-12-24 15:16:00,
2013-12-24 07:17:00,46.0,43.0,30.06,ESE,112,2.7,3.1,89,0.00,,,0.00,VWS V14.01,2013-12-24 15:17:00,
2013-12-24 07:18:00,46.0,43.0,30.06,ESE,112,2.7,3.1,89,0.00,,,0.00,VWS V14.01,2013-12-24 15:18:00,
2013-12-24 07:19:00,46.0,43.3,30.06,ESE,112,2.7,2.7,90,0.00,,,0.00,VWS V14.01,2013-12-24 15:19:00,
2013-12-24 07:20:00,46.0,43.0,30.06,SE,135,1.1,2.7,89,0.00,,,0.00,VWS V14.01,2013-12-24 15:20:00,
2013-12-24 07:21:00,46.0,43.0,30.06,SE,135,1.1,2.7,89,0.00,,,0.00,VWS V14.01,2013-12-24 15:21:00,
2013-12-24 07:22:00,46.0,43.0,30.06,SE,135,2.0,2.7,89,0.00,,,0.00,VWS V14.01,2013-12-24 15:22:00,
2013-12-24 07:24:00,46.0,43.0,30.06,ESE,112,2.5,2.7,89,0.00,,,0.00,VWS V14.01,2013-12-24 15:24:00,
2013-12-24 07:25:00,45.9,43.1,30.06,SE,135,2.9,2.9,90,0.00,,,0.00,VWS V14.01,2013-12-24 15:25:00,
2013-12-24 07:26:00,45.9,43.1,30.06,SSE,158,0.0,2.9,90,0.00,,,0.00,VWS V14.01,2013-12-24 15:26:00,
2013-12-24 07:27:00,45.9,43.1,30.06,ESE,112,1.6,2.9,90,0.00,,,0.00,VWS V14.01,2013-12-24 15:27:00,
2013-12-24 07:28:00,45.9,43.1,30.06,ESE,112,2.9,2.9,90,0.00,,,0.00,VWS V14.01,2013-12-24 15:28:00,
2013-12-24 07:29:00,45.9,43.1,30.06,SE,135,1.3,2.9,90,0.00,,,0.00,VWS V14.01,2013-12-24 15:29:00,
2013-12-24 07:30:00,46.0,43.6,30.06,SE,135,0.0,2.9,91,0.00,,,0.00,VWS V14.01,2013-12-24 15:30:00,
2013-12-24 07:31:00,46.0,43.6,30.06,SE,135,0.0,2.9,91,0.00,,,0.00,VWS V14.01,2013-12-24 15:31:00,
2013-12-24 07:32:00,46.0,43.6,30.06,ESE,112,2.5,2.9,91,0.00,,,0.00,VWS V14.01,2013-12-24 15:32:00,
2013-12-24 07:33:00,46.0,43.6,30.06,ESE,112,2.5,2.5,91,0.00,,,0.00,VWS V14.01,2013-12-24 15:33:00,
2013-12-24 07:34:00,46.0,43.6,30.06,ESE,112,2.5,2.5,91,0.00,,,0.00,VWS V14.01,2013-12-24 15:34:00,
2013-12-24 07:35:00,46.2,44.0,30.06,SE,135,1.3,2.5,92,0.00,,,0.00,VWS V14.01,2013-12-24 15:35:00,
2013-12-24 07:36:00,46.4,44.2,30.06,SE,135,1.3,2.5,92,0.00,,,0.00,VWS V14.01,2013-12-24 15:36:00,
2013-12-24 07:37:00,46.4,44.2,30.06,SE,135,1.3,2.5,92,0.00,,,0.00,VWS V14.01,2013-12-24 15:37:00,
2013-12-24 07:38:00,46.6,44.4,30.06,SE,135,1.3,2.5,92,0.00,,,0.00,VWS V14.01,2013-12-24 15:38:00,
2013-12-24 07:39:00,46.6,44.4,30.06,SE,135,1.3,1.3,92,0.00,,,0.00,VWS V14.01,2013-12-24 15:39:00,
2013-12-24 07:40:00,46.8,44.8,30.06,ESE,112,2.0,2.0,93,0.00,,,0.00,VWS V14.01,2013-12-24 15:40:00,
2013-12-24 07:41:00,46.8,44.8,30.06,ESE,112,1.6,2.0,93,0.00,,,0.00,VWS V14.01,2013-12-24 15:41:00,
2013-12-24 07:42:00,46.9,45.0,30.06,SE,135,2.5,2.5,93,0.00,,,0.00,VWS V14.01,2013-12-24 15:42:00,
2013-12-24 07:43:00,46.9,45.0,30.06,ESE,112,1.1,2.5,93,0.00,,,0.00,VWS V14.01,2013-12-24 15:43:00,
2013-12-24 07:44:00,47.1,45.2,30.06,SSE,158,1.1,2.5,93,0.00,,,0.00,VWS V14.01,2013-12-24 15:44:00,
2013-12-24 07:45:00,47.1,45.2,30.06,ESE,112,3.4,3.4,93,0.00,,,0.00,VWS V14.01,2013-12-24 15:45:00,
2013-12-24 07:46:00,47.1,45.2,30.06,ESE,112,3.4,3.4,93,0.00,,,0.00,VWS V14.01,2013-12-24 15:46:00,
2013-12-24 07:47:00,47.3,45.4,30.06,ESE,112,2.0,3.4,93,0.00,,,0.00,VWS V14.01,2013-12-24 15:47:00,
2013-12-24 07:48:00,47.3,45.4,30.06,SE,135,2.0,3.4,93,0.00,,,0.00,VWS V14.01,2013-12-24 15:48:00,
2013-12-24 07:49:00,47.5,45.6,30.06,ESE,112,1.6,3.4,93,0.00,,,0.00,VWS V14.01,2013-12-24 15:49:00,
2013-12-24 07:50:00,47.7,45.7,30.06,East,90,2.5,2.5,93,0.00,,,0.00,VWS V14.01,2013-12-24 15:50:00,
2013-12-24 07:51:00,47.7,45.7,30.06,East,90,2.5,2.5,93,0.00,,,0.00,VWS V14.01,2013-12-24 15:51:00,
2013-12-24 07:52:00,47.8,45.6,30.06,ESE,112,2.0,2.5,92,0.00,,,0.00,VWS V14.01,2013-12-24 15:52:00,
2013-12-24 07:53:00,47.8,45.6,30.06,ESE,112,1.6,2.5,92,0.00,,,0.00,VWS V14.01,2013-12-24 15:53:00,
2013-12-24 07:54:00,48.0,45.8,30.06,SSE,158,2.5,2.5,92,0.00,,,0.00,VWS V14.01,2013-12-24 15:54:00,
2013-12-24 07:55:00,48.0,45.8,30.06,East,90,2.7,2.7,92,0.00,,,0.00,VWS V14.01,2013-12-24 15:55:00,
2013-12-24 07:56:00,48.0,45.8,30.06,ESE,112,2.5,2.7,92,0.00,,,0.00,VWS V14.01,2013-12-24 15:56:00,
2013-12-24 07:57:00,48.0,45.8,30.06,ESE,112,2.9,2.9,92,0.00,,,0.00,VWS V14.01,2013-12-24 15:57:00,
2013-12-24 07:58:00,48.2,45.7,30.06,ESE,112,2.9,2.9,91,0.00,,,0.00,VWS V14.01,2013-12-24 15:58:00,
2013-12-24 07:59:00,48.4,45.6,30.06,East,90,3.6,3.6,90,0.00,,,0.00,VWS V14.01,2013-12-24 15:59:00,
2013-12-24 08:00:00,48.4,45.6,30.06,SE,135,2.0,3.6,90,0.00,,,0.00,VWS V14.01,2013-12-24 16:00:00,
2013-12-24 08:01:00,48.4,45.6,30.06,SE,135,2.0,3.6,90,0.00,,,0.00,VWS V14.01,2013-12-24 16:01:00,
2013-12-24 08:02:00,48.4,45.6,30.06,SE,135,2.0,3.6,90,0.00,,,0.00,VWS V14.01,2013-12-24 16:02:00,
2013-12-24 08:03:00,48.6,45.8,30.06,ESE,112,1.6,3.4,90,0.00,,,0.00,VWS V14.01,2013-12-24 16:03:00,
2013-12-24 08:04:00,48.6,45.8,30.06,ESE,112,1.6,3.4,90,0.00,,,0.00,VWS V14.01,2013-12-24 16:04:00,
2013-12-24 08:05:00,48.7,45.7,30.06,SE,135,1.1,2.0,89,0.00,,,0.00,VWS V14.01,2013-12-24 16:05:00,
2013-12-24 08:06:00,48.7,45.7,30.06,SE,135,1.1,2.0,89,0.00,,,0.00,VWS V14.01,2013-12-24 16:06:00,
2013-12-24 08:07:00,48.9,45.8,30.06,SE,135,1.1,1.6,89,0.00,,,0.00,VWS V14.01,2013-12-24 16:07:00,
2013-12-24 08:08:00,49.1,46.0,30.06,ESE,112,2.5,2.5,89,0.00,,,0.00,VWS V14.01,2013-12-24 16:08:00,
2013-12-24 08:09:00,49.1,46.0,30.06,ESE,112,3.1,3.1,89,0.00,,,0.00,VWS V14.01,2013-12-24 16:09:00,
2013-12-24 08:10:00,49.3,45.9,30.06,SE,135,2.9,3.1,88,0.00,,,0.00,VWS V14.01,2013-12-24 16:10:00,
2013-12-24 08:11:00,49.3,45.9,30.06,ESE,112,1.6,3.1,88,0.00,,,0.00,VWS V14.01,2013-12-24 16:11:00,
2013-12-24 08:12:00,49.5,46.1,30.06,ESE,112,2.9,3.1,88,0.00,,,0.00,VWS V14.01,2013-12-24 16:12:00,
2013-12-24 08:13:00,49.5,46.1,30.06,ESE,112,2.5,3.1,88,0.00,,,0.00,VWS V14.01,2013-12-24 16:13:00,
2013-12-24 08:14:00,49.8,46.1,30.06,SSE,158,3.4,3.4,87,0.00,,,0.00,VWS V14.01,2013-12-24 16:14:00,
2013-12-24 08:15:00,49.8,46.1,30.06,East,90,2.5,3.4,87,0.00,,,0.00,VWS V14.01,2013-12-24 16:15:00,
2013-12-24 08:16:00,49.8,46.1,30.06,East,90,2.5,3.4,87,0.00,,,0.00,VWS V14.01,2013-12-24 16:16:00,
2013-12-24 08:17:00,50.2,46.2,30.06,East,90,2.0,3.4,86,0.00,,,0.00,VWS V14.01,2013-12-24 16:17:00,
2013-12-24 08:18:00,50.2,46.2,30.06,East,90,2.0,3.4,86,0.00,,,0.00,VWS V14.01,2013-12-24 16:18:00,
2013-12-24 08:19:00,50.2,45.8,30.06,East,90,2.0,2.5,85,0.00,,,0.00,VWS V14.01,2013-12-24 16:19:00,
2013-12-24 08:20:00,50.2,45.8,30.06,SE,135,3.1,3.1,85,0.00,,,0.00,VWS V14.01,2013-12-24 16:20:00,
2013-12-24 08:21:00,50.2,45.8,30.06,SE,135,3.1,3.1,85,0.00,,,0.00,VWS V14.01,2013-12-24 16:21:00,
2013-12-24 08:22:00,50.4,45.7,30.06,ESE,112,2.5,3.1,84,0.00,,,0.00,VWS V14.01,2013-12-24 16:22:00,
2013-12-24 08:23:00,50.4,45.7,30.06,ESE,112,2.5,3.1,84,0.00,,,0.00,VWS V14.01,2013-12-24 16:23:00,
2013-12-24 08:24:00,50.2,45.5,30.06,ESE,112,0.0,3.1,84,0.00,,,0.00,VWS V14.01,2013-12-24 16:24:00,
2013-12-24 08:25:00,50.4,45.7,30.06,ENE,68,0.0,2.5,84,0.00,,,0.00,VWS V14.01,2013-12-24 16:25:00,
2013-12-24 08:26:00,50.4,45.7,30.06,SE,135,2.0,2.5,84,0.00,,,0.00,VWS V14.01,2013-12-24 16:26:00,
2013-12-24 08:27:00,50.4,45.7,30.06,SSE,158,0.0,2.5,84,0.00,,,0.00,VWS V14.01,2013-12-24 16:27:00,
2013-12-24 08:28:00,50.7,46.1,30.06,ESE,112,1.1,2.0,84,0.00,,,0.00,VWS V14.01,2013-12-24 16:28:00,
2013-12-24 08:29:00,50.9,45.9,30.06,ESE,112,1.1,2.0,83,0.00,,,0.00,VWS V14.01,2013-12-24 16:29:00,
2013-12-24 08:30:00,51.1,46.1,30.06,SE,135,2.5,2.5,83,0.00,,,0.00,VWS V14.01,2013-12-24 16:30:00,
2013-12-24 08:31:00,51.1,46.1,30.06,SE,135,2.5,2.5,83,0.00,,,0.00,VWS V14.01,2013-12-24 16:31:00,
2013-12-24 08:32:00,51.1,46.1,30.06,ESE,112,0.9,2.5,83,0.00,,,0.00,VWS V14.01,2013-12-24 16:32:00,
2013-12-24 08:33:00,51.4,46.5,30.06,ESE,112,0.9,2.5,83,0.00,,,0.00,VWS V14.01,2013-12-24 16:33:00,
2013-12-24 08:34:00,51.4,46.5,30.06,ESE,112,0.9,2.5,83,0.00,,,0.00,VWS V14.01,2013-12-24 16:34:00,
2013-12-24 08:35:00,51.6,46.6,30.06,ESE,112,0.9,0.9,83,0.00,,,0.00,VWS V14.01,2013-12-24 16:35:00,
2013-12-24 08:36:00,51.6,46.6,30.06,ESE,112,0.9,0.9,83,0.00,,,0.00,VWS V14.01,2013-12-24 16:36:00,
2013-12-24 08:37:00,52.0,46.7,30.06,ESE,112,0.9,0.9,82,0.00,,,0.00,VWS V14.01,2013-12-24 16:37:00,
2013-12-24 08:38:00,52.0,46.7,30.06,ESE,112,0.9,0.9,82,0.00,,,0.00,VWS V14.01,2013-12-24 16:38:00,
2013-12-24 08:39:00,52.0,46.7,30.06,ESE,112,0.9,0.9,82,0.00,,,0.00,VWS V14.01,2013-12-24 16:39:00,
2013-12-24 08:40:00,52.0,46.7,30.06,ESE,112,0.9,0.9,82,0.00,,,0.00,VWS V14.01,2013-12-24 16:40:00,
2013-12-24 08:41:00,52.0,46.7,30.06,ESE,112,0.9,0.9,82,0.00,,,0.00,VWS V14.01,2013-12-24 16:41:00,
2013-12-24 08:42:00,52.0,46.7,30.06,ESE,112,0.9,0.9,82,0.00,,,0.00,VWS V14.01,2013-12-24 16:42:00,
2013-12-24 08:43:00,52.0,46.7,30.06,ESE,112,0.9,0.9,82,0.00,,,0.00,VWS V14.01,2013-12-24 16:43:00,
2013-12-24 08:44:00,52.0,46.7,30.06,ESE,112,0.9,0.9,82,0.00,,,0.00,VWS V14.01,2013-12-24 16:44:00,
2013-12-24 08:45:00,52.0,46.7,30.06,ESE,112,0.9,0.9,82,0.00,,,0.00,VWS V14.01,2013-12-24 16:45:00,
2013-12-24 08:46:00,52.0,46.7,30.06,ESE,112,0.9,0.9,82,0.00,,,0.00,VWS V14.01,2013-12-24 16:46:00,
2013-12-24 08:47:00,52.0,46.7,30.06,ESE,112,0.9,0.9,82,0.00,,,0.00,VWS V14.01,2013-12-24 16:47:00,
2013-12-24 08:48:00,52.0,46.7,30.06,ESE,112,0.9,0.9,82,0.00,,,0.00,VWS V14.01,2013-12-24 16:48:00,
2013-12-24 08:49:00,52.0,46.7,30.06,ESE,112,0.9,0.9,82,0.00,,,0.00,VWS V14.01,2013-12-24 16:49:00,
2013-12-24 08:50:00,52.0,46.7,30.06,ESE,112,0.9,0.9,82,0.00,,,0.00,VWS V14.01,2013-12-24 16:50:00,
2013-12-24 08:51:00,52.0,46.7,30.06,ESE,112,0.9,0.9,82,0.00,,,0.00,VWS V14.01,2013-12-24 16:51:00,
2013-12-24 08:52:00,52.0,46.7,30.06,ESE,112,0.9,0.9,82,0.00,,,0.00,VWS V14.01,2013-12-24 16:52:00,
2013-12-24 08:53:00,52.0,46.7,30.06,ESE,112,0.9,0.9,82,0.00,,,0.00,VWS V14.01,2013-12-24 16:53:00,
2013-12-24 08:54:00,52.0,46.7,30.06,ESE,112,0.9,0.9,82,0.00,,,0.00,VWS V14.01,2013-12-24 16:54:00,
2013-12-24 08:55:00,52.0,46.7,30.06,ESE,112,0.9,0.9,82,0.00,,,0.00,VWS V14.01,2013-12-24 16:55:00,
2013-12-24 08:56:00,52.0,46.7,30.06,ESE,112,0.9,0.9,82,0.00,,,0.00,VWS V14.01,2013-12-24 16:56:00,
2013-12-24 08:57:00,52.0,46.7,30.06,ESE,112,0.9,0.9,82,0.00,,,0.00,VWS V14.01,2013-12-24 16:57:00,
2013-12-24 08:58:00,52.0,46.7,30.06,ESE,112,0.9,0.9,82,0.00,,,0.00,VWS V14.01,2013-12-24 16:58:00,
2013-12-24 08:59:00,52.0,46.7,30.06,ESE,112,0.9,0.9,82,0.00,,,0.00,VWS V14.01,2013-12-24 16:59:00,
2013-12-24 09:00:00,54.5,46.4,30.06,ESE,112,0.9,0.9,74,0.00,,,0.00,VWS V14.01,2013-12-24 17:00:00,
2013-12-24 09:01:00,54.5,46.4,30.06,ESE,112,0.9,0.9,74,0.00,,,0.00,VWS V14.01,2013-12-24 17:01:00,
2013-12-24 09:02:00,54.5,46.4,30.06,ESE,112,0.9,0.9,74,0.00,,,0.00,VWS V14.01,2013-12-24 17:02:00,
2013-12-24 09:03:00,54.7,45.1,30.06,ESE,112,0.9,0.9,70,0.00,,,0.00,VWS V14.01,2013-12-24 17:03:00,
2013-12-24 09:04:00,54.7,45.1,30.06,NE,45,2.5,3.8,70,0.00,,,0.00,VWS V14.01,2013-12-24 17:04:00,
2013-12-24 09:05:00,54.3,44.8,30.06,NE,45,4.0,4.0,70,0.00,,,0.00,VWS V14.01,2013-12-24 17:05:00,
2013-12-24 09:06:00,54.3,44.8,30.06,NE,45,4.0,4.0,70,0.00,,,0.00,VWS V14.01,2013-12-24 17:06:00,
2013-12-24 09:07:00,54.0,44.8,30.06,ENE,68,4.0,4.0,71,0.00,,,0.00,VWS V14.01,2013-12-24 17:07:00,
2013-12-24 09:08:00,53.8,44.6,30.06,ENE,68,4.0,4.0,71,0.00,,,0.00,VWS V14.01,2013-12-24 17:08:00,
2013-12-24 09:09:00,53.8,44.6,30.06,ESE,112,1.3,4.0,71,0.00,,,0.00,VWS V14.01,2013-12-24 17:09:00,
2013-12-24 09:10:00,54.0,45.2,30.06,ESE,112,2.9,4.0,72,0.00,,,0.00,VWS V14.01,2013-12-24 17:10:00,
2013-12-24 09:11:00,54.0,45.2,30.06,ESE,112,2.9,4.0,72,0.00,,,0.00,VWS V14.01,2013-12-24 17:11:00,
2013-12-24 09:12:00,54.1,45.3,30.06,SE,135,2.7,4.0,72,0.00,,,0.00,VWS V14.01,2013-12-24 17:12:00,
2013-12-24 09:13:00,54.1,45.3,30.06,ENE,68,2.9,2.9,72,0.00,,,0.00,VWS V14.01,2013-12-24 17:13:00,
2013-12-24 09:14:00,54.1,45.3,30.06,ENE,68,3.6,3.6,72,0.00,,,0.00,VWS V14.01,2013-12-24 17:14:00,
2013-12-24 09:15:00,54.5,45.7,30.06,NE,45,3.1,3.6,72,0.00,,,0.00,VWS V14.01,2013-12-24 17:15:00,
2013-12-24 09:16:00,54.5,45.7,30.06,NE,45,3.1,3.6,72,0.00,,,0.00,VWS V14.01,2013-12-24 17:16:00,
2013-12-24 09:17:00,54.5,44.9,30.06,NE,45,2.9,3.6,70,0.00,,,0.00,VWS V14.01,2013-12-24 17:17:00,
2013-12-24 09:18:00,54.5,44.9,30.06,NE,45,2.5,3.1,70,0.00,,,0.00,VWS V14.01,2013-12-24 17:18:00,
2013-12-24 09:19:00,54.1,45.0,30.06,NE,45,2.5,3.1,71,0.00,,,0.00,VWS V14.01,2013-12-24 17:19:00,
2013-12-24 09:20:00,54.3,45.1,30.06,NE,45,2.7,2.7,71,0.00,,,0.00,VWS V14.01,2013-12-24 17:20:00,
2013-12-24 09:21:00,54.3,45.1,30.06,NE,45,3.8,3.8,71,0.00,,,0.00,VWS V14.01,2013-12-24 17:21:00,
2013-12-24 09:22:00,54.3,45.1,30.06,NE,45,2.7,3.8,71,0.00,,,0.00,VWS V14.01,2013-12-24 17:22:00,
2013-12-24 09:23:00,54.3,45.5,30.06,NE,45,2.7,3.8,72,0.00,,,0.00,VWS V14.01,2013-12-24 17:23:00,
2013-12-24 09:24:00,54.3,45.5,30.06,NE,45,1.3,3.8,72,0.00,,,0.00,VWS V14.01,2013-12-24 17:24:00,
2013-12-24 09:25:00,54.1,45.3,30.06,NE,45,2.7,2.7,72,0.00,,,0.00,VWS V14.01,2013-12-24 17:25:00,
2013-12-24 09:26:00,54.1,45.3,30.06,NE,45,2.7,2.7,72,0.00,,,0.00,VWS V14.01,2013-12-24 17:26:00,
2013-12-24 09:27:00,54.7,45.8,30.06,NE,45,2.7,2.7,72,0.00,,,0.00,VWS V14.01,2013-12-24 17:27:00,
2013-12-24 09:28:00,54.7,45.8,30.06,NE,45,2.7,2.7,72,0.00,,,0.00,VWS V14.01,2013-12-24 17:28:00,
2013-12-24 09:29:00,55.0,46.2,30.06,NE,45,2.7,2.7,72,0.00,,,0.00,VWS V14.01,2013-12-24 17:29:00,
2013-12-24 09:30:00,55.0,46.2,30.06,NE,45,2.7,2.7,72,0.00,,,0.00,VWS V14.01,2013-12-24 17:30:00,
2013-12-24 09:31:00,55.0,46.2,30.06,NE,45,2.7,2.7,72,0.00,,,0.00,VWS V14.01,2013-12-24 17:31:00,
2013-12-24 09:32:00,55.0,45.8,30.06,East,90,5.4,5.4,71,0.00,,,0.00,VWS V14.01,2013-12-24 17:32:00,
2013-12-24 09:33:00,55.0,45.8,30.06,ENE,68,4.0,5.4,71,0.00,,,0.00,VWS V14.01,2013-12-24 17:33:00,
2013-12-24 09:34:00,55.0,45.8,30.06,NE,45,3.8,5.4,71,0.00,,,0.00,VWS V14.01,2013-12-24 17:34:00,
2013-12-24 09:35:00,55.0,45.1,30.06,ENE,68,3.6,5.4,69,0.00,,,0.00,VWS V14.01,2013-12-24 17:35:00,
2013-12-24 09:36:00,55.0,45.1,30.06,ENE,68,3.1,5.4,69,0.00,,,0.00,VWS V14.01,2013-12-24 17:36:00,
2013-12-24 09:37:00,55.0,45.1,30.06,ESE,112,3.4,4.0,69,0.00,,,0.00,VWS V14.01,2013-12-24 17:37:00,
2013-12-24 09:38:00,55.2,45.6,30.06,NE,45,0.0,3.6,70,0.00,,,0.00,VWS V14.01,2013-12-24 17:38:00,
2013-12-24 09:39:00,55.6,45.6,30.06,ENE,68,3.6,3.6,69,0.00,,,0.00,VWS V14.01,2013-12-24 17:39:00,
2013-12-24 09:40:00,55.6,45.2,30.06,East,90,4.0,4.0,68,0.00,,,0.00,VWS V14.01,2013-12-24 17:40:00,
2013-12-24 09:41:00,55.6,45.2,30.06,East,90,4.0,4.0,68,0.00,,,0.00,VWS V14.01,2013-12-24 17:41:00,
2013-12-24 09:42:00,55.6,45.2,30.06,East,90,4.0,4.0,68,0.00,,,0.00,VWS V14.01,2013-12-24 17:42:00,
2013-12-24 09:43:00,55.6,45.2,30.06,East,90,4.9,4.9,68,0.00,,,0.00,VWS V14.01,2013-12-24 17:43:00,
2013-12-24 09:44:00,55.6,45.6,30.06,NNE,22,2.0,4.9,69,0.00,,,0.00,VWS V14.01,2013-12-24 17:44:00,
2013-12-24 09:45:00,55.8,45.4,30.06,ENE,68,4.3,4.9,68,0.00,,,0.00,VWS V14.01,2013-12-24 17:45:00,
2013-12-24 09:46:00,55.8,45.4,30.06,ENE,68,4.3,4.9,68,0.00,,,0.00,VWS V14.01,2013-12-24 17:46:00,
2013-12-24 09:47:00,55.9,45.2,30.06,ENE,68,4.0,4.3,67,0.00,,,0.00,VWS V14.01,2013-12-24 17:47:00,
2013-12-24 09:48:00,55.9,45.2,30.06,ENE,68,4.0,4.3,67,0.00,,,0.00,VWS V14.01,2013-12-24 17:48:00,
2013-12-24 09:49:00,55.9,45.5,30.06,ENE,68,5.6,5.6,68,0.00,,,0.00,VWS V14.01,2013-12-24 17:49:00,
2013-12-24 09:50:00,55.9,45.2,30.06,ENE,68,4.5,5.6,67,0.00,,,0.00,VWS V14.01,2013-12-24 17:50:00,
2013-12-24 09:51:00,55.9,45.2,30.06,ENE,68,3.8,5.6,67,0.00,,,0.00,VWS V14.01,2013-12-24 17:51:00,
2013-12-24 09:52:00,55.9,45.2,30.06,ENE,68,3.6,5.6,67,0.00,,,0.00,VWS V14.01,2013-12-24 17:52:00,
2013-12-24 09:53:00,55.8,45.0,30.06,ENE,68,4.0,5.6,67,0.00,,,0.00,VWS V14.01,2013-12-24 17:53:00,
2013-12-24 09:54:00,55.4,44.6,30.06,ENE,68,4.0,4.0,67,0.00,,,0.00,VWS V14.01,2013-12-24 17:54:00,
2013-12-24 09:55:00,55.4,44.6,30.06,NE,45,1.3,4.0,67,0.00,,,0.00,VWS V14.01,2013-12-24 17:55:00,
2013-12-24 09:57:00,55.4,44.6,30.06,NE,45,1.3,4.0,67,0.00,,,0.00,VWS V14.01,2013-12-24 17:57:00,
2013-12-24 09:58:00,55.9,45.9,30.09,ENE,68,1.3,4.0,69,0.00,,,0.00,VWS V14.01,2013-12-24 17:58:00,
2013-12-24 09:59:00,55.9,45.9,30.09,ENE,68,4.3,4.3,69,0.00,,,0.00,VWS V14.01,2013-12-24 17:59:00,
2013-12-24 10:00:00,56.1,45.7,30.09,ENE,68,3.8,4.3,68,0.00,,,0.00,VWS V14.01,2013-12-24 18:00:00,
2013-12-24 10:01:00,56.3,45.5,30.09,ENE,68,4.3,4.3,67,0.00,,,0.00,VWS V14.01,2013-12-24 18:01:00,
2013-12-24 10:02:00,56.3,45.5,30.09,NE,45,4.9,4.9,67,0.00,,,0.00,VWS V14.01,2013-12-24 18:02:00,
2013-12-24 10:03:00,56.3,45.5,30.09,ENE,68,4.7,4.9,67,0.00,,,0.00,VWS V14.01,2013-12-24 18:03:00,
2013-12-24 10:04:00,56.3,45.5,30.09,ENE,68,5.4,5.4,67,0.00,,,0.00,VWS V14.01,2013-12-24 18:04:00,
2013-12-24 10:05:00,56.1,44.9,30.09,East,90,4.0,5.4,66,0.00,,,0.00,VWS V14.01,2013-12-24 18:05:00,
2013-12-24 10:06:00,56.1,44.9,30.09,ENE,68,3.8,5.4,66,0.00,,,0.00,VWS V14.01,2013-12-24 18:06:00,
2013-12-24 10:07:00,56.1,44.9,30.09,ENE,68,3.8,5.4,66,0.00,,,0.00,VWS V14.01,2013-12-24 18:07:00,
2013-12-24 10:09:00,56.1,44.9,30.09,ENE,68,4.3,5.4,66,0.00,,,0.00,VWS V14.01,2013-12-24 18:09:00,
2013-12-24 10:10:00,56.5,45.3,30.09,ENE,68,5.8,5.8,66,0.00,,,0.00,VWS V14.01,2013-12-24 18:10:00,
2013-12-24 10:11:00,56.5,45.3,30.09,ENE,68,5.8,5.8,66,0.00,,,0.00,VWS V14.01,2013-12-24 18:11:00,
2013-12-24 10:12:00,56.7,45.4,30.09,ENE,68,4.3,5.8,66,0.00,,,0.00,VWS V14.01,2013-12-24 18:12:00,
2013-12-24 10:13:00,56.7,45.4,30.06,NE,45,3.4,5.8,66,0.00,,,0.00,VWS V14.01,2013-12-24 18:13:00,
2013-12-24 10:14:00,56.7,45.4,30.06,NNE,22,3.6,5.8,66,0.00,,,0.00,VWS V14.01,2013-12-24 18:14:00,
2013-12-24 10:15:00,56.7,45.4,30.06,NNE,22,3.6,4.3,66,0.00,,,0.00,VWS V14.01,2013-12-24 18:15:00,
2013-12-24 10:16:00,56.7,45.4,30.06,NNE,22,3.6,4.3,66,0.00,,,0.00,VWS V14.01,2013-12-24 18:16:00,
2013-12-24 10:17:00,56.7,45.4,30.06,ENE,68,4.3,4.3,66,0.00,,,0.00,VWS V14.01,2013-12-24 18:17:00,
2013-12-24 10:18:00,56.7,45.4,30.06,ENE,68,4.3,4.3,66,0.00,,,0.00,VWS V14.01,2013-12-24 18:18:00,
2013-12-24 10:19:00,56.7,45.4,30.06,ENE,68,4.3,4.3,66,0.00,,,0.00,VWS V14.01,2013-12-24 18:19:00,
2013-12-24 10:20:00,56.8,45.6,30.06,ENE,68,4.3,4.3,66,0.00,,,0.00,VWS V14.01,2013-12-24 18:20:00,
2013-12-24 10:21:00,56.8,45.6,30.06,ENE,68,4.3,4.3,66,0.00,,,0.00,VWS V14.01,2013-12-24 18:21:00,
2013-12-24 10:22:00,56.8,45.6,30.06,ENE,68,4.3,4.3,66,0.00,,,0.00,VWS V14.01,2013-12-24 18:22:00,
2013-12-24 10:23:00,57.0,45.8,30.06,ENE,68,4.3,4.3,66,0.00,,,0.00,VWS V14.01,2013-12-24 18:23:00,
2013-12-24 10:24:00,57.2,46.0,30.06,ENE,68,4.3,4.3,66,0.00,,,0.00,VWS V14.01,2013-12-24 18:24:00,
2013-12-24 10:25:00,57.2,45.6,30.06,ENE,68,4.3,4.3,65,0.00,,,0.00,VWS V14.01,2013-12-24 18:25:00,
2013-12-24 10:26:00,57.2,45.6,30.06,ENE,68,4.3,4.3,65,0.00,,,0.00,VWS V14.01,2013-12-24 18:26:00,
2013-12-24 10:27:00,57.2,45.6,30.06,ENE,68,4.3,4.3,65,0.00,,,0.00,VWS V14.01,2013-12-24 18:27:00,
2013-12-24 10:28:00,56.8,45.2,30.06,ENE,68,4.3,4.3,65,0.00,,,0.00,VWS V14.01,2013-12-24 18:28:00,
2013-12-24 10:29:00,56.8,45.2,30.06,ENE,68,4.3,4.3,65,0.00,,,0.00,VWS V14.01,2013-12-24 18:29:00,
2013-12-24 10:30:00,57.0,45.4,30.06,ENE,68,4.3,4.3,65,0.00,,,0.00,VWS V14.01,2013-12-24 18:30:00,
2013-12-24 10:31:00,57.2,45.6,30.06,ENE,68,4.3,4.3,65,0.00,,,0.00,VWS V14.01,2013-12-24 18:31:00,
2013-12-24 10:32:00,57.2,45.6,30.06,ENE,68,3.6,4.3,65,0.00,,,0.00,VWS V14.01,2013-12-24 18:32:00,
2013-12-24 10:33:00,57.4,45.7,30.06,ENE,68,3.6,4.3,65,0.00,,,0.00,VWS V14.01,2013-12-24 18:33:00,
2013-12-24 10:34:00,57.4,45.7,30.06,East,90,6.0,6.0,65,0.00,,,0.00,VWS V14.01,2013-12-24 18:34:00,
2013-12-24 10:35:00,57.6,45.5,30.06,East,90,6.0,6.0,64,0.00,,,0.00,VWS V14.01,2013-12-24 18:35:00,
2013-12-24 10:36:00,57.6,45.5,30.06,ENE,68,5.6,6.0,64,0.00,,,0.00,VWS V14.01,2013-12-24 18:36:00,
2013-12-24 10:37:00,57.6,45.5,30.06,ENE,68,5.6,6.0,64,0.00,,,0.00,VWS V14.01,2013-12-24 18:37:00,
2013-12-24 10:38:00,58.3,46.6,30.06,ESE,112,3.4,6.0,65,0.00,,,0.00,VWS V14.01,2013-12-24 18:38:00,
2013-12-24 10:39:00,58.3,46.6,30.06,ESE,112,3.4,6.0,65,0.00,,,0.00,VWS V14.01,2013-12-24 18:39:00,
2013-12-24 10:40:00,58.8,46.7,30.06,ESE,112,3.4,5.6,64,0.00,,,0.00,VWS V14.01,2013-12-24 18:40:00,
2013-12-24 10:41:00,58.8,46.7,30.06,ESE,112,3.4,5.6,64,0.00,,,0.00,VWS V14.01,2013-12-24 18:41:00,
2013-12-24 10:42:00,59.4,46.8,30.06,ESE,112,3.4,3.4,63,0.00,,,0.00,VWS V14.01,2013-12-24 18:42:00,
2013-12-24 10:43:00,59.4,46.8,30.06,NE,45,1.3,3.4,63,0.00,,,0.00,VWS V14.01,2013-12-24 18:43:00,
2013-12-24 10:44:00,60.1,47.5,30.06,SSE,158,3.4,3.4,63,0.00,,,0.00,VWS V14.01,2013-12-24 18:44:00,
2013-12-24 10:45:00,60.4,47.4,30.06,East,90,2.9,3.4,62,0.00,,,0.00,VWS V14.01,2013-12-24 18:45:00,
2013-12-24 10:46:00,60.4,47.4,30.06,East,90,2.9,3.4,62,0.00,,,0.00,VWS V14.01,2013-12-24 18:46:00,
2013-12-24 10:47:00,60.4,47.4,30.06,SSE,158,0.0,3.4,62,0.00,,,0.00,VWS V14.01,2013-12-24 18:47:00,
2013-12-24 10:48:00,60.4,47.4,30.06,NNE,22,3.1,3.4,62,0.00,,,0.00,VWS V14.01,2013-12-24 18:48:00,
2013-12-24 10:49:00,60.4,47.4,30.06,West,270,2.7,3.1,62,0.00,,,0.00,VWS V14.01,2013-12-24 18:49:00,
2013-12-24 10:50:00,61.3,46.9,30.06,SSE,158,0.0,3.8,59,0.00,,,0.00,VWS V14.01,2013-12-24 18:50:00,
2013-12-24 10:51:00,61.3,46.9,30.06,SSE,158,0.0,3.8,59,0.00,,,0.00,VWS V14.01,2013-12-24 18:51:00,
2013-12-24 10:52:00,61.3,46.9,30.06,ESE,112,2.9,3.8,59,0.00,,,0.00,VWS V14.01,2013-12-24 18:52:00,
2013-12-24 10:53:00,61.5,46.2,30.06,ESE,112,2.9,3.8,57,0.00,,,0.00,VWS V14.01,2013-12-24 18:53:00,
2013-12-24 10:54:00,61.5,45.2,30.06,NE,45,2.9,3.8,55,0.00,,,0.00,VWS V14.01,2013-12-24 18:54:00,
2013-12-24 10:55:00,61.9,46.0,30.06,SSE,158,2.5,3.1,56,0.00,,,0.00,VWS V14.01,2013-12-24 18:55:00,
2013-12-24 10:56:00,61.9,46.0,30.06,ENE,68,3.4,3.4,56,0.00,,,0.00,VWS V14.01,2013-12-24 18:56:00,
2013-12-24 10:57:00,61.9,46.0,30.06,ENE,68,3.4,3.4,56,0.00,,,0.00,VWS V14.01,2013-12-24 18:57:00,
2013-12-24 10:58:00,61.9,46.0,30.06,ENE,68,3.4,3.4,56,0.00,,,0.00,VWS V14.01,2013-12-24 18:58:00,
2013-12-24 10:59:00,61.9,46.0,30.06,ENE,68,3.4,3.4,56,0.00,,,0.00,VWS V14.01,2013-12-24 18:59:00,
2013-12-24 11:00:00,61.9,46.0,30.06,ENE,68,3.4,3.4,56,0.00,,,0.00,VWS V14.01,2013-12-24 19:00:00,
2013-12-24 11:01:00,61.9,46.0,30.06,ENE,68,3.4,3.4,56,0.00,,,0.00,VWS V14.01,2013-12-24 19:01:00,
2013-12-24 11:02:00,61.9,46.0,30.06,ENE,68,3.4,3.4,56,0.00,,,0.00,VWS V14.01,2013-12-24 19:02:00,
2013-12-24 11:03:00,63.0,46.1,30.06,SSW,202,3.6,3.6,54,0.00,,,0.00,VWS V14.01,2013-12-24 19:03:00,
2013-12-24 11:04:00,63.0,46.1,30.06,SSW,202,3.6,3.6,54,0.00,,,0.00,VWS V14.01,2013-12-24 19:04:00,
2013-12-24 11:05:00,63.3,45.9,30.06,ESE,112,2.5,3.6,53,0.00,,,0.00,VWS V14.01,2013-12-24 19:05:00,
2013-12-24 11:06:00,63.3,45.9,30.06,ESE,112,2.5,3.6,53,0.00,,,0.00,VWS V14.01,2013-12-24 19:06:00,
2013-12-24 11:07:00,63.1,44.7,30.06,NNE,22,5.8,5.8,51,0.00,,,0.00,VWS V14.01,2013-12-24 19:07:00,
2013-12-24 11:08:00,63.1,44.7,30.06,East,90,4.9,5.8,51,0.00,,,0.00,VWS V14.01,2013-12-24 19:08:00,
2013-12-24 11:09:00,63.1,44.7,30.06,East,90,4.9,5.8,51,0.00,,,0.00,VWS V14.01,2013-12-24 19:09:00,
2013-12-24 11:10:00,63.1,44.7,30.06,East,90,4.9,5.8,51,0.00,,,0.00,VWS V14.01,2013-12-24 19:10:00,
2013-12-24 11:11:00,63.1,44.7,30.06,East,90,4.9,5.8,51,0.00,,,0.00,VWS V14.01,2013-12-24 19:11:00,
2013-12-24 11:12:00,63.1,44.7,30.06,East,90,4.9,5.8,51,0.00,,,0.00,VWS V14.01,2013-12-24 19:12:00,
2013-12-24 11:13:00,63.1,44.7,30.03,East,90,4.9,4.9,51,0.00,,,0.00,VWS V14.01,2013-12-24 19:13:00,
2013-12-24 11:14:00,63.1,44.7,30.03,East,90,4.9,4.9,51,0.00,,,0.00,VWS V14.01,2013-12-24 19:14:00,
2013-12-24 11:15:00,63.1,44.7,30.03,East,90,4.9,4.9,51,0.00,,,0.00,VWS V14.01,2013-12-24 19:15:00,
2013-12-24 11:16:00,63.1,44.7,30.03,East,90,0.0,4.9,51,0.00,,,0.00,VWS V14.01,2013-12-24 19:16:00,
2013-12-24 11:17:00,63.1,44.7,30.03,East,90,0.0,4.9,51,0.00,,,0.00,VWS V14.01,2013-12-24 19:17:00,
2013-12-24 11:18:00,63.1,44.7,30.03,ESE,112,5.4,5.4,51,0.00,,,0.00,VWS V14.01,2013-12-24 19:18:00,
2013-12-24 11:19:00,64.2,45.2,30.03,SE,135,3.1,5.4,50,0.00,,,0.00,VWS V14.01,2013-12-24 19:19:00,
2013-12-24 11:20:00,64.2,44.7,30.03,ENE,68,2.5,5.4,49,0.00,,,0.00,VWS V14.01,2013-12-24 19:20:00,
2013-12-24 11:21:00,64.2,44.7,30.03,ENE,68,2.5,5.4,49,0.00,,,0.00,VWS V14.01,2013-12-24 19:21:00,
2013-12-24 11:22:00,64.2,44.7,30.03,ESE,112,1.6,5.4,49,0.00,,,0.00,VWS V14.01,2013-12-24 19:22:00,
2013-12-24 11:23:00,64.4,44.8,30.03,ESE,112,1.6,5.4,49,0.00,,,0.00,VWS V14.01,2013-12-24 19:23:00,
2013-12-24 11:24:00,64.8,45.2,30.03,NE,45,1.1,3.1,49,0.00,,,0.00,VWS V14.01,2013-12-24 19:24:00,
2013-12-24 11:25:00,64.8,45.2,30.03,ESE,112,3.6,3.6,49,0.00,,,0.00,VWS V14.01,2013-12-24 19:25:00,
2013-12-24 11:26:00,64.8,44.6,30.03,East,90,6.0,6.0,48,0.00,,,0.00,VWS V14.01,2013-12-24 19:26:00,
2013-12-24 11:27:00,64.8,44.6,30.03,ESE,112,2.7,6.0,48,0.00,,,0.00,VWS V14.01,2013-12-24 19:27:00,
2013-12-24 11:28:00,64.4,44.3,30.03,NE,45,5.6,6.0,48,0.00,,,0.00,VWS V14.01,2013-12-24 19:28:00,
2013-12-24 11:29:00,64.4,44.3,30.03,ENE,68,6.3,6.3,48,0.00,,,0.00,VWS V14.01,2013-12-24 19:29:00,
2013-12-24 11:30:00,63.5,43.5,30.03,NE,45,6.0,6.3,48,0.00,,,0.00,VWS V14.01,2013-12-24 19:30:00,
2013-12-24 11:31:00,63.3,43.8,30.03,ESE,112,2.5,6.3,49,0.00,,,0.00,VWS V14.01,2013-12-24 19:31:00,
2013-12-24 11:32:00,63.3,43.8,30.03,SSE,158,4.3,6.3,49,0.00,,,0.00,VWS V14.01,2013-12-24 19:32:00,
2013-12-24 11:33:00,64.0,44.5,30.03,SSE,158,3.8,6.0,49,0.00,,,0.00,VWS V14.01,2013-12-24 19:33:00,
2013-12-24 11:34:00,64.0,44.5,30.03,WNW,292,2.2,4.3,49,0.00,,,0.00,VWS V14.01,2013-12-24 19:34:00,
2013-12-24 11:35:00,64.2,44.7,30.03,ENE,68,6.0,6.0,49,0.00,,,0.00,VWS V14.01,2013-12-24 19:35:00,
2013-12-24 11:36:00,64.2,44.7,30.03,ENE,68,6.0,6.0,49,0.00,,,0.00,VWS V14.01,2013-12-24 19:36:00,
2013-12-24 11:37:00,64.2,44.7,30.03,ENE,68,6.0,6.0,49,0.00,,,0.00,VWS V14.01,2013-12-24 19:37:00,
2013-12-24 11:38:00,64.2,44.7,30.03,ENE,68,6.0,6.0,49,0.00,,,0.00,VWS V14.01,2013-12-24 19:38:00,
2013-12-24 11:39:00,64.2,44.7,30.03,ENE,68,5.8,6.0,49,0.00,,,0.00,VWS V14.01,2013-12-24 19:39:00,
2013-12-24 11:40:00,64.6,44.5,30.03,SE,135,2.0,6.0,48,0.00,,,0.00,VWS V14.01,2013-12-24 19:40:00,
2013-12-24 11:41:00,64.6,44.5,30.03,WSW,248,1.6,6.0,48,0.00,,,0.00,VWS V14.01,2013-12-24 19:41:00,
2013-12-24 11:42:00,64.9,44.8,30.03,ENE,68,1.3,6.0,48,0.00,,,0.00,VWS V14.01,2013-12-24 19:42:00,
2013-12-24 11:43:00,64.9,44.8,30.03,ENE,68,1.3,5.8,48,0.00,,,0.00,VWS V14.01,2013-12-24 19:43:00,
2013-12-24 11:44:00,65.1,45.0,30.03,ENE,68,1.6,1.6,48,0.00,,,0.00,VWS V14.01,2013-12-24 19:44:00,
2013-12-24 11:45:00,65.5,45.3,30.03,ESE,112,1.1,1.6,48,0.00,,,0.00,VWS V14.01,2013-12-24 19:45:00,
2013-12-24 11:46:00,65.5,45.3,30.03,ESE,112,3.6,3.6,48,0.00,,,0.00,VWS V14.01,2013-12-24 19:46:00,
2013-12-24 11:47:00,65.3,44.6,30.03,ENE,68,4.3,4.3,47,0.00,,,0.00,VWS V14.01,2013-12-24 19:47:00,
2013-12-24 11:48:00,65.3,44.6,30.03,SSE,158,4.0,4.3,47,0.00,,,0.00,VWS V14.01,2013-12-24 19:48:00,
2013-12-24 11:49:00,65.8,45.6,30.03,ENE,68,3.1,4.3,48,0.00,,,0.00,VWS V14.01,2013-12-24 19:49:00,
2013-12-24 11:50:00,66.2,44.8,30.03,SSE,158,4.7,4.7,46,0.00,,,0.00,VWS V14.01,2013-12-24 19:50:00,
2013-12-24 11:51:00,66.2,44.8,30.03,SSE,158,4.7,4.7,46,0.00,,,0.00,VWS V14.01,2013-12-24 19:51:00,
2013-12-24 11:52:00,66.2,44.8,30.03,ENE,68,2.7,4.7,46,0.00,,,0.00,VWS V14.01,2013-12-24 19:52:00,
2013-12-24 11:53:00,66.4,45.0,30.03,East,90,4.3,4.7,46,0.00,,,0.00,VWS V14.01,2013-12-24 19:53:00,
2013-12-24 11:54:00,66.6,45.2,30.03,SSW,202,2.0,4.7,46,0.00,,,0.00,VWS V14.01,2013-12-24 19:54:00,
2013-12-24 11:55:00,66.6,45.2,30.03,ESE,112,2.7,4.3,46,0.00,,,0.00,VWS V14.01,2013-12-24 19:55:00,
2013-12-24 11:56:00,66.6,44.6,30.03,NNE,22,4.9,4.9,45,0.00,,,0.00,VWS V14.01,2013-12-24 19:56:00,
2013-12-24 11:57:00,66.6,44.6,30.03,South,180,3.1,4.9,45,0.00,,,0.00,VWS V14.01,2013-12-24 19:57:00,
2013-12-24 11:58:00,66.4,45.0,30.03,East,90,3.4,4.9,46,0.00,,,0.00,VWS V14.01,2013-12-24 19:58:00,
2013-12-24 11:59:00,66.4,45.0,30.03,NE,45,4.0,4.9,46,0.00,,,0.00,VWS V14.01,2013-12-24 19:59:00,
2013-12-24 12:00:00,66.2,44.2,30.03,NE,45,4.0,4.0,45,0.00,,,0.00,VWS V14.01,2013-12-24 20:00:00,
2013-12-24 12:01:00,66.2,44.3,30.03,NE,45,4.0,4.0,45,0.00,,,0.00,VWS V14.01,2013-12-24 20:01:00,
2013-12-24 12:02:00,66.6,44.6,30.03,ENE,68,5.4,5.4,45,0.00,,,0.00,VWS V14.01,2013-12-24 20:02:00,
2013-12-24 12:03:00,66.4,44.4,30.03,SE,135,2.0,5.4,45,0.00,,,0.00,VWS V14.01,2013-12-24 20:03:00,
2013-12-24 12:04:00,66.4,44.4,30.03,ESE,112,2.5,5.4,45,0.00,,,0.00,VWS V14.01,2013-12-24 20:04:00,
2013-12-24 12:05:00,66.9,44.9,30.03,ENE,68,4.3,4.3,45,0.00,,,0.00,VWS V14.01,2013-12-24 20:05:00,
2013-12-24 12:06:00,66.9,44.9,30.03,East,90,5.4,5.4,45,0.00,,,0.00,VWS V14.01,2013-12-24 20:06:00,
2013-12-24 12:07:00,66.9,44.3,30.03,East,90,2.5,5.4,44,0.00,,,0.00,VWS V14.01,2013-12-24 20:07:00,
2013-12-24 12:08:00,66.9,44.3,30.03,East,90,2.5,5.4,44,0.00,,,0.00,VWS V14.01,2013-12-24 20:08:00,
2013-12-24 12:09:00,66.7,44.2,30.03,East,90,2.0,5.4,44,0.00,,,0.00,VWS V14.01,2013-12-24 20:09:00,
2013-12-24 12:10:00,66.7,44.2,30.03,ENE,68,2.2,2.5,44,0.00,,,0.00,VWS V14.01,2013-12-24 20:10:00,
2013-12-24 12:11:00,66.7,44.2,30.03,SSE,158,2.5,2.5,44,0.00,,,0.00,VWS V14.01,2013-12-24 20:11:00,
2013-12-24 12:12:00,67.1,44.5,30.03,SSE,158,2.5,2.5,44,0.00,,,0.00,VWS V14.01,2013-12-24 20:12:00,
2013-12-24 12:13:00,67.1,44.5,30.03,SSE,158,3.4,3.4,44,0.00,,,0.00,VWS V14.01,2013-12-24 20:13:00,
2013-12-24 12:14:00,67.3,44.7,30.03,SSE,158,5.8,5.8,44,0.00,,,0.00,VWS V14.01,2013-12-24 20:14:00,
2013-12-24 12:15:00,67.6,45.0,30.03,SSE,158,0.0,5.8,44,0.00,,,0.00,VWS V14.01,2013-12-24 20:15:00,
2013-12-24 12:16:00,67.6,45.0,30.03,ESE,112,0.0,5.8,44,0.00,,,0.00,VWS V14.01,2013-12-24 20:16:00,
2013-12-24 12:17:00,68.2,45.5,30.03,SSE,158,2.5,5.8,44,0.00,,,0.00,VWS V14.01,2013-12-24 20:17:00,
2013-12-24 12:18:00,68.2,45.5,30.03,ESE,112,2.0,2.5,44,0.00,,,0.00,VWS V14.01,2013-12-24 20:18:00,
2013-12-24 12:19:00,68.0,44.7,30.03,SE,135,3.1,3.1,43,0.00,,,0.00,VWS V14.01,2013-12-24 20:19:00,
2013-12-24 12:20:00,67.6,44.4,30.03,ENE,68,3.4,4.7,43,0.00,,,0.00,VWS V14.01,2013-12-24 20:20:00,
2013-12-24 12:21:00,67.6,44.4,30.03,ESE,112,5.6,5.6,43,0.00,,,0.00,VWS V14.01,2013-12-24 20:21:00,
2013-12-24 12:22:00,67.6,44.4,30.03,SE,135,3.1,5.6,43,0.00,,,0.00,VWS V14.01,2013-12-24 20:22:00,
2013-12-24 12:23:00,68.0,44.7,30.03,NE,45,0.0,5.6,43,0.00,,,0.00,VWS V14.01,2013-12-24 20:23:00,
2013-12-24 12:24:00,68.5,45.2,30.03,NNE,22,0.9,5.6,43,0.00,,,0.00,VWS V14.01,2013-12-24 20:24:00,
2013-12-24 12:25:00,68.5,45.2,30.03,NNW,338,1.3,3.1,43,0.00,,,0.00,VWS V14.01,2013-12-24 20:25:00,
2013-12-24 12:26:00,68.9,45.5,30.03,ESE,112,1.6,1.6,43,0.00,,,0.00,VWS V14.01,2013-12-24 20:26:00,
2013-12-24 12:27:00,68.9,45.5,30.03,SSE,158,3.1,3.1,43,0.00,,,0.00,VWS V14.01,2013-12-24 20:27:00,
2013-12-24 12:28:00,68.9,45.5,30.03,ESE,112,4.3,4.3,43,0.00,,,0.00,VWS V14.01,2013-12-24 20:28:00,
2013-12-24 12:29:00,68.9,45.5,30.03,SSE,158,2.5,4.3,43,0.00,,,0.00,VWS V14.01,2013-12-24 20:29:00,
2013-12-24 12:30:00,69.4,45.4,30.03,NE,45,1.1,4.3,42,0.00,,,0.00,VWS V14.01,2013-12-24 20:30:00,
2013-12-24 12:31:00,69.4,45.4,30.03,NE,45,1.1,4.3,42,0.00,,,0.00,VWS V14.01,2013-12-24 20:31:00,
2013-12-24 12:32:00,69.6,45.5,30.03,SSE,158,2.7,4.3,42,0.00,,,0.00,VWS V14.01,2013-12-24 20:32:00,
2013-12-24 12:33:00,69.6,45.5,30.03,ENE,68,2.5,2.7,42,0.00,,,0.00,VWS V14.01,2013-12-24 20:33:00,
2013-12-24 12:34:00,69.6,45.5,30.03,ESE,112,2.5,3.1,42,0.00,,,0.00,VWS V14.01,2013-12-24 20:34:00,
2013-12-24 12:35:00,70.2,46.0,30.03,ENE,68,2.5,3.1,42,0.00,,,0.00,VWS V14.01,2013-12-24 20:35:00,
2013-12-24 12:36:00,70.2,46.0,30.03,ENE,68,2.5,3.1,42,0.00,,,0.00,VWS V14.01,2013-12-24 20:36:00,
2013-12-24 12:37:00,70.3,45.5,30.03,ESE,112,3.4,3.4,41,0.00,,,0.00,VWS V14.01,2013-12-24 20:37:00,
2013-12-24 12:38:00,70.3,45.5,30.03,East,90,3.6,3.6,41,0.00,,,0.00,VWS V14.01,2013-12-24 20:38:00,
2013-12-24 12:39:00,70.2,45.4,30.03,NNE,22,2.7,3.6,41,0.00,,,0.00,VWS V14.01,2013-12-24 20:39:00,
2013-12-24 12:40:00,70.2,45.4,30.03,NNE,22,2.7,3.6,41,0.00,,,0.00,VWS V14.01,2013-12-24 20:40:00,
2013-12-24 12:41:00,70.2,45.4,30.03,ESE,112,2.0,3.6,41,0.00,,,0.00,VWS V14.01,2013-12-24 20:41:00,
2013-12-24 12:42:00,70.7,45.2,30.03,SSE,158,0.9,3.6,40,0.00,,,0.00,VWS V14.01,2013-12-24 20:42:00,
2013-12-24 12:43:00,70.7,45.2,30.00,ENE,68,2.0,2.7,40,0.00,,,0.00,VWS V14.01,2013-12-24 20:43:00,
2013-12-24 12:44:00,71.1,45.5,30.00,SSE,158,2.0,2.0,40,0.00,,,0.00,VWS V14.01,2013-12-24 20:44:00,
2013-12-24 12:45:00,71.1,45.5,30.00,SSE,158,2.0,2.0,40,0.00,,,0.00,VWS V14.01,2013-12-24 20:45:00,
2013-12-24 12:46:00,71.1,45.5,30.00,SSE,158,2.0,2.0,40,0.00,,,0.00,VWS V14.01,2013-12-24 20:46:00,
2013-12-24 12:47:00,71.2,45.0,30.00,ESE,112,1.1,2.0,39,0.00,,,0.00,VWS V14.01,2013-12-24 20:47:00,
2013-12-24 12:48:00,71.2,45.0,30.00,SE,135,2.5,2.7,39,0.00,,,0.00,VWS V14.01,2013-12-24 20:48:00,
2013-12-24 12:49:00,71.6,45.4,30.00,SE,135,2.5,2.7,39,0.00,,,0.00,VWS V14.01,2013-12-24 20:49:00,
2013-12-24 12:50:00,71.6,45.4,30.00,SE,135,2.5,2.7,39,0.00,,,0.00,VWS V14.01,2013-12-24 20:50:00,
2013-12-24 12:51:00,71.8,45.5,30.00,SE,135,2.5,2.7,39,0.00,,,0.00,VWS V14.01,2013-12-24 20:51:00,
2013-12-24 12:52:00,71.8,45.5,30.00,SE,135,2.5,2.5,39,0.00,,,0.00,VWS V14.01,2013-12-24 20:52:00,
2013-12-24 12:53:00,71.6,44.0,30.00,SE,135,2.5,2.5,37,0.00,,,0.00,VWS V14.01,2013-12-24 20:53:00,
2013-12-24 12:54:00,71.6,44.0,30.00,SW,225,1.3,2.5,37,0.00,,,0.00,VWS V14.01,2013-12-24 20:54:00,
2013-12-24 12:55:00,71.6,44.0,30.00,SSE,158,5.4,5.4,37,0.00,,,0.00,VWS V14.01,2013-12-24 20:55:00,
2013-12-24 12:56:00,71.8,44.1,30.00,SSE,158,5.4,5.4,37,0.00,,,0.00,VWS V14.01,2013-12-24 20:56:00,
2013-12-24 12:57:00,71.8,44.1,30.00,South,180,2.2,5.4,37,0.00,,,0.00,VWS V14.01,2013-12-24 20:57:00,
2013-12-24 12:58:00,72.0,43.6,30.00,South,180,2.2,5.4,36,0.00,,,0.00,VWS V14.01,2013-12-24 20:58:00,
2013-12-24 12:59:00,72.0,43.6,30.00,South,180,2.2,5.4,36,0.00,,,0.00,VWS V14.01,2013-12-24 20:59:00,
2013-12-24 13:00:00,72.5,44.8,30.00,South,180,2.2,2.2,37,0.00,,,0.00,VWS V14.01,2013-12-24 21:00:00,
2013-12-24 13:01:00,72.5,44.8,30.00,South,180,2.2,2.2,37,0.00,,,0.00,VWS V14.01,2013-12-24 21:01:00,
2013-12-24 13:02:00,72.5,44.8,30.00,South,180,2.2,2.2,37,0.00,,,0.00,VWS V14.01,2013-12-24 21:02:00,
2013-12-24 13:03:00,72.1,43.0,30.00,South,180,2.2,2.2,35,0.00,,,0.00,VWS V14.01,2013-12-24 21:03:00,
2013-12-24 13:04:00,72.1,43.0,30.00,South,180,2.2,2.2,35,0.00,,,0.00,VWS V14.01,2013-12-24 21:04:00,
2013-12-24 13:05:00,72.0,42.8,30.00,SW,225,2.9,2.9,35,0.00,,,0.00,VWS V14.01,2013-12-24 21:05:00,
2013-12-24 13:06:00,72.0,42.8,30.00,South,180,2.9,2.9,35,0.00,,,0.00,VWS V14.01,2013-12-24 21:06:00,
2013-12-24 13:07:00,72.0,42.8,30.00,SSE,158,4.5,4.5,35,0.00,,,0.00,VWS V14.01,2013-12-24 21:07:00,
2013-12-24 13:08:00,72.0,42.8,30.00,SSE,158,4.5,4.5,35,0.00,,,0.00,VWS V14.01,2013-12-24 21:08:00,
2013-12-24 13:09:00,72.0,42.8,30.00,SSE,158,4.5,4.5,35,0.00,,,0.00,VWS V14.01,2013-12-24 21:09:00,
2013-12-24 13:10:00,72.0,42.8,30.00,SSE,158,4.5,4.5,35,0.00,,,0.00,VWS V14.01,2013-12-24 21:10:00,
2013-12-24 13:11:00,72.0,42.8,30.00,SSE,158,4.5,4.5,35,0.00,,,0.00,VWS V14.01,2013-12-24 21:11:00,
2013-12-24 13:12:00,72.0,42.8,30.00,SSE,158,4.5,4.5,35,0.00,,,0.00,VWS V14.01,2013-12-24 21:12:00,
2013-12-24 13:13:00,72.0,42.8,30.00,SSE,158,4.5,4.5,35,0.00,,,0.00,VWS V14.01,2013-12-24 21:13:00,
2013-12-24 13:14:00,72.0,42.8,30.00,SSE,158,4.5,4.5,35,0.00,,,0.00,VWS V14.01,2013-12-24 21:14:00,
2013-12-24 13:15:00,72.0,42.8,30.00,SSE,158,4.5,4.5,35,0.00,,,0.00,VWS V14.01,2013-12-24 21:15:00,
2013-12-24 13:16:00,72.0,42.8,30.00,SSE,158,4.5,4.5,35,0.00,,,0.00,VWS V14.01,2013-12-24 21:16:00,
2013-12-24 13:17:00,72.0,42.8,30.00,SSE,158,4.5,4.5,35,0.00,,,0.00,VWS V14.01,2013-12-24 21:17:00,
2013-12-24 13:19:00,72.0,42.8,30.00,SSE,158,4.5,4.5,35,0.00,,,0.00,VWS V14.01,2013-12-24 21:19:00,
2013-12-24 13:20:00,72.0,42.8,30.00,SSE,158,4.5,4.5,35,0.00,,,0.00,VWS V14.01,2013-12-24 21:20:00,
2013-12-24 13:21:00,72.0,42.8,30.00,SSE,158,4.5,4.5,35,0.00,,,0.00,VWS V14.01,2013-12-24 21:21:00,
2013-12-24 13:22:00,72.0,42.8,30.00,SSE,158,4.5,4.5,35,0.00,,,0.00,VWS V14.01,2013-12-24 21:22:00,
2013-12-24 13:23:00,72.0,42.8,30.00,SSE,158,4.5,4.5,35,0.00,,,0.00,VWS V14.01,2013-12-24 21:23:00,
2013-12-24 13:24:00,72.0,42.8,30.00,SSE,158,4.5,4.5,35,0.00,,,0.00,VWS V14.01,2013-12-24 21:24:00,
2013-12-24 13:25:00,72.0,42.8,30.00,SSE,158,4.5,4.5,35,0.00,,,0.00,VWS V14.01,2013-12-24 21:25:00,
2013-12-24 13:26:00,72.0,42.8,30.00,SSE,158,4.5,4.5,35,0.00,,,0.00,VWS V14.01,2013-12-24 21:26:00,
2013-12-24 13:27:00,72.0,42.8,30.00,SSE,158,4.5,4.5,35,0.00,,,0.00,VWS V14.01,2013-12-24 21:27:00,
2013-12-24 13:28:00,72.0,42.8,30.00,SSE,158,4.5,4.5,35,0.00,,,0.00,VWS V14.01,2013-12-24 21:28:00,
2013-12-24 13:29:00,72.0,42.8,30.00,SSE,158,4.5,4.5,35,0.00,,,0.00,VWS V14.01,2013-12-24 21:29:00,
2013-12-24 13:30:00,73.0,43.0,30.00,East,90,4.9,4.9,34,0.00,,,0.00,VWS V14.01,2013-12-24 21:30:00,
2013-12-24 13:31:00,73.0,43.0,30.00,East,90,4.9,4.9,34,0.00,,,0.00,VWS V14.01,2013-12-24 21:31:00,
2013-12-24 13:32:00,72.9,42.9,30.00,SSE,158,1.3,4.9,34,0.00,,,0.00,VWS V14.01,2013-12-24 21:32:00,
2013-12-24 13:33:00,73.0,43.0,30.00,SW,225,2.5,4.9,34,0.00,,,0.00,VWS V14.01,2013-12-24 21:33:00,
2013-12-24 13:34:00,73.0,43.0,30.00,ESE,112,0.0,4.9,34,0.00,,,0.00,VWS V14.01,2013-12-24 21:34:00,
2013-12-24 13:35:00,73.4,43.3,30.00,SSW,202,0.0,2.5,34,0.00,,,0.00,VWS V14.01,2013-12-24 21:35:00,
2013-12-24 13:36:00,73.4,43.3,30.00,NE,45,2.5,2.5,34,0.00,,,0.00,VWS V14.01,2013-12-24 21:36:00,
2013-12-24 13:37:00,73.9,43.8,30.00,SE,135,1.6,2.5,34,0.00,,,0.00,VWS V14.01,2013-12-24 21:37:00,
2013-12-24 13:38:00,73.9,43.8,30.00,South,180,1.6,2.5,34,0.00,,,0.00,VWS V14.01,2013-12-24 21:38:00,
2013-12-24 13:39:00,74.1,44.0,30.00,SW,225,1.1,2.5,34,0.00,,,0.00,VWS V14.01,2013-12-24 21:39:00,
2013-12-24 13:40:00,74.3,44.1,30.00,WSW,248,0.0,1.6,34,0.00,,,0.00,VWS V14.01,2013-12-24 21:40:00,
2013-12-24 13:41:00,74.3,44.2,30.00,WSW,248,0.0,1.6,34,0.00,,,0.00,VWS V14.01,2013-12-24 21:41:00,
2013-12-24 13:42:00,74.7,43.7,30.00,ENE,68,1.1,1.1,33,0.00,,,0.00,VWS V14.01,2013-12-24 21:42:00,
2013-12-24 13:43:00,74.7,43.7,30.00,SSW,202,2.2,2.2,33,0.00,,,0.00,VWS V14.01,2013-12-24 21:43:00,
2013-12-24 13:44:00,74.7,43.7,30.00,SSE,158,1.1,2.9,33,0.00,,,0.00,VWS V14.01,2013-12-24 21:44:00,
2013-12-24 13:45:00,74.7,43.7,30.00,South,180,1.6,2.9,33,0.00,,,0.00,VWS V14.01,2013-12-24 21:45:00,
2013-12-24 13:46:00,74.7,43.7,30.00,SE,135,3.1,3.1,33,0.00,,,0.00,VWS V14.01,2013-12-24 21:46:00,
2013-12-24 13:47:00,74.7,43.7,30.00,SE,135,3.1,3.1,33,0.00,,,0.00,VWS V14.01,2013-12-24 21:47:00,
2013-12-24 13:48:00,74.5,43.5,30.00,SSE,158,0.0,3.1,33,0.00,,,0.00,VWS V14.01,2013-12-24 21:48:00,
2013-12-24 13:49:00,74.5,43.5,30.00,SSE,158,0.0,3.1,33,0.00,,,0.00,VWS V14.01,2013-12-24 21:49:00,
2013-12-24 13:50:00,74.5,43.5,30.00,East,90,1.3,3.1,33,0.00,,,0.00,VWS V14.01,2013-12-24 21:50:00,
2013-12-24 13:51:00,75.0,44.0,30.00,SSW,202,3.6,3.6,33,0.00,,,0.00,VWS V14.01,2013-12-24 21:51:00,
2013-12-24 13:52:00,75.0,44.0,30.00,South,180,2.5,3.6,33,0.00,,,0.00,VWS V14.01,2013-12-24 21:52:00,
2013-12-24 13:53:00,75.4,43.5,30.00,South,180,2.5,3.6,32,0.00,,,0.00,VWS V14.01,2013-12-24 21:53:00,
2013-12-24 13:54:00,75.4,43.5,30.00,South,180,1.6,3.6,32,0.00,,,0.00,VWS V14.01,2013-12-24 21:54:00,
2013-12-24 13:55:00,75.2,43.3,30.00,South,180,1.6,2.5,32,0.00,,,0.00,VWS V14.01,2013-12-24 21:55:00,
2013-12-24 13:56:00,74.8,43.0,30.00,South,180,1.6,2.5,32,0.00,,,0.00,VWS V14.01,2013-12-24 21:56:00,
2013-12-24 13:57:00,74.8,43.0,30.00,South,180,0.9,2.5,32,0.00,,,0.00,VWS V14.01,2013-12-24 21:57:00,
2013-12-24 13:58:00,74.7,43.7,29.97,SSE,158,1.3,1.6,33,0.00,,,0.00,VWS V14.01,2013-12-24 21:58:00,
2013-12-24 13:59:00,74.7,43.7,29.97,SSE,158,1.3,1.6,33,0.00,,,0.00,VWS V14.01,2013-12-24 21:59:00,
2013-12-24 14:00:00,75.2,43.3,29.97,South,180,2.0,2.0,32,0.00,,,0.00,VWS V14.01,2013-12-24 22:00:00,
2013-12-24 14:01:00,75.2,43.3,29.97,South,180,2.5,2.5,32,0.00,,,0.00,VWS V14.01,2013-12-24 22:01:00,
2013-12-24 14:02:00,75.4,43.5,29.97,ENE,68,0.9,2.5,32,0.00,,,0.00,VWS V14.01,2013-12-24 22:02:00,
2013-12-24 14:03:00,75.6,43.7,29.97,ENE,68,1.6,2.5,32,0.00,,,0.00,VWS V14.01,2013-12-24 22:03:00,
2013-12-24 14:04:00,75.6,43.7,29.97,ENE,68,1.6,2.5,32,0.00,,,0.00,VWS V14.01,2013-12-24 22:04:00,
2013-12-24 14:05:00,75.6,43.7,29.97,ENE,68,1.6,2.5,32,0.00,,,0.00,VWS V14.01,2013-12-24 22:05:00,
2013-12-24 14:06:00,75.6,43.7,29.97,SE,135,1.3,2.5,32,0.00,,,0.00,VWS V14.01,2013-12-24 22:06:00,
2013-12-24 14:07:00,75.7,43.8,29.97,SE,135,0.9,1.6,32,0.00,,,0.00,VWS V14.01,2013-12-24 22:07:00,
2013-12-24 14:08:00,75.7,43.8,29.97,South,180,0.9,1.6,32,0.00,,,0.00,VWS V14.01,2013-12-24 22:08:00,
2013-12-24 14:09:00,75.9,44.0,29.97,East,90,0.0,1.3,32,0.00,,,0.00,VWS V14.01,2013-12-24 22:09:00,
2013-12-24 14:10:00,75.9,44.0,29.97,East,90,0.0,0.9,32,0.00,,,0.00,VWS V14.01,2013-12-24 22:10:00,
2013-12-24 14:11:00,75.9,44.0,29.97,East,90,0.0,0.9,32,0.00,,,0.00,VWS V14.01,2013-12-24 22:11:00,
2013-12-24 14:12:00,75.2,42.5,29.97,East,90,0.0,0.9,31,0.00,,,0.00,VWS V14.01,2013-12-24 22:12:00,
2013-12-24 14:13:00,75.2,42.5,29.97,East,90,0.0,0.0,31,0.00,,,0.00,VWS V14.01,2013-12-24 22:13:00,
2013-12-24 14:14:00,74.1,42.4,29.97,East,90,0.0,0.0,32,0.00,,,0.00,VWS V14.01,2013-12-24 22:14:00,
2013-12-24 14:15:00,74.1,42.4,29.97,East,90,0.0,0.0,32,0.00,,,0.00,VWS V14.01,2013-12-24 22:15:00,
2013-12-24 14:16:00,74.1,42.4,29.97,East,90,0.0,0.0,32,0.00,,,0.00,VWS V14.01,2013-12-24 22:16:00,
2013-12-24 14:17:00,74.1,42.4,29.97,SE,135,0.9,0.9,32,0.00,,,0.00,VWS V14.01,2013-12-24 22:17:00,
2013-12-24 14:18:00,74.7,42.9,29.97,SE,135,0.9,0.9,32,0.00,,,0.00,VWS V14.01,2013-12-24 22:18:00,
2013-12-24 14:19:00,75.0,43.2,29.97,SSE,158,0.0,0.9,32,0.00,,,0.00,VWS V14.01,2013-12-24 22:19:00,
2013-12-24 14:20:00,75.0,43.2,29.97,SE,135,3.4,3.4,32,0.00,,,0.00,VWS V14.01,2013-12-24 22:20:00,
2013-12-24 14:21:00,75.2,43.3,29.97,ESE,112,2.2,3.4,32,0.00,,,0.00,VWS V14.01,2013-12-24 22:21:00,
2013-12-24 14:22:00,75.2,43.3,29.97,ESE,112,2.2,3.4,32,0.00,,,0.00,VWS V14.01,2013-12-24 22:22:00,
2013-12-24 14:23:00,75.2,43.3,29.97,ESE,112,2.2,3.4,32,0.00,,,0.00,VWS V14.01,2013-12-24 22:23:00,
2013-12-24 14:24:00,75.2,43.3,29.97,ESE,112,2.2,3.4,32,0.00,,,0.00,VWS V14.01,2013-12-24 22:24:00,
2013-12-24 14:25:00,75.2,43.3,29.97,ESE,112,2.2,3.4,32,0.00,,,0.00,VWS V14.01,2013-12-24 22:25:00,
2013-12-24 14:27:00,75.2,43.3,29.97,ESE,112,2.2,2.2,32,0.00,,,0.00,VWS V14.01,2013-12-24 22:27:00,
2013-12-24 14:28:00,75.7,43.8,29.97,ESE,112,2.2,2.2,32,0.00,,,0.00,VWS V14.01,2013-12-24 22:28:00,
2013-12-24 14:29:00,75.7,43.8,29.97,ESE,112,2.2,2.2,32,0.00,,,0.00,VWS V14.01,2013-12-24 22:29:00,
2013-12-24 14:30:00,75.7,43.8,29.97,ESE,112,2.2,2.2,32,0.00,,,0.00,VWS V14.01,2013-12-24 22:30:00,
2013-12-24 14:31:00,75.7,43.8,29.97,ESE,112,2.2,2.2,32,0.00,,,0.00,VWS V14.01,2013-12-24 22:31:00,
2013-12-24 14:32:00,75.7,43.8,29.97,ESE,112,2.2,2.2,32,0.00,,,0.00,VWS V14.01,2013-12-24 22:32:00,
2013-12-24 14:33:00,75.4,43.5,29.97,ESE,112,2.2,2.2,32,0.00,,,0.00,VWS V14.01,2013-12-24 22:33:00,
2013-12-24 14:34:00,75.4,43.5,29.97,ESE,112,2.2,2.2,32,0.00,,,0.00,VWS V14.01,2013-12-24 22:34:00,
2013-12-24 14:35:00,75.4,43.5,29.97,ESE,112,2.2,2.2,32,0.00,,,0.00,VWS V14.01,2013-12-24 22:35:00,
2013-12-24 14:36:00,75.4,43.5,29.97,ESE,112,2.2,2.2,32,0.00,,,0.00,VWS V14.01,2013-12-24 22:36:00,
2013-12-24 14:37:00,75.2,43.3,29.97,South,180,2.2,2.2,32,0.00,,,0.00,VWS V14.01,2013-12-24 22:37:00,
2013-12-24 14:38:00,75.2,43.3,29.97,South,180,2.2,2.2,32,0.00,,,0.00,VWS V14.01,2013-12-24 22:38:00,
2013-12-24 14:39:00,74.8,43.0,29.97,South,180,2.2,2.2,32,0.00,,,0.00,VWS V14.01,2013-12-24 22:39:00,
2013-12-24 14:40:00,75.2,43.3,29.97,South,180,2.2,2.2,32,0.00,,,0.00,VWS V14.01,2013-12-24 22:40:00,
2013-12-24 14:41:00,75.2,43.3,29.97,South,180,2.2,2.2,32,0.00,,,0.00,VWS V14.01,2013-12-24 22:41:00,
2013-12-24 14:42:00,75.2,43.3,29.97,South,180,2.2,2.2,32,0.00,,,0.00,VWS V14.01,2013-12-24 22:42:00,
2013-12-24 14:43:00,75.2,43.3,29.97,South,180,0.0,2.2,32,0.00,,,0.00,VWS V14.01,2013-12-24 22:43:00,
2013-12-24 14:44:00,75.4,43.5,29.97,South,180,0.0,2.2,32,0.00,,,0.00,VWS V14.01,2013-12-24 22:44:00,
2013-12-24 14:45:00,75.2,43.3,29.97,South,180,0.0,2.2,32,0.00,,,0.00,VWS V14.01,2013-12-24 22:45:00,
2013-12-24 14:46:00,75.2,43.3,29.97,South,180,0.0,2.2,32,0.00,,,0.00,VWS V14.01,2013-12-24 22:46:00,
2013-12-24 14:47:00,75.2,43.3,29.97,South,180,0.9,0.9,32,0.00,,,0.00,VWS V14.01,2013-12-24 22:47:00,
2013-12-24 14:48:00,75.7,43.8,29.97,South,180,0.9,0.9,32,0.00,,,0.00,VWS V14.01,2013-12-24 22:48:00,
2013-12-24 14:49:00,76.1,44.1,29.97,SSE,158,0.0,0.9,32,0.00,,,0.00,VWS V14.01,2013-12-24 22:49:00,
2013-12-24 14:50:00,76.1,44.1,29.97,East,90,2.9,2.9,32,0.00,,,0.00,VWS V14.01,2013-12-24 22:50:00,
2013-12-24 14:51:00,75.6,43.7,29.97,ESE,112,4.0,4.0,32,0.00,,,0.00,VWS V14.01,2013-12-24 22:51:00,
2013-12-24 14:52:00,75.6,43.7,29.97,ENE,68,3.6,4.0,32,0.00,,,0.00,VWS V14.01,2013-12-24 22:52:00,
2013-12-24 14:53:00,75.4,42.7,29.97,NE,45,2.0,4.0,31,0.00,,,0.00,VWS V14.01,2013-12-24 22:53:00,
2013-12-24 14:54:00,75.4,42.7,29.97,NE,45,2.0,4.0,31,0.00,,,0.00,VWS V14.01,2013-12-24 22:54:00,
2013-12-24 14:55:00,74.5,42.7,29.97,ESE,112,3.6,3.6,32,0.00,,,0.00,VWS V14.01,2013-12-24 22:55:00,
2013-12-24 14:56:00,74.7,42.9,29.97,East,90,1.3,3.6,32,0.00,,,0.00,VWS V14.01,2013-12-24 22:56:00,
2013-12-24 14:57:00,74.7,42.9,29.97,East,90,1.3,3.6,32,0.00,,,0.00,VWS V14.01,2013-12-24 22:57:00,
2013-12-24 14:58:00,73.4,42.6,29.97,NNE,22,4.0,4.0,33,0.00,,,0.00,VWS V14.01,2013-12-24 22:58:00,
2013-12-24 14:59:00,73.4,42.6,29.97,NNE,22,4.0,4.0,33,0.00,,,0.00,VWS V14.01,2013-12-24 22:59:00,
2013-12-24 15:00:00,71.6,41.0,29.97,NNE,22,4.0,4.0,33,0.00,,,0.00,VWS V14.01,2013-12-24 23:00:00,
2013-12-24 15:01:00,71.6,41.0,29.97,NNE,22,4.0,4.0,33,0.00,,,0.00,VWS V14.01,2013-12-24 23:01:00,
2013-12-24 15:02:00,70.3,40.7,29.97,NNE,22,4.0,4.0,34,0.00,,,0.00,VWS V14.01,2013-12-24 23:02:00,
2013-12-24 15:03:00,69.4,39.9,29.97,NNE,22,4.0,4.0,34,0.00,,,0.00,VWS V14.01,2013-12-24 23:03:00,
2013-12-24 15:04:00,69.4,39.9,29.97,NNE,22,3.6,4.0,34,0.00,,,0.00,VWS V14.01,2013-12-24 23:04:00,
2013-12-24 15:05:00,69.4,39.9,29.97,NNE,22,3.6,4.0,34,0.00,,,0.00,VWS V14.01,2013-12-24 23:05:00,
2013-12-24 15:06:00,69.4,39.9,29.97,NNE,22,3.6,4.0,34,0.00,,,0.00,VWS V14.01,2013-12-24 23:06:00,
2013-12-24 15:07:00,69.1,40.3,29.97,NNE,22,3.6,4.0,35,0.00,,,0.00,VWS V14.01,2013-12-24 23:07:00,
2013-12-24 15:08:00,69.1,40.3,29.97,NNE,22,3.6,4.0,35,0.00,,,0.00,VWS V14.01,2013-12-24 23:08:00,
2013-12-24 15:09:00,68.5,40.6,29.97,NNE,22,3.6,4.0,36,0.00,,,0.00,VWS V14.01,2013-12-24 23:09:00,
2013-12-24 15:10:00,68.4,40.4,29.97,NNE,22,3.6,3.6,36,0.00,,,0.00,VWS V14.01,2013-12-24 23:10:00,
2013-12-24 15:11:00,68.4,40.4,29.97,NNE,22,3.6,3.6,36,0.00,,,0.00,VWS V14.01,2013-12-24 23:11:00,
2013-12-24 15:12:00,68.2,40.9,29.97,NNE,22,3.6,3.6,37,0.00,,,0.00,VWS V14.01,2013-12-24 23:12:00,
2013-12-24 15:13:00,68.2,40.9,30.00,NNE,22,3.6,3.6,37,0.00,,,0.00,VWS V14.01,2013-12-24 23:13:00,
2013-12-24 15:14:00,68.4,41.1,30.00,ENE,68,3.4,3.6,37,0.00,,,0.00,VWS V14.01,2013-12-24 23:14:00,
2013-12-24 15:15:00,68.4,41.1,30.00,ENE,68,3.4,3.6,37,0.00,,,0.00,VWS V14.01,2013-12-24 23:15:00,
2013-12-24 15:16:00,68.4,41.1,30.00,ENE,68,3.4,3.6,37,0.00,,,0.00,VWS V14.01,2013-12-24 23:16:00,
2013-12-24 15:17:00,68.4,41.1,30.00,NE,45,4.3,4.3,37,0.00,,,0.00,VWS V14.01,2013-12-24 23:17:00,
2013-12-24 15:18:00,68.0,40.8,30.00,NE,45,4.3,4.3,37,0.00,,,0.00,VWS V14.01,2013-12-24 23:18:00,
2013-12-24 15:19:00,67.3,40.8,30.00,NNE,22,3.8,4.3,38,0.00,,,0.00,VWS V14.01,2013-12-24 23:19:00,
2013-12-24 15:20:00,67.3,40.8,30.00,NNE,22,2.5,4.3,38,0.00,,,0.00,VWS V14.01,2013-12-24 23:20:00,
2013-12-24 15:21:00,67.1,40.7,30.00,NNE,22,2.5,4.3,38,0.00,,,0.00,VWS V14.01,2013-12-24 23:21:00,
2013-12-24 15:23:00,67.1,40.7,30.00,NNE,22,2.5,4.3,38,0.00,,,0.00,VWS V14.01,2013-12-24 23:23:00,
2013-12-24 15:24:00,67.1,40.7,30.00,NNE,22,2.5,3.8,38,0.00,,,0.00,VWS V14.01,2013-12-24 23:24:00,
2013-12-24 15:25:00,67.3,40.1,30.00,NNE,22,2.5,2.5,37,0.00,,,0.00,VWS V14.01,2013-12-24 23:25:00,
2013-12-24 15:26:00,67.8,40.6,30.00,NNE,22,2.5,2.5,37,0.00,,,0.00,VWS V14.01,2013-12-24 23:26:00,
2013-12-24 15:27:00,67.8,40.6,30.00,NNE,22,2.5,2.5,37,0.00,,,0.00,VWS V14.01,2013-12-24 23:27:00,
2013-12-24 15:28:00,68.0,40.8,29.97,NNE,22,2.5,2.5,37,0.00,,,0.00,VWS V14.01,2013-12-24 23:28:00,
2013-12-24 15:29:00,68.0,40.8,29.97,East,90,3.4,3.4,37,0.00,,,0.00,VWS V14.01,2013-12-24 23:29:00,
2013-12-24 15:30:00,68.2,40.9,29.97,East,90,3.8,3.8,37,0.00,,,0.00,VWS V14.01,2013-12-24 23:30:00,
2013-12-24 15:31:00,68.2,40.9,29.97,East,90,3.4,3.8,37,0.00,,,0.00,VWS V14.01,2013-12-24 23:31:00,
2013-12-24 15:32:00,68.2,40.9,29.97,East,90,3.4,3.8,37,0.00,,,0.00,VWS V14.01,2013-12-24 23:32:00,
2013-12-24 15:33:00,68.2,40.9,29.97,East,90,2.0,3.8,37,0.00,,,0.00,VWS V14.01,2013-12-24 23:33:00,
2013-12-24 15:34:00,68.9,41.6,29.97,ENE,68,2.5,3.8,37,0.00,,,0.00,VWS V14.01,2013-12-24 23:34:00,
2013-12-24 15:35:00,69.3,41.9,29.97,ENE,68,1.3,1.3,37,0.00,,,0.00,VWS V14.01,2013-12-24 23:35:00,
2013-12-24 15:36:00,69.3,41.9,29.97,ENE,68,1.3,1.3,37,0.00,,,0.00,VWS V14.01,2013-12-24 23:36:00,
2013-12-24 15:37:00,69.8,41.7,29.97,ENE,68,1.3,1.3,36,0.00,,,0.00,VWS V14.01,2013-12-24 23:37:00,
2013-12-24 15:38:00,69.8,41.7,29.97,ESE,112,0.0,1.3,36,0.00,,,0.00,VWS V14.01,2013-12-24 23:38:00,
2013-12-24 15:39:00,70.0,41.8,29.97,ESE,112,0.0,0.0,36,0.00,,,0.00,VWS V14.01,2013-12-24 23:39:00,
2013-12-24 15:40:00,70.2,42.0,29.97,ESE,112,0.0,0.0,36,0.00,,,0.00,VWS V14.01,2013-12-24 23:40:00,
2013-12-24 15:41:00,70.2,42.0,29.97,ESE,112,0.0,0.0,36,0.00,,,0.00,VWS V14.01,2013-12-24 23:41:00,
2013-12-24 15:42:00,70.3,42.2,29.97,ESE,112,0.0,0.0,36,0.00,,,0.00,VWS V14.01,2013-12-24 23:42:00,
2013-12-24 15:43:00,70.3,42.2,29.97,ESE,112,0.0,0.0,36,0.00,,,0.00,VWS V14.01,2013-12-24 23:43:00,
2013-12-24 15:44:00,70.0,41.1,29.97,ESE,112,0.0,0.0,35,0.00,,,0.00,VWS V14.01,2013-12-24 23:44:00,
2013-12-24 15:45:00,69.6,41.5,29.97,ESE,112,0.0,0.0,36,0.00,,,0.00,VWS V14.01,2013-12-24 23:45:00,
2013-12-24 15:46:00,69.6,41.5,29.97,ESE,112,0.0,0.0,36,0.00,,,0.00,VWS V14.01,2013-12-24 23:46:00,
2013-12-24 15:47:00,69.6,41.5,29.97,ESE,112,0.0,0.0,36,0.00,,,0.00,VWS V14.01,2013-12-24 23:47:00,
2013-12-24 15:48:00,69.6,41.5,29.97,ESE,112,1.1,1.1,36,0.00,,,0.00,VWS V14.01,2013-12-24 23:48:00,
2013-12-24 15:49:00,69.8,41.7,29.97,ESE,112,1.1,1.1,36,0.00,,,0.00,VWS V14.01,2013-12-24 23:49:00,
2013-12-24 15:50:00,69.8,41.7,29.97,ESE,112,2.5,2.5,36,0.00,,,0.00,VWS V14.01,2013-12-24 23:50:00,
2013-12-24 15:51:00,70.0,41.8,29.97,ESE,112,2.5,2.5,36,0.00,,,0.00,VWS V14.01,2013-12-24 23:51:00,
2013-12-24 15:52:00,70.0,41.8,29.97,ESE,112,2.5,2.5,36,0.00,,,0.00,VWS V14.01,2013-12-24 23:52:00,
2013-12-24 15:53:00,70.2,42.0,29.97,ESE,112,0.0,2.5,36,0.00,,,0.00,VWS V14.01,2013-12-24 23:53:00,
2013-12-24 15:54:00,70.2,42.0,29.97,ESE,112,0.0,2.5,36,0.00,,,0.00,VWS V14.01,2013-12-24 23:54:00,
2013-12-24 15:55:00,70.3,42.2,29.97,ESE,112,0.0,2.5,36,0.00,,,0.00,VWS V14.01,2013-12-24 23:55:00,
2013-12-24 15:56:00,70.5,42.3,29.97,ESE,112,0.0,0.0,36,0.00,,,0.00,VWS V14.01,2013-12-24 23:56:00,
2013-12-24 15:57:00,70.5,42.3,29.97,ESE,112,0.0,0.0,36,0.00,,,0.00,VWS V14.01,2013-12-24 23:57:00,
2013-12-24 15:58:00,70.7,42.5,29.97,ESE,112,0.0,0.0,36,0.00,,,0.00,VWS V14.01,2013-12-24 23:58:00,
2013-12-24 15:59:00,70.7,42.5,29.97,ESE,112,0.0,0.0,36,0.00,,,0.00,VWS V14.01,2013-12-24 23:59:00,
2013-12-24 16:00:00,70.7,42.5,29.97,SE,135,1.6,1.6,36,0.00,,,0.00,VWS V14.01,2013-12-25 00:00:00,
2013-12-24 16:01:00,70.7,42.5,29.97,SE,135,1.6,1.6,36,0.00,,,0.00,VWS V14.01,2013-12-25 00:01:00,
2013-12-24 16:02:00,70.7,42.5,29.97,SE,135,1.6,1.6,36,0.00,,,0.00,VWS V14.01,2013-12-25 00:02:00,
2013-12-24 16:03:00,70.7,42.5,29.97,SE,135,1.6,1.6,36,0.00,,,0.00,VWS V14.01,2013-12-25 00:03:00,
2013-12-24 16:04:00,70.5,42.3,29.97,SSE,158,0.0,1.6,36,0.00,,,0.00,VWS V14.01,2013-12-25 00:04:00,
2013-12-24 16:05:00,70.5,42.3,29.97,SSE,158,0.0,1.6,36,0.00,,,0.00,VWS V14.01,2013-12-25 00:05:00,
2013-12-24 16:06:00,70.5,42.3,29.97,SSE,158,0.0,1.6,36,0.00,,,0.00,VWS V14.01,2013-12-25 00:06:00,
2013-12-24 16:07:00,70.2,42.0,29.97,SSE,158,0.0,1.6,36,0.00,,,0.00,VWS V14.01,2013-12-25 00:07:00,
2013-12-24 16:08:00,70.2,42.0,29.97,SSE,158,0.0,0.0,36,0.00,,,0.00,VWS V14.01,2013-12-25 00:08:00,
2013-12-24 16:09:00,70.0,41.8,29.97,South,180,2.2,2.2,36,0.00,,,0.00,VWS V14.01,2013-12-25 00:09:00,
2013-12-24 16:10:00,70.2,42.0,29.97,South,180,0.0,2.2,36,0.00,,,0.00,VWS V14.01,2013-12-25 00:10:00,
2013-12-24 16:11:00,70.2,42.0,29.97,South,180,0.0,2.2,36,0.00,,,0.00,VWS V14.01,2013-12-25 00:11:00,
2013-12-24 16:12:00,70.2,42.0,29.97,South,180,0.0,2.2,36,0.00,,,0.00,VWS V14.01,2013-12-25 00:12:00,
2013-12-24 16:13:00,70.2,42.0,29.97,South,180,1.3,2.2,36,0.00,,,0.00,VWS V14.01,2013-12-25 00:13:00,
2013-12-24 16:14:00,70.2,42.0,29.97,South,180,0.0,1.3,36,0.00,,,0.00,VWS V14.01,2013-12-25 00:14:00,
2013-12-24 16:15:00,70.3,42.2,29.97,South,180,0.0,1.3,36,0.00,,,0.00,VWS V14.01,2013-12-25 00:15:00,
2013-12-24 16:16:00,70.3,42.2,29.97,South,180,0.0,1.3,36,0.00,,,0.00,VWS V14.01,2013-12-25 00:16:00,
2013-12-24 16:17:00,70.3,42.2,29.97,South,180,0.0,1.3,36,0.00,,,0.00,VWS V14.01,2013-12-25 00:17:00,
2013-12-24 16:18:00,70.5,42.3,29.97,South,180,0.0,0.0,36,0.00,,,0.00,VWS V14.01,2013-12-25 00:18:00,
2013-12-24 16:19:00,70.3,42.2,29.97,South,180,0.0,0.0,36,0.00,,,0.00,VWS V14.01,2013-12-25 00:19:00,
2013-12-24 16:20:00,70.3,42.2,29.97,South,180,0.0,0.0,36,0.00,,,0.00,VWS V14.01,2013-12-25 00:20:00,
2013-12-24 16:21:00,70.2,42.0,29.97,South,180,0.0,0.0,36,0.00,,,0.00,VWS V14.01,2013-12-25 00:21:00,
2013-12-24 16:22:00,70.2,42.0,29.97,South,180,0.0,0.0,36,0.00,,,0.00,VWS V14.01,2013-12-25 00:22:00,
2013-12-24 16:23:00,70.2,42.0,29.97,South,180,0.0,0.0,36,0.00,,,0.00,VWS V14.01,2013-12-25 00:23:00,
2013-12-24 16:24:00,70.2,42.0,29.97,South,180,0.0,0.0,36,0.00,,,0.00,VWS V14.01,2013-12-25 00:24:00,
2013-12-24 16:25:00,69.3,41.2,29.97,West,270,2.9,2.9,36,0.00,,,0.00,VWS V14.01,2013-12-25 00:25:00,
2013-12-24 16:26:00,69.3,41.2,29.97,West,270,2.7,2.9,36,0.00,,,0.00,VWS V14.01,2013-12-25 00:26:00,
2013-12-24 16:27:00,68.0,40.8,29.97,WSW,248,3.1,3.1,37,0.00,,,0.00,VWS V14.01,2013-12-25 00:27:00,
2013-12-24 16:28:00,66.9,39.8,29.97,WSW,248,3.1,3.1,37,0.00,,,0.00,VWS V14.01,2013-12-25 00:28:00,
2013-12-24 16:29:00,66.9,39.8,29.97,WSW,248,2.2,3.1,37,0.00,,,0.00,VWS V14.01,2013-12-25 00:29:00,
2013-12-24 16:30:00,66.2,39.9,29.97,WSW,248,1.6,2.5,38,0.00,,,0.00,VWS V14.01,2013-12-25 00:30:00,
2013-12-24 16:31:00,66.2,39.9,29.97,WSW,248,1.6,1.6,38,0.00,,,0.00,VWS V14.01,2013-12-25 00:31:00,
2013-12-24 16:32:00,65.5,39.2,29.97,WSW,248,0.9,1.6,38,0.00,,,0.00,VWS V14.01,2013-12-25 00:32:00,
2013-12-24 16:33:00,65.5,39.2,29.97,WSW,248,0.9,0.9,38,0.00,,,0.00,VWS V14.01,2013-12-25 00:33:00,
2013-12-24 16:34:00,64.9,38.8,29.97,WNW,292,2.5,2.5,38,0.00,,,0.00,VWS V14.01,2013-12-25 00:34:00,
2013-12-24 16:35:00,64.4,38.9,29.97,WNW,292,1.6,2.5,39,0.00,,,0.00,VWS V14.01,2013-12-25 00:35:00,
2013-12-24 16:36:00,64.4,38.9,29.97,WNW,292,2.2,2.2,39,0.00,,,0.00,VWS V14.01,2013-12-25 00:36:00,
2013-12-24 16:37:00,64.2,39.4,29.97,WNW,292,2.5,2.5,40,0.00,,,0.00,VWS V14.01,2013-12-25 00:37:00,
2013-12-24 16:38:00,64.2,39.4,29.97,WNW,292,2.7,2.7,40,0.00,,,0.00,VWS V14.01,2013-12-25 00:38:00,
2013-12-24 16:39:00,63.7,39.6,29.97,WNW,292,2.5,2.7,41,0.00,,,0.00,VWS V14.01,2013-12-25 00:39:00,
2013-12-24 16:40:00,63.3,39.2,29.97,WNW,292,2.0,2.5,41,0.00,,,0.00,VWS V14.01,2013-12-25 00:40:00,
2013-12-24 16:41:00,63.3,39.2,29.97,WNW,292,1.1,2.0,41,0.00,,,0.00,VWS V14.01,2013-12-25 00:41:00,
2013-12-24 16:42:00,63.0,39.5,29.97,WNW,292,2.7,2.7,42,0.00,,,0.00,VWS V14.01,2013-12-25 00:42:00,
2013-12-24 16:43:00,63.0,39.5,29.97,WNW,292,3.4,3.4,42,0.00,,,0.00,VWS V14.01,2013-12-25 00:43:00,
2013-12-24 16:44:00,62.6,39.8,29.97,West,270,2.7,3.4,43,0.00,,,0.00,VWS V14.01,2013-12-25 00:44:00,
2013-12-24 16:45:00,62.6,39.8,29.97,West,270,2.5,2.7,43,0.00,,,0.00,VWS V14.01,2013-12-25 00:45:00,
2013-12-24 16:46:00,62.2,40.1,29.97,West,270,3.1,3.1,44,0.00,,,0.00,VWS V14.01,2013-12-25 00:46:00,
2013-12-24 16:47:00,62.2,40.1,29.97,WNW,292,3.1,3.1,44,0.00,,,0.00,VWS V14.01,2013-12-25 00:47:00,
2013-12-24 16:48:00,62.2,40.1,29.97,West,270,2.5,3.1,44,0.00,,,0.00,VWS V14.01,2013-12-25 00:48:00,
2013-12-24 16:49:00,62.2,40.1,29.97,West,270,2.5,3.1,44,0.00,,,0.00,VWS V14.01,2013-12-25 00:49:00,
2013-12-24 16:50:00,62.2,40.1,29.97,WNW,292,1.3,3.1,44,0.00,,,0.00,VWS V14.01,2013-12-25 00:50:00,
2013-12-24 16:51:00,61.9,39.8,29.97,WNW,292,2.9,2.9,44,0.00,,,0.00,VWS V14.01,2013-12-25 00:51:00,
2013-12-24 16:52:00,61.9,39.8,29.97,WNW,292,2.9,2.9,44,0.00,,,0.00,VWS V14.01,2013-12-25 00:52:00,
2013-12-24 16:53:00,61.9,39.8,29.97,WNW,292,2.5,2.9,44,0.00,,,0.00,VWS V14.01,2013-12-25 00:53:00,
2013-12-24 16:54:00,61.9,39.8,29.97,West,270,2.7,2.9,44,0.00,,,0.00,VWS V14.01,2013-12-25 00:54:00,
2013-12-24 16:55:00,61.7,40.2,29.97,West,270,3.1,3.1,45,0.00,,,0.00,VWS V14.01,2013-12-25 00:55:00,
2013-12-24 16:56:00,61.7,40.2,29.97,West,270,3.1,3.1,45,0.00,,,0.00,VWS V14.01,2013-12-25 00:56:00,
2013-12-24 16:57:00,61.7,40.2,29.97,WNW,292,2.9,3.1,45,0.00,,,0.00,VWS V14.01,2013-12-25 00:57:00,
2013-12-24 16:59:00,61.7,40.2,29.97,WNW,292,2.9,3.1,45,0.00,,,0.00,VWS V14.01,2013-12-25 00:59:00,
2013-12-24 17:00:00,61.7,40.2,29.97,West,270,2.7,3.1,45,0.00,,,0.00,VWS V14.01,2013-12-25 01:00:00,
2013-12-24 17:01:00,61.7,40.2,29.97,WNW,292,2.0,3.1,45,0.00,,,0.00,VWS V14.01,2013-12-25 01:01:00,
2013-12-24 17:02:00,61.2,40.2,29.97,WNW,292,2.9,2.9,46,0.00,,,0.00,VWS V14.01,2013-12-25 01:02:00,
2013-12-24 17:03:00,61.2,40.2,29.97,WNW,292,2.9,2.9,46,0.00,,,0.00,VWS V14.01,2013-12-25 01:03:00,
2013-12-24 17:04:00,61.2,40.2,29.97,WNW,292,3.4,3.4,46,0.00,,,0.00,VWS V14.01,2013-12-25 01:04:00,
2013-12-24 17:05:00,61.0,40.1,29.97,WNW,292,2.9,3.4,46,0.00,,,0.00,VWS V14.01,2013-12-25 01:05:00,
2013-12-24 17:06:00,61.0,40.1,29.97,WNW,292,3.4,3.4,46,0.00,,,0.00,VWS V14.01,2013-12-25 01:06:00,
2013-12-24 17:07:00,61.0,40.1,29.97,WNW,292,2.9,3.4,46,0.00,,,0.00,VWS V14.01,2013-12-25 01:07:00,
2013-12-24 17:08:00,61.0,40.1,29.97,WNW,292,2.9,2.9,46,0.00,,,0.00,VWS V14.01,2013-12-25 01:08:00,
2013-12-24 17:09:00,60.6,40.3,29.97,WNW,292,2.0,2.9,47,0.00,,,0.00,VWS V14.01,2013-12-25 01:09:00,
2013-12-24 17:10:00,60.6,40.3,29.97,WNW,292,3.1,3.1,47,0.00,,,0.00,VWS V14.01,2013-12-25 01:10:00,
2013-12-24 17:11:00,60.6,40.3,29.97,WNW,292,3.1,3.1,47,0.00,,,0.00,VWS V14.01,2013-12-25 01:11:00,
2013-12-24 17:12:00,60.4,40.1,29.97,WNW,292,4.0,4.0,47,0.00,,,0.00,VWS V14.01,2013-12-25 01:12:00,
2013-12-24 17:13:00,60.4,40.1,29.97,WNW,292,4.0,4.0,47,0.00,,,0.00,VWS V14.01,2013-12-25 01:13:00,
2013-12-24 17:14:00,60.4,40.7,29.97,WNW,292,4.7,4.7,48,0.00,,,0.00,VWS V14.01,2013-12-25 01:14:00,
2013-12-24 17:15:00,60.4,40.7,29.97,West,270,5.4,5.4,48,0.00,,,0.00,VWS V14.01,2013-12-25 01:15:00,
2013-12-24 17:16:00,60.3,40.5,29.97,West,270,3.8,5.4,48,0.00,,,0.00,VWS V14.01,2013-12-25 01:16:00,
2013-12-24 17:17:00,60.3,40.5,29.97,West,270,2.9,5.4,48,0.00,,,0.00,VWS V14.01,2013-12-25 01:17:00,
2013-12-24 17:18:00,60.1,40.3,29.97,WNW,292,2.9,2.9,48,0.00,,,0.00,VWS V14.01,2013-12-25 01:18:00,
2013-12-24 17:19:00,60.1,40.3,29.97,WNW,292,3.1,3.1,48,0.00,,,0.00,VWS V14.01,2013-12-25 01:19:00,
2013-12-24 17:20:00,60.1,40.3,29.97,WNW,292,3.1,3.1,48,0.00,,,0.00,VWS V14.01,2013-12-25 01:20:00,
2013-12-24 17:21:00,59.9,40.2,29.97,WNW,292,3.1,3.1,48,0.00,,,0.00,VWS V14.01,2013-12-25 01:21:00,
2013-12-24 17:22:00,59.9,40.2,29.97,WNW,292,3.1,3.1,48,0.00,,,0.00,VWS V14.01,2013-12-25 01:22:00,
2013-12-24 17:23:00,59.9,40.2,29.97,West,270,4.0,4.0,48,0.00,,,0.00,VWS V14.01,2013-12-25 01:23:00,
2013-12-24 17:24:00,59.9,40.2,29.97,West,270,3.4,4.0,48,0.00,,,0.00,VWS V14.01,2013-12-25 01:24:00,
2013-12-24 17:25:00,59.9,40.2,29.97,West,270,4.0,4.0,48,0.00,,,0.00,VWS V14.01,2013-12-25 01:25:00,
2013-12-24 17:26:00,59.9,40.2,29.97,West,270,4.0,4.0,48,0.00,,,0.00,VWS V14.01,2013-12-25 01:26:00,
2013-12-24 17:27:00,59.9,40.2,29.97,West,270,2.7,4.0,48,0.00,,,0.00,VWS V14.01,2013-12-25 01:27:00,
2013-12-24 17:28:00,59.9,40.2,29.97,West,270,2.5,2.7,48,0.00,,,0.00,VWS V14.01,2013-12-25 01:28:00,
2013-12-24 17:29:00,59.9,40.2,29.97,West,270,1.3,2.7,48,0.00,,,0.00,VWS V14.01,2013-12-25 01:29:00,
2013-12-24 17:30:00,59.7,40.0,29.97,WNW,292,2.5,2.5,48,0.00,,,0.00,VWS V14.01,2013-12-25 01:30:00,
2013-12-24 17:31:00,59.7,40.0,29.97,WNW,292,2.5,2.5,48,0.00,,,0.00,VWS V14.01,2013-12-25 01:31:00,
2013-12-24 17:32:00,59.7,40.0,29.97,WNW,292,2.5,2.5,48,0.00,,,0.00,VWS V14.01,2013-12-25 01:32:00,
2013-12-24 17:33:00,59.7,40.0,29.97,WNW,292,2.5,2.5,48,0.00,,,0.00,VWS V14.01,2013-12-25 01:33:00,
2013-12-24 17:34:00,59.5,39.8,29.97,WNW,292,2.5,2.5,48,0.00,,,0.00,VWS V14.01,2013-12-25 01:34:00,
2013-12-24 17:35:00,59.5,39.8,29.97,WNW,292,2.9,2.9,48,0.00,,,0.00,VWS V14.01,2013-12-25 01:35:00,
2013-12-24 17:36:00,59.5,39.8,29.97,WNW,292,2.9,2.9,48,0.00,,,0.00,VWS V14.01,2013-12-25 01:36:00,
2013-12-24 17:37:00,59.4,39.7,29.97,WNW,292,3.1,3.1,48,0.00,,,0.00,VWS V14.01,2013-12-25 01:37:00,
2013-12-24 17:38:00,59.4,39.7,29.97,West,270,2.7,3.1,48,0.00,,,0.00,VWS V14.01,2013-12-25 01:38:00,
2013-12-24 17:39:00,59.4,40.2,29.97,WNW,292,3.4,3.4,49,0.00,,,0.00,VWS V14.01,2013-12-25 01:39:00,
2013-12-24 17:40:00,59.4,39.7,29.97,WNW,292,3.6,3.8,48,0.00,,,0.00,VWS V14.01,2013-12-25 01:40:00,
2013-12-24 17:41:00,59.4,39.7,29.97,WNW,292,3.6,3.8,48,0.00,,,0.00,VWS V14.01,2013-12-25 01:41:00,
2013-12-24 17:42:00,59.5,39.8,29.97,WNW,292,1.6,3.8,48,0.00,,,0.00,VWS V14.01,2013-12-25 01:42:00,
2013-12-24 17:43:00,59.5,39.8,29.97,WNW,292,1.6,3.8,48,0.00,,,0.00,VWS V14.01,2013-12-25 01:43:00,
2013-12-24 17:44:00,59.4,39.7,29.97,WNW,292,2.9,3.6,48,0.00,,,0.00,VWS V14.01,2013-12-25 01:44:00,
2013-12-24 17:45:00,59.4,39.7,29.97,West,270,3.6,3.6,48,0.00,,,0.00,VWS V14.01,2013-12-25 01:45:00,
2013-12-24 17:46:00,59.4,39.7,29.97,West,270,3.6,3.6,48,0.00,,,0.00,VWS V14.01,2013-12-25 01:46:00,
2013-12-24 17:47:00,59.4,39.7,29.97,West,270,3.6,3.6,48,0.00,,,0.00,VWS V14.01,2013-12-25 01:47:00,
2013-12-24 17:48:00,59.4,39.7,29.97,West,270,4.0,4.0,48,0.00,,,0.00,VWS V14.01,2013-12-25 01:48:00,
2013-12-24 17:49:00,59.4,39.7,29.97,West,270,4.0,4.0,48,0.00,,,0.00,VWS V14.01,2013-12-25 01:49:00,
2013-12-24 17:50:00,59.4,39.7,29.97,WNW,292,3.1,4.0,48,0.00,,,0.00,VWS V14.01,2013-12-25 01:50:00,
2013-12-24 17:51:00,59.2,40.0,29.97,West,270,3.1,4.0,49,0.00,,,0.00,VWS V14.01,2013-12-25 01:51:00,
2013-12-24 17:52:00,59.2,40.0,29.97,West,270,3.1,4.0,49,0.00,,,0.00,VWS V14.01,2013-12-25 01:52:00,
2013-12-24 17:53:00,59.2,39.5,29.97,West,270,2.9,3.1,48,0.00,,,0.00,VWS V14.01,2013-12-25 01:53:00,
2013-12-24 17:54:00,59.2,39.5,29.97,West,270,2.5,3.1,48,0.00,,,0.00,VWS V14.01,2013-12-25 01:54:00,
2013-12-24 17:55:00,59.0,39.4,29.97,West,270,2.5,3.1,48,0.00,,,0.00,VWS V14.01,2013-12-25 01:55:00,
2013-12-24 17:57:00,59.0,39.4,29.97,West,270,2.7,2.9,48,0.00,,,0.00,VWS V14.01,2013-12-25 01:57:00,
2013-12-24 17:58:00,59.0,39.4,29.97,West,270,2.7,2.7,48,0.00,,,0.00,VWS V14.01,2013-12-25 01:58:00,
2013-12-24 17:59:00,59.0,39.4,29.97,West,270,2.7,2.7,48,0.00,,,0.00,VWS V14.01,2013-12-25 01:59:00,
2013-12-24 18:00:00,59.0,39.4,29.97,West,270,2.7,2.7,48,0.00,,,0.00,VWS V14.01,2013-12-25 02:00:00,
2013-12-24 18:01:00,59.0,39.4,29.97,WNW,292,1.3,2.7,48,0.00,,,0.00,VWS V14.01,2013-12-25 02:01:00,
2013-12-24 18:02:00,59.0,39.4,29.97,WNW,292,1.3,1.3,48,0.00,,,0.00,VWS V14.01,2013-12-25 02:02:00,
2013-12-24 18:03:00,59.0,39.4,29.97,WNW,292,2.2,2.2,48,0.00,,,0.00,VWS V14.01,2013-12-25 02:03:00,
2013-12-24 18:04:00,58.8,39.7,29.97,WSW,248,1.6,2.2,49,0.00,,,0.00,VWS V14.01,2013-12-25 02:04:00,
2013-12-24 18:05:00,58.8,39.7,29.97,WSW,248,2.0,2.0,49,0.00,,,0.00,VWS V14.01,2013-12-25 02:05:00,
2013-12-24 18:06:00,58.8,39.7,29.97,WSW,248,1.6,2.0,49,0.00,,,0.00,VWS V14.01,2013-12-25 02:06:00,
2013-12-24 18:07:00,58.8,39.7,29.97,WSW,248,0.0,1.6,49,0.00,,,0.00,VWS V14.01,2013-12-25 02:07:00,
2013-12-24 18:08:00,58.8,39.7,29.97,WSW,248,0.0,0.0,49,0.00,,,0.00,VWS V14.01,2013-12-25 02:08:00,
2013-12-24 18:09:00,58.8,39.7,29.97,WSW,248,0.0,0.0,49,0.00,,,0.00,VWS V14.01,2013-12-25 02:09:00,
2013-12-24 18:10:00,58.8,39.7,29.97,WSW,248,0.0,0.0,49,0.00,,,0.00,VWS V14.01,2013-12-25 02:10:00,
2013-12-24 18:11:00,58.8,39.7,29.97,WSW,248,0.0,0.0,49,0.00,,,0.00,VWS V14.01,2013-12-25 02:11:00,
2013-12-24 18:12:00,58.8,39.7,29.97,WSW,248,0.0,0.0,49,0.00,,,0.00,VWS V14.01,2013-12-25 02:12:00,
2013-12-24 18:13:00,58.8,39.7,29.97,WSW,248,0.0,0.0,49,0.00,,,0.00,VWS V14.01,2013-12-25 02:13:00,
2013-12-24 18:14:00,58.5,38.9,29.97,WSW,248,1.3,1.3,48,0.00,,,0.00,VWS V14.01,2013-12-25 02:14:00,
2013-12-24 18:15:00,58.5,38.9,29.97,WSW,248,1.3,1.3,48,0.00,,,0.00,VWS V14.01,2013-12-25 02:15:00,
2013-12-24 18:16:00,58.3,38.7,29.97,WSW,248,0.0,1.3,48,0.00,,,0.00,VWS V14.01,2013-12-25 02:16:00,
2013-12-24 18:17:00,58.3,38.7,29.97,WSW,248,0.0,1.3,48,0.00,,,0.00,VWS V14.01,2013-12-25 02:17:00,
2013-12-24 18:18:00,58.1,38.5,29.97,WSW,248,0.0,0.0,48,0.00,,,0.00,VWS V14.01,2013-12-25 02:18:00,
2013-12-24 18:19:00,58.1,38.5,29.97,WSW,248,0.0,0.0,48,0.00,,,0.00,VWS V14.01,2013-12-25 02:19:00,
2013-12-24 18:20:00,58.1,38.5,29.97,WSW,248,0.0,0.0,48,0.00,,,0.00,VWS V14.01,2013-12-25 02:20:00,
2013-12-24 18:21:00,58.1,38.5,29.97,WSW,248,2.2,2.2,48,0.00,,,0.00,VWS V14.01,2013-12-25 02:21:00,
2013-12-24 18:22:00,58.1,38.5,29.97,WSW,248,1.6,2.2,48,0.00,,,0.00,VWS V14.01,2013-12-25 02:22:00,
2013-12-24 18:23:00,58.1,38.5,29.97,WSW,248,1.6,1.6,48,0.00,,,0.00,VWS V14.01,2013-12-25 02:23:00,
2013-12-24 18:24:00,58.1,38.5,29.97,WSW,248,1.6,1.6,48,0.00,,,0.00,VWS V14.01,2013-12-25 02:24:00,
2013-12-24 18:25:00,58.1,38.5,29.97,WSW,248,1.6,1.6,48,0.00,,,0.00,VWS V14.01,2013-12-25 02:25:00,
2013-12-24 18:26:00,58.1,38.5,29.97,WSW,248,1.3,1.6,48,0.00,,,0.00,VWS V14.01,2013-12-25 02:26:00,
2013-12-24 18:27:00,58.1,38.5,29.97,WSW,248,0.0,1.6,48,0.00,,,0.00,VWS V14.01,2013-12-25 02:27:00,
2013-12-24 18:28:00,57.9,38.4,29.97,WSW,248,0.0,1.6,48,0.00,,,0.00,VWS V14.01,2013-12-25 02:28:00,
2013-12-24 18:29:00,57.9,38.4,29.97,WSW,248,0.0,1.3,48,0.00,,,0.00,VWS V14.01,2013-12-25 02:29:00,
2013-12-24 18:30:00,57.6,38.0,29.97,WSW,248,0.0,0.0,48,0.00,,,0.00,VWS V14.01,2013-12-25 02:30:00,
2013-12-24 18:31:00,57.6,38.0,29.97,WSW,248,0.0,0.0,48,0.00,,,0.00,VWS V14.01,2013-12-25 02:31:00,
2013-12-24 18:32:00,57.2,37.7,29.97,WSW,248,0.0,0.0,48,0.00,,,0.00,VWS V14.01,2013-12-25 02:32:00,
2013-12-24 18:33:00,57.2,37.7,29.97,WSW,248,0.0,0.0,48,0.00,,,0.00,VWS V14.01,2013-12-25 02:33:00,
2013-12-24 18:34:00,57.2,37.7,29.97,WSW,248,0.0,0.0,48,0.00,,,0.00,VWS V14.01,2013-12-25 02:34:00,
2013-12-24 18:35:00,56.7,37.7,29.97,WSW,248,0.0,0.0,49,0.00,,,0.00,VWS V14.01,2013-12-25 02:35:00,
2013-12-24 18:36:00,56.7,37.7,29.97,WSW,248,0.0,0.0,49,0.00,,,0.00,VWS V14.01,2013-12-25 02:36:00,
2013-12-24 18:37:00,56.3,37.4,29.97,WSW,248,0.0,0.0,49,0.00,,,0.00,VWS V14.01,2013-12-25 02:37:00,
2013-12-24 18:38:00,56.3,37.4,29.97,WSW,248,0.0,0.0,49,0.00,,,0.00,VWS V14.01,2013-12-25 02:38:00,
2013-12-24 18:39:00,56.1,37.2,29.97,WSW,248,0.0,0.0,49,0.00,,,0.00,VWS V14.01,2013-12-25 02:39:00,
2013-12-24 18:40:00,56.1,37.2,29.97,WSW,248,0.0,0.0,49,0.00,,,0.00,VWS V14.01,2013-12-25 02:40:00,
2013-12-24 18:41:00,56.1,37.2,29.97,WSW,248,0.0,0.0,49,0.00,,,0.00,VWS V14.01,2013-12-25 02:41:00,
2013-12-24 18:42:00,56.1,37.2,29.97,WSW,248,0.0,0.0,49,0.00,,,0.00,VWS V14.01,2013-12-25 02:42:00,
2013-12-24 18:43:00,56.1,37.2,29.97,WSW,248,0.0,0.0,49,0.00,,,0.00,VWS V14.01,2013-12-25 02:43:00,
2013-12-24 18:44:00,56.7,37.7,29.97,WSW,248,0.0,0.0,49,0.00,,,0.00,VWS V14.01,2013-12-25 02:44:00,
2013-12-24 18:45:00,56.7,37.7,29.97,WSW,248,0.0,0.0,49,0.00,,,0.00,VWS V14.01,2013-12-25 02:45:00,
2013-12-24 18:46:00,57.4,38.4,29.97,WSW,248,0.9,0.9,49,0.00,,,0.00,VWS V14.01,2013-12-25 02:46:00,
2013-12-24 18:47:00,57.4,38.4,29.97,WSW,248,0.9,0.9,49,0.00,,,0.00,VWS V14.01,2013-12-25 02:47:00,
2013-12-24 18:48:00,57.7,39.2,29.97,WSW,248,0.9,0.9,50,0.00,,,0.00,VWS V14.01,2013-12-25 02:48:00,
2013-12-24 18:49:00,57.7,39.2,29.97,WSW,248,0.9,0.9,50,0.00,,,0.00,VWS V14.01,2013-12-25 02:49:00,
2013-12-24 18:50:00,58.1,39.6,29.97,WSW,248,0.9,0.9,50,0.00,,,0.00,VWS V14.01,2013-12-25 02:50:00,
2013-12-24 18:51:00,58.3,39.2,29.97,WSW,248,0.9,0.9,49,0.00,,,0.00,VWS V14.01,2013-12-25 02:51:00,
2013-12-24 18:52:00,58.3,39.2,29.97,WSW,248,0.9,0.9,49,0.00,,,0.00,VWS V14.01,2013-12-25 02:52:00,
2013-12-24 18:53:00,58.6,39.6,29.97,WSW,248,0.9,0.9,49,0.00,,,0.00,VWS V14.01,2013-12-25 02:53:00,
2013-12-24 18:54:00,58.6,39.6,29.97,WSW,248,0.9,0.9,49,0.00,,,0.00,VWS V14.01,2013-12-25 02:54:00,
2013-12-24 18:55:00,58.6,39.5,29.97,WSW,248,0.9,0.9,49,0.00,,,0.00,VWS V14.01,2013-12-25 02:55:00,
2013-12-24 18:56:00,58.6,39.6,29.97,WSW,248,0.9,0.9,49,0.00,,,0.00,VWS V14.01,2013-12-25 02:56:00,
2013-12-24 18:57:00,58.6,39.6,29.97,WSW,248,0.9,0.9,49,0.00,,,0.00,VWS V14.01,2013-12-25 02:57:00,
2013-12-24 18:58:00,59.2,39.5,29.97,WSW,248,0.9,0.9,48,0.00,,,0.00,VWS V14.01,2013-12-25 02:58:00,
2013-12-24 18:59:00,59.2,39.5,29.97,WSW,248,0.9,0.9,48,0.00,,,0.00,VWS V14.01,2013-12-25 02:59:00,
2013-12-24 19:00:00,59.2,39.5,29.97,WSW,248,0.9,0.9,48,0.00,,,0.00,VWS V14.01,2013-12-25 03:00:00,
2013-12-24 19:01:00,59.2,39.5,29.97,WSW,248,0.9,0.9,48,0.00,,,0.00,VWS V14.01,2013-12-25 03:01:00,
2013-12-24 19:02:00,59.4,39.7,29.97,WSW,248,0.9,0.9,48,0.00,,,0.00,VWS V14.01,2013-12-25 03:02:00,
2013-12-24 19:03:00,59.4,39.7,29.97,WSW,248,0.9,0.9,48,0.00,,,0.00,VWS V14.01,2013-12-25 03:03:00,
2013-12-24 19:04:00,59.4,39.7,29.97,WSW,248,0.9,0.9,48,0.00,,,0.00,VWS V14.01,2013-12-25 03:04:00,
2013-12-24 19:05:00,59.4,39.7,29.97,WSW,248,0.9,0.9,48,0.00,,,0.00,VWS V14.01,2013-12-25 03:05:00,
2013-12-24 19:06:00,59.4,39.7,29.97,WSW,248,0.9,0.9,48,0.00,,,0.00,VWS V14.01,2013-12-25 03:06:00,
2013-12-24 19:07:00,59.2,39.5,29.97,WSW,248,0.9,0.9,48,0.00,,,0.00,VWS V14.01,2013-12-25 03:07:00,
2013-12-24 19:08:00,59.2,39.5,29.97,WSW,248,0.9,0.9,48,0.00,,,0.00,VWS V14.01,2013-12-25 03:08:00,
2013-12-24 19:09:00,59.2,39.0,29.97,NNW,338,2.0,2.0,47,0.00,,,0.00,VWS V14.01,2013-12-25 03:09:00,
2013-12-24 19:10:00,59.2,39.0,29.97,WNW,292,2.5,2.5,47,0.00,,,0.00,VWS V14.01,2013-12-25 03:10:00,
2013-12-24 19:12:00,59.2,39.0,29.97,NW,315,2.7,2.7,47,0.00,,,0.00,VWS V14.01,2013-12-25 03:12:00,
2013-12-24 19:13:00,59.2,39.0,29.97,WNW,292,2.5,2.7,47,0.00,,,0.00,VWS V14.01,2013-12-25 03:13:00,
2013-12-24 19:14:00,59.2,39.0,29.97,WNW,292,3.1,3.1,47,0.00,,,0.00,VWS V14.01,2013-12-25 03:14:00,
2013-12-24 19:15:00,59.2,39.0,29.97,WNW,292,2.5,3.1,47,0.00,,,0.00,VWS V14.01,2013-12-25 03:15:00,
2013-12-24 19:16:00,59.2,39.0,29.97,WNW,292,2.5,3.1,47,0.00,,,0.00,VWS V14.01,2013-12-25 03:16:00,
2013-12-24 19:17:00,59.2,39.0,29.97,WNW,292,2.5,3.1,47,0.00,,,0.00,VWS V14.01,2013-12-25 03:17:00,
2013-12-24 19:18:00,59.2,39.5,29.97,WNW,292,4.0,4.0,48,0.00,,,0.00,VWS V14.01,2013-12-25 03:18:00,
2013-12-24 19:19:00,59.2,39.5,29.97,NW,315,2.5,4.0,48,0.00,,,0.00,VWS V14.01,2013-12-25 03:19:00,
2013-12-24 19:20:00,59.2,39.5,29.97,NW,315,2.5,4.0,48,0.00,,,0.00,VWS V14.01,2013-12-25 03:20:00,
2013-12-24 19:21:00,59.2,39.5,29.97,NNW,338,3.4,4.0,48,0.00,,,0.00,VWS V14.01,2013-12-25 03:21:00,
2013-12-24 19:22:00,59.2,39.5,29.97,NNW,338,2.0,4.0,48,0.00,,,0.00,VWS V14.01,2013-12-25 03:22:00,
2013-12-24 19:23:00,59.0,39.4,29.97,NW,315,2.5,3.4,48,0.00,,,0.00,VWS V14.01,2013-12-25 03:23:00,
2013-12-24 19:24:00,59.0,39.4,29.97,NW,315,2.9,3.4,48,0.00,,,0.00,VWS V14.01,2013-12-25 03:24:00,
2013-12-24 19:25:00,59.0,39.4,29.97,NW,315,2.9,3.4,48,0.00,,,0.00,VWS V14.01,2013-12-25 03:25:00,
2013-12-24 19:26:00,59.0,39.4,29.97,NNW,338,3.4,3.4,48,0.00,,,0.00,VWS V14.01,2013-12-25 03:26:00,
2013-12-24 19:27:00,58.8,39.2,29.97,NW,315,2.5,3.4,48,0.00,,,0.00,VWS V14.01,2013-12-25 03:27:00,
2013-12-24 19:28:00,58.6,39.0,29.97,WNW,292,2.0,3.4,48,0.00,,,0.00,VWS V14.01,2013-12-25 03:28:00,
2013-12-24 19:29:00,58.6,39.0,29.97,WNW,292,2.0,3.4,48,0.00,,,0.00,VWS V14.01,2013-12-25 03:29:00,
2013-12-24 19:30:00,58.6,39.0,29.97,WNW,292,2.5,3.4,48,0.00,,,0.00,VWS V14.01,2013-12-25 03:30:00,
2013-12-24 19:31:00,58.6,39.0,29.97,WNW,292,0.0,2.5,48,0.00,,,0.00,VWS V14.01,2013-12-25 03:31:00,
2013-12-24 19:32:00,58.6,39.0,29.97,WNW,292,0.0,2.5,48,0.00,,,0.00,VWS V14.01,2013-12-25 03:32:00,
2013-12-24 19:33:00,58.6,39.0,29.97,WNW,292,2.7,2.7,48,0.00,,,0.00,VWS V14.01,2013-12-25 03:33:00,
2013-12-24 19:34:00,58.5,38.9,29.97,NW,315,1.1,2.7,48,0.00,,,0.00,VWS V14.01,2013-12-25 03:34:00,
2013-12-24 19:35:00,58.3,38.7,29.97,NW,315,0.0,2.7,48,0.00,,,0.00,VWS V14.01,2013-12-25 03:35:00,
2013-12-24 19:36:00,58.3,38.7,29.97,NW,315,0.0,2.7,48,0.00,,,0.00,VWS V14.01,2013-12-25 03:36:00,
2013-12-24 19:37:00,58.1,38.5,29.97,NW,315,0.0,2.0,48,0.00,,,0.00,VWS V14.01,2013-12-25 03:37:00,
2013-12-24 19:38:00,58.1,38.5,29.97,NW,315,0.0,1.1,48,0.00,,,0.00,VWS V14.01,2013-12-25 03:38:00,
2013-12-24 19:39:00,57.6,38.0,29.97,NW,315,0.0,0.0,48,0.00,,,0.00,VWS V14.01,2013-12-25 03:39:00,
2013-12-24 19:40:00,57.6,38.0,29.97,NW,315,0.0,0.0,48,0.00,,,0.00,VWS V14.01,2013-12-25 03:40:00,
2013-12-24 19:41:00,57.2,37.7,29.97,NW,315,0.0,0.0,48,0.00,,,0.00,VWS V14.01,2013-12-25 03:41:00,
2013-12-24 19:42:00,57.2,37.7,29.97,NW,315,0.9,0.9,48,0.00,,,0.00,VWS V14.01,2013-12-25 03:42:00,
2013-12-24 19:43:00,57.0,38.1,29.97,East,90,1.6,1.6,49,0.00,,,0.00,VWS V14.01,2013-12-25 03:43:00,
2013-12-24 19:44:00,57.2,38.2,29.97,East,90,1.6,1.6,49,0.00,,,0.00,VWS V14.01,2013-12-25 03:44:00,
2013-12-24 19:45:00,57.2,38.2,29.97,North,0,2.5,2.5,49,0.00,,,0.00,VWS V14.01,2013-12-25 03:45:00,
2013-12-24 19:46:00,57.6,39.1,29.97,North,0,3.4,3.4,50,0.00,,,0.00,VWS V14.01,2013-12-25 03:46:00,
2013-12-24 19:47:00,57.6,39.1,29.97,NNW,338,2.5,3.4,50,0.00,,,0.00,VWS V14.01,2013-12-25 03:47:00,
2013-12-24 19:48:00,57.7,39.2,29.97,NNW,338,0.0,3.4,50,0.00,,,0.00,VWS V14.01,2013-12-25 03:48:00,
2013-12-24 19:49:00,57.7,39.2,29.97,NNW,338,0.0,3.4,50,0.00,,,0.00,VWS V14.01,2013-12-25 03:49:00,
2013-12-24 19:50:00,57.4,38.4,29.97,NNW,338,0.0,2.5,49,0.00,,,0.00,VWS V14.01,2013-12-25 03:50:00,
2013-12-24 19:51:00,57.2,38.2,29.97,East,90,2.5,2.5,49,0.00,,,0.00,VWS V14.01,2013-12-25 03:51:00,
2013-12-24 19:52:00,57.2,38.2,29.97,ESE,112,1.6,2.5,49,0.00,,,0.00,VWS V14.01,2013-12-25 03:52:00,
2013-12-24 19:53:00,57.0,38.6,29.97,ESE,112,1.1,2.5,50,0.00,,,0.00,VWS V14.01,2013-12-25 03:53:00,
2013-12-24 19:54:00,57.0,38.6,29.97,ESE,112,1.1,2.5,50,0.00,,,0.00,VWS V14.01,2013-12-25 03:54:00,
2013-12-24 19:55:00,57.0,38.6,29.97,ESE,112,1.1,2.5,50,0.00,,,0.00,VWS V14.01,2013-12-25 03:55:00,
2013-12-24 19:56:00,57.0,38.6,29.97,SE,135,1.6,2.5,50,0.00,,,0.00,VWS V14.01,2013-12-25 03:56:00,
2013-12-24 19:57:00,57.0,38.6,29.97,ESE,112,2.5,2.5,50,0.00,,,0.00,VWS V14.01,2013-12-25 03:57:00,
2013-12-24 19:58:00,56.7,38.2,29.97,SE,135,0.0,2.5,50,0.00,,,0.00,VWS V14.01,2013-12-25 03:58:00,
2013-12-24 19:59:00,56.7,38.2,29.97,SSE,158,2.2,2.5,50,0.00,,,0.00,VWS V14.01,2013-12-25 03:59:00,
2013-12-24 20:00:00,56.5,38.1,29.97,ESE,112,2.7,2.7,50,0.00,,,0.00,VWS V14.01,2013-12-25 04:00:00,
2013-12-24 20:01:00,56.5,38.1,29.97,ESE,112,0.9,2.7,50,0.00,,,0.00,VWS V14.01,2013-12-25 04:01:00,
2013-12-24 20:02:00,56.5,38.1,29.97,SE,135,2.2,2.7,50,0.00,,,0.00,VWS V14.01,2013-12-25 04:02:00,
2013-12-24 20:03:00,56.5,38.1,29.97,SE,135,1.1,2.7,50,0.00,,,0.00,VWS V14.01,2013-12-25 04:03:00,
2013-12-24 20:04:00,56.3,37.9,29.97,SE,135,1.1,2.2,50,0.00,,,0.00,VWS V14.01,2013-12-25 04:04:00,
2013-12-24 20:05:00,56.3,38.4,29.97,ESE,112,2.7,2.9,51,0.00,,,0.00,VWS V14.01,2013-12-25 04:05:00,
2013-12-24 20:06:00,56.3,38.4,29.97,ESE,112,2.9,2.9,51,0.00,,,0.00,VWS V14.01,2013-12-25 04:06:00,
2013-12-24 20:07:00,56.3,38.4,29.97,SE,135,0.0,2.9,51,0.00,,,0.00,VWS V14.01,2013-12-25 04:07:00,
2013-12-24 20:08:00,56.3,38.4,29.97,SE,135,2.0,2.9,51,0.00,,,0.00,VWS V14.01,2013-12-25 04:08:00,
2013-12-24 20:09:00,56.1,38.3,29.97,SE,135,0.0,2.9,51,0.00,,,0.00,VWS V14.01,2013-12-25 04:09:00,
2013-12-24 20:10:00,56.1,38.3,29.97,SE,135,1.3,2.9,51,0.00,,,0.00,VWS V14.01,2013-12-25 04:10:00,
2013-12-24 20:11:00,55.9,38.1,29.97,SE,135,0.0,2.0,51,0.00,,,0.00,VWS V14.01,2013-12-25 04:11:00,
2013-12-24 20:12:00,55.9,38.1,29.97,SE,135,0.0,2.0,51,0.00,,,0.00,VWS V14.01,2013-12-25 04:12:00,
2013-12-24 20:13:00,55.8,37.9,29.97,SE,135,0.0,1.3,51,0.00,,,0.00,VWS V14.01,2013-12-25 04:13:00,
2013-12-24 20:14:00,55.8,38.4,29.97,SSE,158,2.0,2.0,52,0.00,,,0.00,VWS V14.01,2013-12-25 04:14:00,
2013-12-24 20:15:00,55.8,38.4,29.97,SSE,158,1.6,2.0,52,0.00,,,0.00,VWS V14.01,2013-12-25 04:15:00,
2013-12-24 20:16:00,55.9,38.6,29.97,SSE,158,0.0,2.0,52,0.00,,,0.00,VWS V14.01,2013-12-25 04:16:00,
2013-12-24 20:17:00,55.9,38.6,29.97,SSE,158,1.3,2.0,52,0.00,,,0.00,VWS V14.01,2013-12-25 04:17:00,
2013-12-24 20:18:00,56.1,38.8,29.97,SSE,158,1.1,1.6,52,0.00,,,0.00,VWS V14.01,2013-12-25 04:18:00,
2013-12-24 20:19:00,56.1,38.8,29.97,SSE,158,1.3,1.3,52,0.00,,,0.00,VWS V14.01,2013-12-25 04:19:00,
2013-12-24 20:20:00,56.3,38.9,29.97,SSE,158,2.2,2.2,52,0.00,,,0.00,VWS V14.01,2013-12-25 04:20:00,
2013-12-24 20:21:00,56.3,38.9,29.97,South,180,2.5,2.5,52,0.00,,,0.00,VWS V14.01,2013-12-25 04:21:00,
2013-12-24 20:22:00,56.3,38.9,29.97,South,180,2.5,2.5,52,0.00,,,0.00,VWS V14.01,2013-12-25 04:22:00,
2013-12-24 20:23:00,56.3,38.9,29.97,South,180,2.5,2.5,52,0.00,,,0.00,VWS V14.01,2013-12-25 04:23:00,
2013-12-24 20:24:00,56.3,38.9,29.97,South,180,0.0,2.5,52,0.00,,,0.00,VWS V14.01,2013-12-25 04:24:00,
2013-12-24 20:25:00,55.9,38.6,29.97,South,180,0.0,2.5,52,0.00,,,0.00,VWS V14.01,2013-12-25 04:25:00,
2013-12-24 20:26:00,55.9,38.6,29.97,South,180,0.0,2.5,52,0.00,,,0.00,VWS V14.01,2013-12-25 04:26:00,
2013-12-24 20:27:00,55.6,38.2,29.97,South,180,0.0,0.0,52,0.00,,,0.00,VWS V14.01,2013-12-25 04:27:00,
2013-12-24 20:28:00,55.6,38.2,29.97,South,180,0.0,0.0,52,0.00,,,0.00,VWS V14.01,2013-12-25 04:28:00,
2013-12-24 20:29:00,55.2,37.9,29.97,South,180,0.0,0.0,52,0.00,,,0.00,VWS V14.01,2013-12-25 04:29:00,
2013-12-24 20:30:00,54.7,37.4,29.97,South,180,0.0,0.0,52,0.00,,,0.00,VWS V14.01,2013-12-25 04:30:00,
2013-12-24 20:31:00,54.7,37.4,29.97,South,180,0.0,0.0,52,0.00,,,0.00,VWS V14.01,2013-12-25 04:31:00,
2013-12-24 20:32:00,54.3,37.1,29.97,South,180,0.0,0.0,52,0.00,,,0.00,VWS V14.01,2013-12-25 04:32:00,
2013-12-24 20:33:00,54.3,37.1,29.97,South,180,0.0,0.0,52,0.00,,,0.00,VWS V14.01,2013-12-25 04:33:00,
2013-12-24 20:34:00,54.1,36.9,29.97,South,180,0.0,0.0,52,0.00,,,0.00,VWS V14.01,2013-12-25 04:34:00,
2013-12-24 20:35:00,54.0,36.8,29.97,South,180,0.0,0.0,52,0.00,,,0.00,VWS V14.01,2013-12-25 04:35:00,
2013-12-24 20:36:00,54.0,36.8,29.97,South,180,0.0,0.0,52,0.00,,,0.00,VWS V14.01,2013-12-25 04:36:00,
2013-12-24 20:38:00,54.0,36.8,29.97,South,180,0.0,0.0,52,0.00,,,0.00,VWS V14.01,2013-12-25 04:38:00,
2013-12-24 20:39:00,53.8,37.1,29.97,South,180,0.0,0.0,53,0.00,,,0.00,VWS V14.01,2013-12-25 04:39:00,
2013-12-24 20:40:00,53.8,37.1,29.97,South,180,0.0,0.0,53,0.00,,,0.00,VWS V14.01,2013-12-25 04:40:00,
2013-12-24 20:41:00,53.8,37.1,29.97,South,180,0.0,0.0,53,0.00,,,0.00,VWS V14.01,2013-12-25 04:41:00,
2013-12-24 20:42:00,53.8,37.1,29.97,South,180,0.0,0.0,53,0.00,,,0.00,VWS V14.01,2013-12-25 04:42:00,
2013-12-24 20:43:00,54.0,37.7,29.97,South,180,0.0,0.0,54,0.00,,,0.00,VWS V14.01,2013-12-25 04:43:00,
2013-12-24 20:44:00,54.1,37.9,29.97,South,180,0.0,0.0,54,0.00,,,0.00,VWS V14.01,2013-12-25 04:44:00,
2013-12-24 20:45:00,54.1,37.9,29.97,South,180,0.0,0.0,54,0.00,,,0.00,VWS V14.01,2013-12-25 04:45:00,
2013-12-24 20:46:00,54.3,38.5,29.97,South,180,2.5,2.5,55,0.00,,,0.00,VWS V14.01,2013-12-25 04:46:00,
2013-12-24 20:47:00,54.3,38.5,29.97,WSW,248,2.7,2.7,55,0.00,,,0.00,VWS V14.01,2013-12-25 04:47:00,
2013-12-24 20:48:00,54.5,39.1,29.97,WSW,248,3.1,3.1,56,0.00,,,0.00,VWS V14.01,2013-12-25 04:48:00,
2013-12-24 20:49:00,54.5,39.1,29.97,WSW,248,3.6,3.6,56,0.00,,,0.00,VWS V14.01,2013-12-25 04:49:00,
2013-12-24 20:50:00,54.7,39.3,29.97,WSW,248,3.6,3.6,56,0.00,,,0.00,VWS V14.01,2013-12-25 04:50:00,
2013-12-24 20:51:00,55.0,40.1,29.97,WSW,248,4.3,4.3,57,0.00,,,0.00,VWS V14.01,2013-12-25 04:51:00,
2013-12-24 20:52:00,55.0,40.1,29.97,WSW,248,4.0,4.3,57,0.00,,,0.00,VWS V14.01,2013-12-25 04:52:00,
2013-12-24 20:53:00,54.9,39.5,29.97,WSW,248,3.6,4.3,56,0.00,,,0.00,VWS V14.01,2013-12-25 04:53:00,
2013-12-24 20:54:00,54.9,39.5,29.97,WSW,248,3.1,4.3,56,0.00,,,0.00,VWS V14.01,2013-12-25 04:54:00,
2013-12-24 20:55:00,54.9,39.5,29.97,WSW,248,3.1,4.3,56,0.00,,,0.00,VWS V14.01,2013-12-25 04:55:00,
2013-12-24 20:56:00,54.9,39.5,29.97,WSW,248,3.4,4.3,56,0.00,,,0.00,VWS V14.01,2013-12-25 04:56:00,
2013-12-24 20:57:00,55.4,39.5,29.97,WSW,248,3.1,3.6,55,0.00,,,0.00,VWS V14.01,2013-12-25 04:57:00,
2013-12-24 20:58:00,55.4,39.5,29.97,WSW,248,3.4,3.4,55,0.00,,,0.00,VWS V14.01,2013-12-25 04:58:00,
2013-12-24 20:59:00,55.4,39.5,29.97,WSW,248,4.0,4.0,55,0.00,,,0.00,VWS V14.01,2013-12-25 04:59:00,
2013-12-24 21:00:00,55.6,39.7,29.97,WSW,248,3.8,4.0,55,0.00,,,0.00,VWS V14.01,2013-12-25 05:00:00,
2013-12-24 21:01:00,55.6,39.7,29.97,WSW,248,3.6,4.0,55,0.00,,,0.00,VWS V14.01,2013-12-25 05:01:00,
2013-12-24 21:02:00,55.8,39.8,29.97,WSW,248,3.8,4.0,55,0.00,,,0.00,VWS V14.01,2013-12-25 05:02:00,
2013-12-24 21:03:00,55.8,39.8,29.97,WSW,248,3.8,4.0,55,0.00,,,0.00,VWS V14.01,2013-12-25 05:03:00,
2013-12-24 21:04:00,55.9,40.0,29.97,WSW,248,4.0,4.0,55,0.00,,,0.00,VWS V14.01,2013-12-25 05:04:00,
2013-12-24 21:05:00,55.9,40.0,29.97,WSW,248,4.7,4.7,55,0.00,,,0.00,VWS V14.01,2013-12-25 05:05:00,
2013-12-24 21:06:00,56.1,39.7,29.97,WSW,248,4.9,4.9,54,0.00,,,0.00,VWS V14.01,2013-12-25 05:06:00,
2013-12-24 21:07:00,56.3,39.9,29.97,WSW,248,4.9,4.9,54,0.00,,,0.00,VWS V14.01,2013-12-25 05:07:00,
2013-12-24 21:08:00,56.3,39.9,29.97,WSW,248,4.9,4.9,54,0.00,,,0.00,VWS V14.01,2013-12-25 05:08:00,
2013-12-24 21:09:00,56.3,39.9,29.97,West,270,4.3,4.9,54,0.00,,,0.00,VWS V14.01,2013-12-25 05:09:00,
2013-12-24 21:10:00,56.3,39.9,29.97,WSW,248,4.9,4.9,54,0.00,,,0.00,VWS V14.01,2013-12-25 05:10:00,
2013-12-24 21:11:00,56.5,40.0,29.97,WSW,248,4.3,4.9,54,0.00,,,0.00,VWS V14.01,2013-12-25 05:11:00,
2013-12-24 21:12:00,56.5,40.0,29.97,WSW,248,4.3,4.9,54,0.00,,,0.00,VWS V14.01,2013-12-25 05:12:00,
2013-12-24 21:13:00,56.7,40.2,29.97,WSW,248,4.9,4.9,54,0.00,,,0.00,VWS V14.01,2013-12-25 05:13:00,
2013-12-24 21:14:00,56.7,39.7,29.97,WSW,248,4.9,4.9,53,0.00,,,0.00,VWS V14.01,2013-12-25 05:14:00,
2013-12-24 21:15:00,56.7,39.7,29.97,WSW,248,4.9,4.9,53,0.00,,,0.00,VWS V14.01,2013-12-25 05:15:00,
2013-12-24 21:16:00,56.8,39.9,29.97,West,270,4.5,4.9,53,0.00,,,0.00,VWS V14.01,2013-12-25 05:16:00,
2013-12-24 21:17:00,56.8,39.9,29.97,WSW,248,4.9,4.9,53,0.00,,,0.00,VWS V14.01,2013-12-25 05:17:00,
2013-12-24 21:18:00,56.8,39.9,29.97,WSW,248,4.7,4.9,53,0.00,,,0.00,VWS V14.01,2013-12-25 05:18:00,
2013-12-24 21:19:00,56.8,39.9,29.97,WSW,248,4.7,4.9,53,0.00,,,0.00,VWS V14.01,2013-12-25 05:19:00,
2013-12-24 21:20:00,56.8,39.9,29.97,WSW,248,4.9,4.9,53,0.00,,,0.00,VWS V14.01,2013-12-25 05:20:00,
2013-12-24 21:21:00,56.5,39.6,29.97,WSW,248,5.4,5.4,53,0.00,,,0.00,VWS V14.01,2013-12-25 05:21:00,
2013-12-24 21:22:00,56.5,39.6,29.97,WSW,248,5.4,5.4,53,0.00,,,0.00,VWS V14.01,2013-12-25 05:22:00,
2013-12-24 21:23:00,56.5,39.6,29.97,WSW,248,4.3,5.4,53,0.00,,,0.00,VWS V14.01,2013-12-25 05:23:00,
2013-12-24 21:24:00,56.5,39.6,29.97,WSW,248,4.3,5.4,53,0.00,,,0.00,VWS V14.01,2013-12-25 05:24:00,
2013-12-24 21:25:00,56.5,40.0,29.97,West,270,5.4,5.4,54,0.00,,,0.00,VWS V14.01,2013-12-25 05:25:00,
2013-12-24 21:26:00,56.5,39.6,29.97,West,270,6.0,6.0,53,0.00,,,0.00,VWS V14.01,2013-12-25 05:26:00,
2013-12-24 21:27:00,56.5,39.6,29.97,West,270,6.0,6.0,53,0.00,,,0.00,VWS V14.01,2013-12-25 05:27:00,
2013-12-24 21:28:00,56.5,39.6,30.00,WSW,248,5.6,6.0,53,0.00,,,0.00,VWS V14.01,2013-12-25 05:28:00,
2013-12-24 21:29:00,56.5,39.6,30.00,WSW,248,4.7,6.0,53,0.00,,,0.00,VWS V14.01,2013-12-25 05:29:00,
2013-12-24 21:30:00,56.7,39.7,30.00,WSW,248,4.7,6.0,53,0.00,,,0.00,VWS V14.01,2013-12-25 05:30:00,
2013-12-24 21:31:00,56.7,39.7,30.00,WSW,248,4.7,5.6,53,0.00,,,0.00,VWS V14.01,2013-12-25 05:31:00,
2013-12-24 21:32:00,56.7,39.7,30.00,WSW,248,4.7,5.6,53,0.00,,,0.00,VWS V14.01,2013-12-25 05:32:00,
2013-12-24 21:33:00,56.7,39.7,30.00,WSW,248,5.6,5.6,53,0.00,,,0.00,VWS V14.01,2013-12-25 05:33:00,
2013-12-24 21:34:00,56.7,39.7,30.00,WSW,248,4.9,5.6,53,0.00,,,0.00,VWS V14.01,2013-12-25 05:34:00,
2013-12-24 21:35:00,56.7,39.7,30.00,WSW,248,4.9,5.6,53,0.00,,,0.00,VWS V14.01,2013-12-25 05:35:00,
2013-12-24 21:36:00,56.7,39.7,30.00,WSW,248,4.9,5.6,53,0.00,,,0.00,VWS V14.01,2013-12-25 05:36:00,
2013-12-24 21:37:00,56.8,39.9,30.00,WSW,248,4.9,5.6,53,0.00,,,0.00,VWS V14.01,2013-12-25 05:37:00,
2013-12-24 21:38:00,56.8,39.9,30.00,WSW,248,4.9,5.6,53,0.00,,,0.00,VWS V14.01,2013-12-25 05:38:00,
2013-12-24 21:39:00,56.8,39.9,30.00,WSW,248,4.9,4.9,53,0.00,,,0.00,VWS V14.01,2013-12-25 05:39:00,
2013-12-24 21:40:00,56.8,39.9,30.00,WSW,248,4.7,4.9,53,0.00,,,0.00,VWS V14.01,2013-12-25 05:40:00,
2013-12-24 21:41:00,56.8,39.4,30.00,WSW,248,5.6,5.6,52,0.00,,,0.00,VWS V14.01,2013-12-25 05:41:00,
2013-12-24 21:42:00,56.8,39.4,30.00,WSW,248,5.6,5.6,52,0.00,,,0.00,VWS V14.01,2013-12-25 05:42:00,
2013-12-24 21:43:00,56.8,39.4,30.00,WSW,248,4.9,5.6,52,0.00,,,0.00,VWS V14.01,2013-12-25 05:43:00,
2013-12-24 21:44:00,57.0,39.6,30.00,WSW,248,4.7,5.6,52,0.00,,,0.00,VWS V14.01,2013-12-25 05:44:00,
2013-12-24 21:45:00,57.0,39.6,30.00,West,270,5.6,5.6,52,0.00,,,0.00,VWS V14.01,2013-12-25 05:45:00,
2013-12-24 21:46:00,57.0,39.6,30.00,WSW,248,5.4,5.8,52,0.00,,,0.00,VWS V14.01,2013-12-25 05:46:00,
2013-12-24 21:47:00,57.0,39.6,30.00,WSW,248,5.4,5.8,52,0.00,,,0.00,VWS V14.01,2013-12-25 05:47:00,
2013-12-24 21:48:00,57.2,39.2,30.00,WSW,248,6.0,6.0,51,0.00,,,0.00,VWS V14.01,2013-12-25 05:48:00,
2013-12-24 21:49:00,57.2,39.2,30.00,WSW,248,6.0,6.0,51,0.00,,,0.00,VWS V14.01,2013-12-25 05:49:00,
2013-12-24 21:50:00,57.2,39.2,30.00,WSW,248,4.9,6.0,51,0.00,,,0.00,VWS V14.01,2013-12-25 05:50:00,
2013-12-24 21:51:00,57.2,39.2,30.00,West,270,5.6,6.0,51,0.00,,,0.00,VWS V14.01,2013-12-25 05:51:00,
2013-12-24 21:52:00,57.2,39.2,30.00,West,270,5.6,6.0,51,0.00,,,0.00,VWS V14.01,2013-12-25 05:52:00,
2013-12-24 21:53:00,57.4,39.4,30.00,WSW,248,5.6,6.0,51,0.00,,,0.00,VWS V14.01,2013-12-25 05:53:00,
2013-12-24 21:54:00,57.4,39.4,30.00,WSW,248,5.6,6.0,51,0.00,,,0.00,VWS V14.01,2013-12-25 05:54:00,
2013-12-24 21:55:00,57.6,39.6,30.00,WSW,248,5.6,5.6,51,0.00,,,0.00,VWS V14.01,2013-12-25 05:55:00,
2013-12-24 21:56:00,57.6,39.6,30.00,WSW,248,4.7,5.6,51,0.00,,,0.00,VWS V14.01,2013-12-25 05:56:00,
2013-12-24 21:57:00,57.6,39.6,30.00,WSW,248,5.4,5.6,51,0.00,,,0.00,VWS V14.01,2013-12-25 05:57:00,
2013-12-24 21:58:00,57.6,39.6,30.00,WSW,248,5.8,5.8,51,0.00,,,0.00,VWS V14.01,2013-12-25 05:58:00,
2013-12-24 21:59:00,57.6,39.6,30.00,WSW,248,5.6,5.8,51,0.00,,,0.00,VWS V14.01,2013-12-25 05:59:00,
2013-12-24 22:00:00,57.7,39.2,30.00,WSW,248,3.6,5.8,50,0.00,,,0.00,VWS V14.01,2013-12-25 06:00:00,
2013-12-24 22:01:00,57.7,39.2,30.00,WSW,248,3.6,5.8,50,0.00,,,0.00,VWS V14.01,2013-12-25 06:01:00,
2013-12-24 22:02:00,57.7,39.2,30.00,WSW,248,3.6,5.8,50,0.00,,,0.00,VWS V14.01,2013-12-25 06:02:00,
2013-12-24 22:03:00,57.7,39.2,30.00,WSW,248,4.9,5.8,50,0.00,,,0.00,VWS V14.01,2013-12-25 06:03:00,
2013-12-24 22:04:00,57.7,39.2,30.00,WSW,248,4.9,4.9,50,0.00,,,0.00,VWS V14.01,2013-12-25 06:04:00,
2013-12-24 22:05:00,57.7,39.2,30.00,WSW,248,4.9,4.9,50,0.00,,,0.00,VWS V14.01,2013-12-25 06:05:00,
2013-12-24 22:06:00,57.9,39.4,30.00,WSW,248,4.9,4.9,50,0.00,,,0.00,VWS V14.01,2013-12-25 06:06:00,
2013-12-24 22:07:00,57.9,39.4,30.00,WSW,248,4.9,4.9,50,0.00,,,0.00,VWS V14.01,2013-12-25 06:07:00,
2013-12-24 22:08:00,57.9,39.4,30.00,WSW,248,4.5,4.9,50,0.00,,,0.00,VWS V14.01,2013-12-25 06:08:00,
2013-12-24 22:09:00,58.1,39.1,30.00,WSW,248,4.9,4.9,49,0.00,,,0.00,VWS V14.01,2013-12-25 06:09:00,
2013-12-24 22:10:00,58.1,39.1,30.00,WSW,248,4.9,4.9,49,0.00,,,0.00,VWS V14.01,2013-12-25 06:10:00,
2013-12-24 22:11:00,58.1,39.1,30.00,WSW,248,2.9,4.9,49,0.00,,,0.00,VWS V14.01,2013-12-25 06:11:00,
2013-12-24 22:12:00,58.1,39.1,30.00,West,270,3.6,4.9,49,0.00,,,0.00,VWS V14.01,2013-12-25 06:12:00,
2013-12-24 22:13:00,57.9,38.9,30.00,WSW,248,4.3,4.9,49,0.00,,,0.00,VWS V14.01,2013-12-25 06:13:00,
2013-12-24 22:14:00,57.9,38.9,30.00,WSW,248,6.0,6.0,49,0.00,,,0.00,VWS V14.01,2013-12-25 06:14:00,
2013-12-24 22:15:00,57.9,38.9,30.00,WSW,248,5.6,6.0,49,0.00,,,0.00,VWS V14.01,2013-12-25 06:15:00,
2013-12-24 22:16:00,57.7,38.7,30.00,WSW,248,4.3,6.0,49,0.00,,,0.00,VWS V14.01,2013-12-25 06:16:00,
2013-12-24 22:17:00,57.7,38.7,30.00,WSW,248,4.3,6.0,49,0.00,,,0.00,VWS V14.01,2013-12-25 06:17:00,
2013-12-24 22:18:00,57.7,38.7,30.00,WSW,248,5.6,6.0,49,0.00,,,0.00,VWS V14.01,2013-12-25 06:18:00,
2013-12-24 22:19:00,57.7,38.7,30.00,WSW,248,5.6,5.6,49,0.00,,,0.00,VWS V14.01,2013-12-25 06:19:00,
2013-12-24 22:20:00,57.9,38.4,30.00,WSW,248,5.4,5.6,48,0.00,,,0.00,VWS V14.01,2013-12-25 06:20:00,
2013-12-24 22:21:00,57.9,38.4,30.00,WSW,248,5.4,5.6,48,0.00,,,0.00,VWS V14.01,2013-12-25 06:21:00,
2013-12-24 22:22:00,57.9,38.4,30.00,WSW,248,4.9,5.6,48,0.00,,,0.00,VWS V14.01,2013-12-25 06:22:00,
2013-12-24 22:23:00,57.9,38.4,30.00,WSW,248,5.4,5.4,48,0.00,,,0.00,VWS V14.01,2013-12-25 06:23:00,
2013-12-24 22:24:00,57.9,38.4,30.00,WSW,248,4.0,5.4,48,0.00,,,0.00,VWS V14.01,2013-12-25 06:24:00,
2013-12-24 22:25:00,58.1,38.5,30.00,WSW,248,5.8,5.8,48,0.00,,,0.00,VWS V14.01,2013-12-25 06:25:00,
2013-12-24 22:26:00,58.1,38.0,30.00,WSW,248,4.3,5.8,47,0.00,,,0.00,VWS V14.01,2013-12-25 06:26:00,
2013-12-24 22:27:00,58.1,38.0,30.00,West,270,4.9,5.8,47,0.00,,,0.00,VWS V14.01,2013-12-25 06:27:00,
2013-12-24 22:28:00,58.1,38.0,30.03,WSW,248,5.8,5.8,47,0.00,,,0.00,VWS V14.01,2013-12-25 06:28:00,
2013-12-24 22:29:00,58.3,38.2,30.03,WSW,248,5.4,5.8,47,0.00,,,0.00,VWS V14.01,2013-12-25 06:29:00,
2013-12-24 22:30:00,58.3,38.2,30.03,WSW,248,5.4,5.8,47,0.00,,,0.00,VWS V14.01,2013-12-25 06:30:00,
2013-12-24 22:31:00,58.3,38.2,30.03,WSW,248,5.4,5.8,47,0.00,,,0.00,VWS V14.01,2013-12-25 06:31:00,
2013-12-24 22:32:00,58.3,38.2,30.03,WSW,248,5.4,5.4,47,0.00,,,0.00,VWS V14.01,2013-12-25 06:32:00,
2013-12-24 22:33:00,58.3,38.2,30.03,WSW,248,5.6,5.6,47,0.00,,,0.00,VWS V14.01,2013-12-25 06:33:00,
2013-12-24 22:34:00,58.3,38.2,30.03,WSW,248,4.3,5.6,47,0.00,,,0.00,VWS V14.01,2013-12-25 06:34:00,
2013-12-24 22:35:00,58.3,38.2,30.03,WSW,248,5.4,5.6,47,0.00,,,0.00,VWS V14.01,2013-12-25 06:35:00,
2013-12-24 22:36:00,58.3,38.2,30.03,WSW,248,4.9,5.4,47,0.00,,,0.00,VWS V14.01,2013-12-25 06:36:00,
2013-12-24 22:37:00,58.3,38.2,30.03,WSW,248,4.0,5.4,47,0.00,,,0.00,VWS V14.01,2013-12-25 06:37:00,
2013-12-24 22:38:00,58.3,38.2,30.03,WSW,248,4.9,5.4,47,0.00,,,0.00,VWS V14.01,2013-12-25 06:38:00,
2013-12-24 22:39:00,58.5,38.3,30.03,West,270,4.9,4.9,47,0.00,,,0.00,VWS V14.01,2013-12-25 06:39:00,
2013-12-24 22:40:00,58.5,38.3,30.03,West,270,4.9,4.9,47,0.00,,,0.00,VWS V14.01,2013-12-25 06:40:00,
2013-12-24 22:41:00,58.5,38.3,30.03,WSW,248,5.8,5.8,47,0.00,,,0.00,VWS V14.01,2013-12-25 06:41:00,
2013-12-24 22:42:00,58.5,38.3,30.03,WSW,248,5.8,5.8,47,0.00,,,0.00,VWS V14.01,2013-12-25 06:42:00,
2013-12-24 22:43:00,58.5,38.3,30.00,West,270,6.0,6.0,47,0.00,,,0.00,VWS V14.01,2013-12-25 06:43:00,
2013-12-24 22:44:00,58.5,38.3,30.00,WSW,248,5.4,6.0,47,0.00,,,0.00,VWS V14.01,2013-12-25 06:44:00,
2013-12-24 22:45:00,58.3,38.2,30.00,WSW,248,5.4,6.0,47,0.00,,,0.00,VWS V14.01,2013-12-25 06:45:00,
2013-12-24 22:46:00,58.1,37.5,30.00,WSW,248,4.0,6.0,46,0.00,,,0.00,VWS V14.01,2013-12-25 06:46:00,
2013-12-24 22:47:00,58.1,37.5,30.00,WSW,248,4.0,5.4,46,0.00,,,0.00,VWS V14.01,2013-12-25 06:47:00,
2013-12-24 22:48:00,58.1,37.5,30.00,WSW,248,5.6,5.6,46,0.00,,,0.00,VWS V14.01,2013-12-25 06:48:00,
2013-12-24 22:49:00,58.1,37.5,30.00,WSW,248,4.9,5.6,46,0.00,,,0.00,VWS V14.01,2013-12-25 06:49:00,
2013-12-24 22:50:00,57.9,37.3,30.00,WSW,248,4.3,5.6,46,0.00,,,0.00,VWS V14.01,2013-12-25 06:50:00,
2013-12-24 22:51:00,57.9,37.3,30.00,WSW,248,4.3,4.9,46,0.00,,,0.00,VWS V14.01,2013-12-25 06:51:00,
2013-12-24 22:52:00,57.9,37.3,30.00,West,270,4.0,4.9,46,0.00,,,0.00,VWS V14.01,2013-12-25 06:52:00,
2013-12-24 22:53:00,57.9,37.3,30.00,West,270,4.3,4.3,46,0.00,,,0.00,VWS V14.01,2013-12-25 06:53:00,
2013-12-24 22:54:00,57.9,37.3,30.00,WSW,248,4.0,4.3,46,0.00,,,0.00,VWS V14.01,2013-12-25 06:54:00,
2013-12-24 22:55:00,57.9,37.3,30.00,West,270,3.4,4.3,46,0.00,,,0.00,VWS V14.01,2013-12-25 06:55:00,
2013-12-24 22:56:00,57.7,37.1,30.00,WSW,248,3.4,4.3,46,0.00,,,0.00,VWS V14.01,2013-12-25 06:56:00,
2013-12-24 22:57:00,57.7,37.1,30.00,WSW,248,3.4,4.0,46,0.00,,,0.00,VWS V14.01,2013-12-25 06:57:00,
2013-12-24 22:58:00,57.7,37.1,30.00,WSW,248,2.7,4.0,46,0.00,,,0.00,VWS V14.01,2013-12-25 06:58:00,
2013-12-24 22:59:00,57.6,37.0,30.00,WNW,292,0.0,4.0,46,0.00,,,0.00,VWS V14.01,2013-12-25 06:59:00,
2013-12-24 23:00:00,56.8,36.8,30.00,WNW,292,0.0,3.4,47,0.00,,,0.00,VWS V14.01,2013-12-25 07:00:00,
2013-12-24 23:01:00,55.8,36.4,30.00,WNW,292,1.6,2.7,48,0.00,,,0.00,VWS V14.01,2013-12-25 07:01:00,
2013-12-24 23:02:00,55.8,36.4,30.00,WNW,292,1.6,1.6,48,0.00,,,0.00,VWS V14.01,2013-12-25 07:02:00,
2013-12-24 23:03:00,55.8,36.4,30.00,WNW,292,2.0,2.0,48,0.00,,,0.00,VWS V14.01,2013-12-25 07:03:00,
2013-12-24 23:04:00,55.2,35.9,30.00,WNW,292,2.5,2.5,48,0.00,,,0.00,VWS V14.01,2013-12-25 07:04:00,
2013-12-24 23:05:00,55.2,35.9,30.00,WNW,292,2.5,2.5,48,0.00,,,0.00,VWS V14.01,2013-12-25 07:05:00,
2013-12-24 23:06:00,55.2,35.9,30.00,WNW,292,2.0,2.5,48,0.00,,,0.00,VWS V14.01,2013-12-25 07:06:00,
2013-12-24 23:07:00,55.2,35.9,30.00,WNW,292,1.3,2.5,48,0.00,,,0.00,VWS V14.01,2013-12-25 07:07:00,
2013-12-24 23:08:00,54.5,35.8,30.00,WNW,292,1.3,2.5,49,0.00,,,0.00,VWS V14.01,2013-12-25 07:08:00,
2013-12-24 23:09:00,54.5,35.8,30.00,NNW,338,2.9,2.9,49,0.00,,,0.00,VWS V14.01,2013-12-25 07:09:00,
2013-12-24 23:10:00,54.5,35.8,30.00,NNW,338,2.0,2.9,49,0.00,,,0.00,VWS V14.01,2013-12-25 07:10:00,
2013-12-24 23:11:00,53.8,35.6,30.00,NNW,338,0.0,2.9,50,0.00,,,0.00,VWS V14.01,2013-12-25 07:11:00,
2013-12-24 23:12:00,53.8,35.6,30.00,NNW,338,0.0,2.9,50,0.00,,,0.00,VWS V14.01,2013-12-25 07:12:00,
2013-12-24 23:13:00,53.2,35.1,30.00,NNW,338,0.0,2.0,50,0.00,,,0.00,VWS V14.01,2013-12-25 07:13:00,
2013-12-24 23:14:00,53.2,35.1,30.00,NNW,338,0.0,2.0,50,0.00,,,0.00,VWS V14.01,2013-12-25 07:14:00,
2013-12-24 23:15:00,53.1,35.4,30.00,NNW,338,0.0,0.0,51,0.00,,,0.00,VWS V14.01,2013-12-25 07:15:00,
2013-12-24 23:16:00,53.2,38.0,30.00,NNE,22,2.0,2.2,56,0.00,,,0.00,VWS V14.01,2013-12-25 07:16:00,
2013-12-24 23:17:00,53.2,38.0,30.00,NNE,22,2.0,2.2,56,0.00,,,0.00,VWS V14.01,2013-12-25 07:17:00,
2013-12-24 23:18:00,53.1,39.6,30.00,NNE,22,2.7,2.7,60,0.00,,,0.00,VWS V14.01,2013-12-25 07:18:00,
2013-12-24 23:19:00,53.1,39.6,30.00,NNE,22,1.3,2.7,60,0.00,,,0.00,VWS V14.01,2013-12-25 07:19:00,
2013-12-24 23:20:00,52.3,39.3,30.00,NNE,22,1.3,2.7,61,0.00,,,0.00,VWS V14.01,2013-12-25 07:20:00,
2013-12-24 23:21:00,52.3,39.3,30.00,NNE,22,0.0,2.7,61,0.00,,,0.00,VWS V14.01,2013-12-25 07:21:00,
2013-12-24 23:22:00,52.2,38.7,30.00,NNE,22,2.9,2.9,60,0.00,,,0.00,VWS V14.01,2013-12-25 07:22:00,
2013-12-24 23:23:00,52.0,39.4,30.00,NNE,22,1.3,2.9,62,0.00,,,0.00,VWS V14.01,2013-12-25 07:23:00,
2013-12-24 23:24:00,52.0,39.4,30.00,NNE,22,0.0,2.9,62,0.00,,,0.00,VWS V14.01,2013-12-25 07:24:00,
2013-12-24 23:25:00,52.2,40.4,30.00,NNE,22,2.5,2.9,64,0.00,,,0.00,VWS V14.01,2013-12-25 07:25:00,
2013-12-24 23:26:00,52.2,40.4,30.00,NNE,22,0.0,2.5,64,0.00,,,0.00,VWS V14.01,2013-12-25 07:26:00,
2013-12-24 23:27:00,51.8,40.0,30.00,NNE,22,0.0,2.5,64,0.00,,,0.00,VWS V14.01,2013-12-25 07:27:00,
2013-12-24 23:28:00,51.8,40.0,30.03,SSE,158,0.0,2.5,64,0.00,,,0.00,VWS V14.01,2013-12-25 07:28:00,
2013-12-24 23:29:00,51.8,40.4,30.03,ESE,112,2.9,2.9,65,0.00,,,0.00,VWS V14.01,2013-12-25 07:29:00,
2013-12-24 23:30:00,51.6,40.2,30.03,ESE,112,1.3,2.9,65,0.00,,,0.00,VWS V14.01,2013-12-25 07:30:00,
2013-12-24 23:31:00,51.6,40.2,30.03,ESE,112,0.0,2.9,65,0.00,,,0.00,VWS V14.01,2013-12-25 07:31:00,
2013-12-24 23:32:00,51.3,39.1,30.03,ESE,112,2.2,2.9,63,0.00,,,0.00,VWS V14.01,2013-12-25 07:32:00,
2013-12-24 23:33:00,51.3,39.1,30.03,ESE,112,1.6,2.2,63,0.00,,,0.00,VWS V14.01,2013-12-25 07:33:00,
2013-12-24 23:34:00,51.1,39.3,30.03,ESE,112,0.0,2.2,64,0.00,,,0.00,VWS V14.01,2013-12-25 07:34:00,
2013-12-24 23:35:00,51.1,39.3,30.03,ESE,112,0.0,2.2,64,0.00,,,0.00,VWS V14.01,2013-12-25 07:35:00,
2013-12-24 23:36:00,50.9,39.6,30.03,ESE,112,0.0,1.6,65,0.00,,,0.00,VWS V14.01,2013-12-25 07:36:00,
2013-12-24 23:37:00,50.9,39.6,30.03,ESE,112,0.9,1.6,65,0.00,,,0.00,VWS V14.01,2013-12-25 07:37:00,
2013-12-24 23:38:00,51.1,40.9,30.03,ESE,112,0.0,0.9,68,0.00,,,0.00,VWS V14.01,2013-12-25 07:38:00,
2013-12-24 23:39:00,50.9,40.7,30.03,ESE,112,0.0,0.9,68,0.00,,,0.00,VWS V14.01,2013-12-25 07:39:00,
2013-12-24 23:40:00,50.9,40.7,30.03,ESE,112,0.0,0.9,68,0.00,,,0.00,VWS V14.01,2013-12-25 07:40:00,
2013-12-24 23:41:00,50.7,40.6,30.03,ESE,112,0.0,0.0,68,0.00,,,0.00,VWS V14.01,2013-12-25 07:41:00,
2013-12-24 23:42:00,50.7,40.6,30.03,ESE,112,0.0,0.0,68,0.00,,,0.00,VWS V14.01,2013-12-25 07:42:00,
2013-12-24 23:43:00,50.4,39.8,30.03,ESE,112,0.0,0.0,67,0.00,,,0.00,VWS V14.01,2013-12-25 07:43:00,
2013-12-24 23:44:00,50.4,39.8,30.03,ESE,112,0.0,0.0,67,0.00,,,0.00,VWS V14.01,2013-12-25 07:44:00,
2013-12-24 23:45:00,50.2,39.7,30.03,ESE,112,0.0,0.0,67,0.00,,,0.00,VWS V14.01,2013-12-25 07:45:00,
2013-12-24 23:46:00,50.0,39.5,30.03,ESE,112,0.0,0.0,67,0.00,,,0.00,VWS V14.01,2013-12-25 07:46:00,
2013-12-24 23:47:00,50.0,39.5,30.03,ESE,112,0.0,0.0,67,0.00,,,0.00,VWS V14.01,2013-12-25 07:47:00,
2013-12-24 23:48:00,49.6,39.2,30.03,ESE,112,0.0,0.0,67,0.00,,,0.00,VWS V14.01,2013-12-25 07:48:00,
2013-12-24 23:49:00,49.6,39.2,30.03,ESE,112,0.0,0.0,67,0.00,,,0.00,VWS V14.01,2013-12-25 07:49:00,
2013-12-24 23:50:00,49.5,39.3,30.03,ESE,112,0.0,0.0,68,0.00,,,0.00,VWS V14.01,2013-12-25 07:50:00,
2013-12-24 23:51:00,49.5,39.3,30.03,ESE,112,0.0,0.0,68,0.00,,,0.00,VWS V14.01,2013-12-25 07:51:00,
2013-12-24 23:52:00,49.5,39.3,30.03,ESE,112,0.0,0.0,68,0.00,,,0.00,VWS V14.01,2013-12-25 07:52:00,
2013-12-24 23:54:00,49.5,39.3,30.03,ESE,112,0.0,0.0,68,0.00,,,0.00,VWS V14.01,2013-12-25 07:54:00,
2013-12-24 23:55:00,49.1,39.0,30.03,ESE,112,0.0,0.0,68,0.00,,,0.00,VWS V14.01,2013-12-25 07:55:00,
2013-12-24 23:56:00,49.1,39.0,30.03,ESE,112,0.0,0.0,68,0.00,,,0.00,VWS V14.01,2013-12-25 07:56:00,
2013-12-24 23:57:00,49.1,38.6,30.03,ESE,112,0.0,0.0,67,0.00,,,0.00,VWS V14.01,2013-12-25 07:57:00,
2013-12-24 23:58:00,49.1,38.6,30.03,ESE,112,0.0,0.0,67,0.00,,,0.00,VWS V14.01,2013-12-25 07:58:00,
2013-12-24 23:59:00,48.9,38.1,30.03,ESE,112,0.0,0.0,66,0.00,,,0.00,VWS V14.01,2013-12-25 07:59:00,